<?xml version="1.0" encoding="UTF-8" standalone="no" ?>
<gpx xmlns="http://www.topografix.com/GPX/1/1" xmlns:xsi="http://www.w3.org/2001/XMLSchema-instance" xsi:schemaLocation="http://www.topografix.com/GPX/1/1 http://www.topografix.com/GPX/1/1/gpx.xsd" version="1.1" creator="VisuGPX - https://www.visugpx.com">
  <metadata>
    <name>Activité de Randonnée TwoNav</name>
    <desc><![CDATA[2021-11-14_094040.trk]]></desc>
  </metadata>
  <trk>
    <name><![CDATA[Activité de Randonnée TwoNav_1]]></name>
    <trkseg>
      <trkpt lat="49.1237" lon="7.09129">
        <ele>235.1</ele>
        <time>2021-11-14T08:40:40Z</time>
      </trkpt>
      <trkpt lat="49.1237" lon="7.09129">
        <ele>235.1</ele>
        <time>2021-11-14T08:40:40Z</time>
      </trkpt>
      <trkpt lat="49.12382" lon="7.09128">
        <ele>235.5</ele>
        <time>2021-11-14T08:40:41Z</time>
      </trkpt>
      <trkpt lat="49.12395" lon="7.09127">
        <ele>235.9</ele>
        <time>2021-11-14T08:40:42Z</time>
      </trkpt>
      <trkpt lat="49.12404" lon="7.09127">
        <ele>236.2</ele>
        <time>2021-11-14T08:40:43Z</time>
      </trkpt>
      <trkpt lat="49.12416" lon="7.09129">
        <ele>236.6</ele>
        <time>2021-11-14T08:40:45Z</time>
      </trkpt>
      <trkpt lat="49.12428" lon="7.0913">
        <ele>236.9</ele>
        <time>2021-11-14T08:40:47Z</time>
      </trkpt>
      <trkpt lat="49.12441" lon="7.09133">
        <ele>237.3</ele>
        <time>2021-11-14T08:40:50Z</time>
      </trkpt>
      <trkpt lat="49.1245" lon="7.09135">
        <ele>237.6</ele>
        <time>2021-11-14T08:40:53Z</time>
      </trkpt>
      <trkpt lat="49.12459" lon="7.09142">
        <ele>237.9</ele>
        <time>2021-11-14T08:41:00Z</time>
      </trkpt>
      <trkpt lat="49.12467" lon="7.0915">
        <ele>238.3</ele>
        <time>2021-11-14T08:41:04Z</time>
      </trkpt>
      <trkpt lat="49.12476" lon="7.09154">
        <ele>238.6</ele>
        <time>2021-11-14T08:41:09Z</time>
      </trkpt>
      <trkpt lat="49.12485" lon="7.0916">
        <ele>239</ele>
        <time>2021-11-14T08:41:16Z</time>
      </trkpt>
      <trkpt lat="49.12489" lon="7.09173">
        <ele>239.3</ele>
        <time>2021-11-14T08:41:22Z</time>
      </trkpt>
      <trkpt lat="49.12498" lon="7.09181">
        <ele>239.8</ele>
        <time>2021-11-14T08:41:31Z</time>
      </trkpt>
      <trkpt lat="49.12509" lon="7.09185">
        <ele>240.2</ele>
        <time>2021-11-14T08:41:36Z</time>
      </trkpt>
      <trkpt lat="49.12517" lon="7.09191">
        <ele>240.6</ele>
        <time>2021-11-14T08:41:43Z</time>
      </trkpt>
      <trkpt lat="49.12526" lon="7.092">
        <ele>241</ele>
        <time>2021-11-14T08:41:50Z</time>
      </trkpt>
      <trkpt lat="49.12534" lon="7.09209">
        <ele>241.3</ele>
        <time>2021-11-14T08:41:58Z</time>
      </trkpt>
      <trkpt lat="49.12533" lon="7.09224">
        <ele>241.6</ele>
        <time>2021-11-14T08:42:06Z</time>
      </trkpt>
      <trkpt lat="49.12539" lon="7.09236">
        <ele>242</ele>
        <time>2021-11-14T08:42:13Z</time>
      </trkpt>
      <trkpt lat="49.12547" lon="7.09245">
        <ele>242.3</ele>
        <time>2021-11-14T08:42:21Z</time>
      </trkpt>
      <trkpt lat="49.12554" lon="7.09255">
        <ele>242.6</ele>
        <time>2021-11-14T08:42:28Z</time>
      </trkpt>
      <trkpt lat="49.12563" lon="7.09261">
        <ele>243</ele>
        <time>2021-11-14T08:42:34Z</time>
      </trkpt>
      <trkpt lat="49.1257" lon="7.09269">
        <ele>243.2</ele>
        <time>2021-11-14T08:42:41Z</time>
      </trkpt>
      <trkpt lat="49.12578" lon="7.09279">
        <ele>243.5</ele>
        <time>2021-11-14T08:42:48Z</time>
      </trkpt>
      <trkpt lat="49.12585" lon="7.09288">
        <ele>243.8</ele>
        <time>2021-11-14T08:42:55Z</time>
      </trkpt>
      <trkpt lat="49.12592" lon="7.09297">
        <ele>244.1</ele>
        <time>2021-11-14T08:43:03Z</time>
      </trkpt>
      <trkpt lat="49.126" lon="7.09308">
        <ele>244.5</ele>
        <time>2021-11-14T08:43:11Z</time>
      </trkpt>
      <trkpt lat="49.12607" lon="7.09316">
        <ele>244.7</ele>
        <time>2021-11-14T08:43:18Z</time>
      </trkpt>
      <trkpt lat="49.12614" lon="7.09326">
        <ele>245</ele>
        <time>2021-11-14T08:43:26Z</time>
      </trkpt>
      <trkpt lat="49.12621" lon="7.09336">
        <ele>245.3</ele>
        <time>2021-11-14T08:43:33Z</time>
      </trkpt>
      <trkpt lat="49.12628" lon="7.09346">
        <ele>245.4</ele>
        <time>2021-11-14T08:43:41Z</time>
      </trkpt>
      <trkpt lat="49.12634" lon="7.09356">
        <ele>245.5</ele>
        <time>2021-11-14T08:43:48Z</time>
      </trkpt>
      <trkpt lat="49.1264" lon="7.09367">
        <ele>245.6</ele>
        <time>2021-11-14T08:43:55Z</time>
      </trkpt>
      <trkpt lat="49.12646" lon="7.09378">
        <ele>245.8</ele>
        <time>2021-11-14T08:44:03Z</time>
      </trkpt>
      <trkpt lat="49.12653" lon="7.09389">
        <ele>246</ele>
        <time>2021-11-14T08:44:11Z</time>
      </trkpt>
      <trkpt lat="49.1266" lon="7.094">
        <ele>246.3</ele>
        <time>2021-11-14T08:44:18Z</time>
      </trkpt>
      <trkpt lat="49.12665" lon="7.09412">
        <ele>246.5</ele>
        <time>2021-11-14T08:44:27Z</time>
      </trkpt>
      <trkpt lat="49.12671" lon="7.09424">
        <ele>246.7</ele>
        <time>2021-11-14T08:44:35Z</time>
      </trkpt>
      <trkpt lat="49.12677" lon="7.09437">
        <ele>246.9</ele>
        <time>2021-11-14T08:44:43Z</time>
      </trkpt>
      <trkpt lat="49.12682" lon="7.09449">
        <ele>247.2</ele>
        <time>2021-11-14T08:44:50Z</time>
      </trkpt>
      <trkpt lat="49.12686" lon="7.09462">
        <ele>247.3</ele>
        <time>2021-11-14T08:44:58Z</time>
      </trkpt>
      <trkpt lat="49.12691" lon="7.09475">
        <ele>247.6</ele>
        <time>2021-11-14T08:45:08Z</time>
      </trkpt>
      <trkpt lat="49.12697" lon="7.09487">
        <ele>247.7</ele>
        <time>2021-11-14T08:45:16Z</time>
      </trkpt>
      <trkpt lat="49.12701" lon="7.095">
        <ele>247.9</ele>
        <time>2021-11-14T08:45:23Z</time>
      </trkpt>
      <trkpt lat="49.12705" lon="7.09513">
        <ele>248.1</ele>
        <time>2021-11-14T08:45:32Z</time>
      </trkpt>
      <trkpt lat="49.12709" lon="7.09527">
        <ele>248.4</ele>
        <time>2021-11-14T08:45:41Z</time>
      </trkpt>
      <trkpt lat="49.12715" lon="7.09539">
        <ele>248.6</ele>
        <time>2021-11-14T08:45:49Z</time>
      </trkpt>
      <trkpt lat="49.12719" lon="7.09552">
        <ele>248.8</ele>
        <time>2021-11-14T08:45:57Z</time>
      </trkpt>
      <trkpt lat="49.12724" lon="7.09565">
        <ele>249.1</ele>
        <time>2021-11-14T08:46:05Z</time>
      </trkpt>
      <trkpt lat="49.12729" lon="7.09577">
        <ele>249.4</ele>
        <time>2021-11-14T08:46:13Z</time>
      </trkpt>
      <trkpt lat="49.12733" lon="7.09591">
        <ele>249.7</ele>
        <time>2021-11-14T08:46:22Z</time>
      </trkpt>
      <trkpt lat="49.12738" lon="7.09604">
        <ele>250</ele>
        <time>2021-11-14T08:46:30Z</time>
      </trkpt>
      <trkpt lat="49.1274" lon="7.09617">
        <ele>250.3</ele>
        <time>2021-11-14T08:46:37Z</time>
      </trkpt>
      <trkpt lat="49.12744" lon="7.09631">
        <ele>250.6</ele>
        <time>2021-11-14T08:46:45Z</time>
      </trkpt>
      <trkpt lat="49.12747" lon="7.09645">
        <ele>250.8</ele>
        <time>2021-11-14T08:46:54Z</time>
      </trkpt>
      <trkpt lat="49.12751" lon="7.09658">
        <ele>251.1</ele>
        <time>2021-11-14T08:47:03Z</time>
      </trkpt>
      <trkpt lat="49.12754" lon="7.09671">
        <ele>251.3</ele>
        <time>2021-11-14T08:47:12Z</time>
      </trkpt>
      <trkpt lat="49.12757" lon="7.09685">
        <ele>251.6</ele>
        <time>2021-11-14T08:47:20Z</time>
      </trkpt>
      <trkpt lat="49.12761" lon="7.09698">
        <ele>251.8</ele>
        <time>2021-11-14T08:47:28Z</time>
      </trkpt>
      <trkpt lat="49.12765" lon="7.09711">
        <ele>252</ele>
        <time>2021-11-14T08:47:36Z</time>
      </trkpt>
      <trkpt lat="49.12767" lon="7.09725">
        <ele>252.2</ele>
        <time>2021-11-14T08:47:44Z</time>
      </trkpt>
      <trkpt lat="49.12771" lon="7.09738">
        <ele>252.5</ele>
        <time>2021-11-14T08:47:52Z</time>
      </trkpt>
      <trkpt lat="49.12775" lon="7.09752">
        <ele>252.8</ele>
        <time>2021-11-14T08:48:01Z</time>
      </trkpt>
      <trkpt lat="49.12779" lon="7.09765">
        <ele>253</ele>
        <time>2021-11-14T08:48:09Z</time>
      </trkpt>
      <trkpt lat="49.12783" lon="7.09778">
        <ele>253.1</ele>
        <time>2021-11-14T08:48:18Z</time>
      </trkpt>
      <trkpt lat="49.12787" lon="7.0979">
        <ele>253.2</ele>
        <time>2021-11-14T08:48:26Z</time>
      </trkpt>
      <trkpt lat="49.1279" lon="7.09804">
        <ele>253.5</ele>
        <time>2021-11-14T08:48:34Z</time>
      </trkpt>
      <trkpt lat="49.12794" lon="7.09817">
        <ele>253.8</ele>
        <time>2021-11-14T08:48:42Z</time>
      </trkpt>
      <trkpt lat="49.12798" lon="7.09831">
        <ele>254.1</ele>
        <time>2021-11-14T08:48:50Z</time>
      </trkpt>
      <trkpt lat="49.12802" lon="7.09845">
        <ele>254.4</ele>
        <time>2021-11-14T08:48:59Z</time>
      </trkpt>
      <trkpt lat="49.12806" lon="7.09858">
        <ele>254.7</ele>
        <time>2021-11-14T08:49:07Z</time>
      </trkpt>
      <trkpt lat="49.1281" lon="7.09872">
        <ele>254.9</ele>
        <time>2021-11-14T08:49:15Z</time>
      </trkpt>
      <trkpt lat="49.12812" lon="7.09886">
        <ele>255.2</ele>
        <time>2021-11-14T08:49:23Z</time>
      </trkpt>
      <trkpt lat="49.12816" lon="7.09899">
        <ele>255.5</ele>
        <time>2021-11-14T08:49:32Z</time>
      </trkpt>
      <trkpt lat="49.1282" lon="7.09912">
        <ele>255.7</ele>
        <time>2021-11-14T08:49:39Z</time>
      </trkpt>
      <trkpt lat="49.12824" lon="7.09924">
        <ele>255.8</ele>
        <time>2021-11-14T08:49:46Z</time>
      </trkpt>
      <trkpt lat="49.12827" lon="7.09937">
        <ele>256</ele>
        <time>2021-11-14T08:49:53Z</time>
      </trkpt>
      <trkpt lat="49.12832" lon="7.0995">
        <ele>256.2</ele>
        <time>2021-11-14T08:50:01Z</time>
      </trkpt>
      <trkpt lat="49.12835" lon="7.09964">
        <ele>256.3</ele>
        <time>2021-11-14T08:50:09Z</time>
      </trkpt>
      <trkpt lat="49.12839" lon="7.09978">
        <ele>256.5</ele>
        <time>2021-11-14T08:50:17Z</time>
      </trkpt>
      <trkpt lat="49.12843" lon="7.09991">
        <ele>256.6</ele>
        <time>2021-11-14T08:50:25Z</time>
      </trkpt>
      <trkpt lat="49.12847" lon="7.10004">
        <ele>256.6</ele>
        <time>2021-11-14T08:50:32Z</time>
      </trkpt>
      <trkpt lat="49.1285" lon="7.10017">
        <ele>256.6</ele>
        <time>2021-11-14T08:50:40Z</time>
      </trkpt>
      <trkpt lat="49.12854" lon="7.10031">
        <ele>256.7</ele>
        <time>2021-11-14T08:50:48Z</time>
      </trkpt>
      <trkpt lat="49.12856" lon="7.10045">
        <ele>256.8</ele>
        <time>2021-11-14T08:50:58Z</time>
      </trkpt>
      <trkpt lat="49.12861" lon="7.10058">
        <ele>256.9</ele>
        <time>2021-11-14T08:51:07Z</time>
      </trkpt>
      <trkpt lat="49.1287" lon="7.10058">
        <ele>256.9</ele>
        <time>2021-11-14T08:51:19Z</time>
      </trkpt>
      <trkpt lat="49.12878" lon="7.10052">
        <ele>256.9</ele>
        <time>2021-11-14T08:51:28Z</time>
      </trkpt>
      <trkpt lat="49.12886" lon="7.10045">
        <ele>256.8</ele>
        <time>2021-11-14T08:51:37Z</time>
      </trkpt>
      <trkpt lat="49.12895" lon="7.10037">
        <ele>256.8</ele>
        <time>2021-11-14T08:51:44Z</time>
      </trkpt>
      <trkpt lat="49.12904" lon="7.10031">
        <ele>256.8</ele>
        <time>2021-11-14T08:51:53Z</time>
      </trkpt>
      <trkpt lat="49.12912" lon="7.10023">
        <ele>256.8</ele>
        <time>2021-11-14T08:52:00Z</time>
      </trkpt>
      <trkpt lat="49.12921" lon="7.10016">
        <ele>256.9</ele>
        <time>2021-11-14T08:52:07Z</time>
      </trkpt>
      <trkpt lat="49.1293" lon="7.10012">
        <ele>256.9</ele>
        <time>2021-11-14T08:52:14Z</time>
      </trkpt>
      <trkpt lat="49.12938" lon="7.10007">
        <ele>257</ele>
        <time>2021-11-14T08:52:22Z</time>
      </trkpt>
      <trkpt lat="49.12946" lon="7.1">
        <ele>257</ele>
        <time>2021-11-14T08:52:32Z</time>
      </trkpt>
      <trkpt lat="49.12954" lon="7.09992">
        <ele>257.1</ele>
        <time>2021-11-14T08:52:41Z</time>
      </trkpt>
      <trkpt lat="49.12963" lon="7.09988">
        <ele>257</ele>
        <time>2021-11-14T08:52:50Z</time>
      </trkpt>
      <trkpt lat="49.12974" lon="7.09984">
        <ele>257</ele>
        <time>2021-11-14T08:52:57Z</time>
      </trkpt>
      <trkpt lat="49.12984" lon="7.0998">
        <ele>257</ele>
        <time>2021-11-14T08:53:02Z</time>
      </trkpt>
      <trkpt lat="49.12993" lon="7.09979">
        <ele>256.9</ele>
        <time>2021-11-14T08:53:09Z</time>
      </trkpt>
      <trkpt lat="49.13002" lon="7.0998">
        <ele>256.9</ele>
        <time>2021-11-14T08:53:17Z</time>
      </trkpt>
      <trkpt lat="49.13012" lon="7.09982">
        <ele>256.9</ele>
        <time>2021-11-14T08:53:25Z</time>
      </trkpt>
      <trkpt lat="49.13021" lon="7.09986">
        <ele>256.9</ele>
        <time>2021-11-14T08:53:33Z</time>
      </trkpt>
      <trkpt lat="49.1303" lon="7.0999">
        <ele>257</ele>
        <time>2021-11-14T08:53:41Z</time>
      </trkpt>
      <trkpt lat="49.1304" lon="7.09996">
        <ele>257</ele>
        <time>2021-11-14T08:53:49Z</time>
      </trkpt>
      <trkpt lat="49.13048" lon="7.10002">
        <ele>257</ele>
        <time>2021-11-14T08:53:57Z</time>
      </trkpt>
      <trkpt lat="49.13057" lon="7.10009">
        <ele>257.1</ele>
        <time>2021-11-14T08:54:05Z</time>
      </trkpt>
      <trkpt lat="49.13065" lon="7.10016">
        <ele>257.1</ele>
        <time>2021-11-14T08:54:14Z</time>
      </trkpt>
      <trkpt lat="49.13074" lon="7.10023">
        <ele>257.1</ele>
        <time>2021-11-14T08:54:22Z</time>
      </trkpt>
      <trkpt lat="49.13083" lon="7.1003">
        <ele>257.2</ele>
        <time>2021-11-14T08:54:31Z</time>
      </trkpt>
      <trkpt lat="49.13092" lon="7.10037">
        <ele>257.2</ele>
        <time>2021-11-14T08:54:39Z</time>
      </trkpt>
      <trkpt lat="49.131" lon="7.10043">
        <ele>257.4</ele>
        <time>2021-11-14T08:54:47Z</time>
      </trkpt>
      <trkpt lat="49.13109" lon="7.1005">
        <ele>257.6</ele>
        <time>2021-11-14T08:54:56Z</time>
      </trkpt>
      <trkpt lat="49.13117" lon="7.10058">
        <ele>257.9</ele>
        <time>2021-11-14T08:55:04Z</time>
      </trkpt>
      <trkpt lat="49.13126" lon="7.10062">
        <ele>258.2</ele>
        <time>2021-11-14T08:55:14Z</time>
      </trkpt>
      <trkpt lat="49.13133" lon="7.10051">
        <ele>258.2</ele>
        <time>2021-11-14T08:55:24Z</time>
      </trkpt>
      <trkpt lat="49.13138" lon="7.10038">
        <ele>258.2</ele>
        <time>2021-11-14T08:55:34Z</time>
      </trkpt>
      <trkpt lat="49.13143" lon="7.10026">
        <ele>258.2</ele>
        <time>2021-11-14T08:55:42Z</time>
      </trkpt>
      <trkpt lat="49.13146" lon="7.10013">
        <ele>258.3</ele>
        <time>2021-11-14T08:55:51Z</time>
      </trkpt>
      <trkpt lat="49.1315" lon="7.1">
        <ele>258.3</ele>
        <time>2021-11-14T08:55:59Z</time>
      </trkpt>
      <trkpt lat="49.13156" lon="7.0999">
        <ele>258.4</ele>
        <time>2021-11-14T08:56:08Z</time>
      </trkpt>
      <trkpt lat="49.13161" lon="7.09978">
        <ele>258.5</ele>
        <time>2021-11-14T08:56:16Z</time>
      </trkpt>
      <trkpt lat="49.13166" lon="7.09966">
        <ele>258.5</ele>
        <time>2021-11-14T08:56:24Z</time>
      </trkpt>
      <trkpt lat="49.13171" lon="7.09955">
        <ele>258.6</ele>
        <time>2021-11-14T08:56:31Z</time>
      </trkpt>
      <trkpt lat="49.13177" lon="7.09943">
        <ele>258.7</ele>
        <time>2021-11-14T08:56:39Z</time>
      </trkpt>
      <trkpt lat="49.13183" lon="7.09933">
        <ele>258.8</ele>
        <time>2021-11-14T08:56:48Z</time>
      </trkpt>
      <trkpt lat="49.13188" lon="7.09922">
        <ele>258.8</ele>
        <time>2021-11-14T08:56:56Z</time>
      </trkpt>
      <trkpt lat="49.13194" lon="7.09911">
        <ele>258.9</ele>
        <time>2021-11-14T08:57:05Z</time>
      </trkpt>
      <trkpt lat="49.13203" lon="7.09902">
        <ele>259</ele>
        <time>2021-11-14T08:57:13Z</time>
      </trkpt>
      <trkpt lat="49.1321" lon="7.09893">
        <ele>259.1</ele>
        <time>2021-11-14T08:57:21Z</time>
      </trkpt>
      <trkpt lat="49.13218" lon="7.09885">
        <ele>259.2</ele>
        <time>2021-11-14T08:57:29Z</time>
      </trkpt>
      <trkpt lat="49.13226" lon="7.09877">
        <ele>259.3</ele>
        <time>2021-11-14T08:57:38Z</time>
      </trkpt>
      <trkpt lat="49.13234" lon="7.09869">
        <ele>259.3</ele>
        <time>2021-11-14T08:57:47Z</time>
      </trkpt>
      <trkpt lat="49.13236" lon="7.09866">
        <ele>259.4</ele>
        <time>2021-11-14T08:57:52Z</time>
      </trkpt>
      <trkpt lat="49.13236" lon="7.09866">
        <ele>259.4</ele>
        <time>2021-11-14T08:57:53Z</time>
      </trkpt>
      <trkpt lat="49.13243" lon="7.09857">
        <ele>259.4</ele>
        <time>2021-11-14T08:58:01Z</time>
      </trkpt>
      <trkpt lat="49.1325" lon="7.09847">
        <ele>259.4</ele>
        <time>2021-11-14T08:58:08Z</time>
      </trkpt>
      <trkpt lat="49.13257" lon="7.09839">
        <ele>259.4</ele>
        <time>2021-11-14T08:58:17Z</time>
      </trkpt>
      <trkpt lat="49.13263" lon="7.09829">
        <ele>259.4</ele>
        <time>2021-11-14T08:58:25Z</time>
      </trkpt>
      <trkpt lat="49.13269" lon="7.09818">
        <ele>259.3</ele>
        <time>2021-11-14T08:58:33Z</time>
      </trkpt>
      <trkpt lat="49.13275" lon="7.09806">
        <ele>259.2</ele>
        <time>2021-11-14T08:58:42Z</time>
      </trkpt>
      <trkpt lat="49.13283" lon="7.098">
        <ele>259.3</ele>
        <time>2021-11-14T08:58:49Z</time>
      </trkpt>
      <trkpt lat="49.13293" lon="7.09806">
        <ele>259.6</ele>
        <time>2021-11-14T08:58:56Z</time>
      </trkpt>
      <trkpt lat="49.13301" lon="7.09812">
        <ele>259.8</ele>
        <time>2021-11-14T08:59:03Z</time>
      </trkpt>
      <trkpt lat="49.1331" lon="7.09818">
        <ele>260.1</ele>
        <time>2021-11-14T08:59:11Z</time>
      </trkpt>
      <trkpt lat="49.13318" lon="7.09823">
        <ele>260.3</ele>
        <time>2021-11-14T08:59:18Z</time>
      </trkpt>
      <trkpt lat="49.13327" lon="7.09829">
        <ele>260.7</ele>
        <time>2021-11-14T08:59:26Z</time>
      </trkpt>
      <trkpt lat="49.13337" lon="7.09835">
        <ele>261</ele>
        <time>2021-11-14T08:59:34Z</time>
      </trkpt>
      <trkpt lat="49.13346" lon="7.09841">
        <ele>261.3</ele>
        <time>2021-11-14T08:59:42Z</time>
      </trkpt>
      <trkpt lat="49.13355" lon="7.09847">
        <ele>261.6</ele>
        <time>2021-11-14T08:59:50Z</time>
      </trkpt>
      <trkpt lat="49.13363" lon="7.09852">
        <ele>261.9</ele>
        <time>2021-11-14T08:59:57Z</time>
      </trkpt>
      <trkpt lat="49.13372" lon="7.09858">
        <ele>262.2</ele>
        <time>2021-11-14T09:00:05Z</time>
      </trkpt>
      <trkpt lat="49.1338" lon="7.09863">
        <ele>262.6</ele>
        <time>2021-11-14T09:00:13Z</time>
      </trkpt>
      <trkpt lat="49.13389" lon="7.09869">
        <ele>262.9</ele>
        <time>2021-11-14T09:00:21Z</time>
      </trkpt>
      <trkpt lat="49.13399" lon="7.09875">
        <ele>263.4</ele>
        <time>2021-11-14T09:00:29Z</time>
      </trkpt>
      <trkpt lat="49.13408" lon="7.09881">
        <ele>263.8</ele>
        <time>2021-11-14T09:00:37Z</time>
      </trkpt>
      <trkpt lat="49.13416" lon="7.09888">
        <ele>264.3</ele>
        <time>2021-11-14T09:00:45Z</time>
      </trkpt>
      <trkpt lat="49.13424" lon="7.09895">
        <ele>264.7</ele>
        <time>2021-11-14T09:00:53Z</time>
      </trkpt>
      <trkpt lat="49.13433" lon="7.09895">
        <ele>265.2</ele>
        <time>2021-11-14T09:01:01Z</time>
      </trkpt>
      <trkpt lat="49.13438" lon="7.09883">
        <ele>265.4</ele>
        <time>2021-11-14T09:01:08Z</time>
      </trkpt>
      <trkpt lat="49.13442" lon="7.0987">
        <ele>265.4</ele>
        <time>2021-11-14T09:01:16Z</time>
      </trkpt>
      <trkpt lat="49.13443" lon="7.09855">
        <ele>265.3</ele>
        <time>2021-11-14T09:01:25Z</time>
      </trkpt>
      <trkpt lat="49.13444" lon="7.09841">
        <ele>265.3</ele>
        <time>2021-11-14T09:01:33Z</time>
      </trkpt>
      <trkpt lat="49.13446" lon="7.09826">
        <ele>265.2</ele>
        <time>2021-11-14T09:01:41Z</time>
      </trkpt>
      <trkpt lat="49.13448" lon="7.09812">
        <ele>265.1</ele>
        <time>2021-11-14T09:01:49Z</time>
      </trkpt>
      <trkpt lat="49.1345" lon="7.09798">
        <ele>264.9</ele>
        <time>2021-11-14T09:01:56Z</time>
      </trkpt>
      <trkpt lat="49.13451" lon="7.09784">
        <ele>264.8</ele>
        <time>2021-11-14T09:02:04Z</time>
      </trkpt>
      <trkpt lat="49.13453" lon="7.09769">
        <ele>264.6</ele>
        <time>2021-11-14T09:02:12Z</time>
      </trkpt>
      <trkpt lat="49.13456" lon="7.09755">
        <ele>264.6</ele>
        <time>2021-11-14T09:02:19Z</time>
      </trkpt>
      <trkpt lat="49.13456" lon="7.0974">
        <ele>264.5</ele>
        <time>2021-11-14T09:02:26Z</time>
      </trkpt>
      <trkpt lat="49.13456" lon="7.09725">
        <ele>264.3</ele>
        <time>2021-11-14T09:02:33Z</time>
      </trkpt>
      <trkpt lat="49.13456" lon="7.0971">
        <ele>264.2</ele>
        <time>2021-11-14T09:02:43Z</time>
      </trkpt>
      <trkpt lat="49.13458" lon="7.09695">
        <ele>264</ele>
        <time>2021-11-14T09:02:51Z</time>
      </trkpt>
      <trkpt lat="49.13459" lon="7.0968">
        <ele>263.9</ele>
        <time>2021-11-14T09:03:00Z</time>
      </trkpt>
      <trkpt lat="49.13459" lon="7.09666">
        <ele>263.8</ele>
        <time>2021-11-14T09:03:09Z</time>
      </trkpt>
      <trkpt lat="49.13469" lon="7.09665">
        <ele>263.7</ele>
        <time>2021-11-14T09:03:19Z</time>
      </trkpt>
      <trkpt lat="49.13476" lon="7.0966">
        <ele>263.5</ele>
        <time>2021-11-14T09:03:26Z</time>
      </trkpt>
      <trkpt lat="49.13476" lon="7.09658">
        <ele>263.5</ele>
        <time>2021-11-14T09:03:27Z</time>
      </trkpt>
      <trkpt lat="49.13468" lon="7.09649">
        <ele>263.4</ele>
        <time>2021-11-14T09:03:36Z</time>
      </trkpt>
      <trkpt lat="49.13464" lon="7.09636">
        <ele>263.2</ele>
        <time>2021-11-14T09:03:44Z</time>
      </trkpt>
      <trkpt lat="49.13465" lon="7.09622">
        <ele>263.1</ele>
        <time>2021-11-14T09:03:59Z</time>
      </trkpt>
      <trkpt lat="49.13465" lon="7.09608">
        <ele>263</ele>
        <time>2021-11-14T09:04:12Z</time>
      </trkpt>
      <trkpt lat="49.13464" lon="7.09593">
        <ele>262.9</ele>
        <time>2021-11-14T09:04:22Z</time>
      </trkpt>
      <trkpt lat="49.13466" lon="7.09579">
        <ele>262.8</ele>
        <time>2021-11-14T09:04:30Z</time>
      </trkpt>
      <trkpt lat="49.13466" lon="7.09565">
        <ele>262.7</ele>
        <time>2021-11-14T09:04:39Z</time>
      </trkpt>
      <trkpt lat="49.13471" lon="7.09553">
        <ele>262.7</ele>
        <time>2021-11-14T09:04:49Z</time>
      </trkpt>
      <trkpt lat="49.13474" lon="7.0954">
        <ele>262.7</ele>
        <time>2021-11-14T09:05:03Z</time>
      </trkpt>
      <trkpt lat="49.13482" lon="7.09532">
        <ele>262.8</ele>
        <time>2021-11-14T09:05:10Z</time>
      </trkpt>
      <trkpt lat="49.13488" lon="7.09521">
        <ele>262.9</ele>
        <time>2021-11-14T09:05:20Z</time>
      </trkpt>
      <trkpt lat="49.13497" lon="7.09517">
        <ele>263.1</ele>
        <time>2021-11-14T09:05:31Z</time>
      </trkpt>
      <trkpt lat="49.13506" lon="7.09511">
        <ele>263.3</ele>
        <time>2021-11-14T09:05:39Z</time>
      </trkpt>
      <trkpt lat="49.13513" lon="7.09501">
        <ele>263.4</ele>
        <time>2021-11-14T09:05:49Z</time>
      </trkpt>
      <trkpt lat="49.13521" lon="7.09494">
        <ele>263.5</ele>
        <time>2021-11-14T09:06:00Z</time>
      </trkpt>
      <trkpt lat="49.13531" lon="7.09491">
        <ele>263.6</ele>
        <time>2021-11-14T09:06:10Z</time>
      </trkpt>
      <trkpt lat="49.13537" lon="7.09479">
        <ele>263.6</ele>
        <time>2021-11-14T09:06:21Z</time>
      </trkpt>
      <trkpt lat="49.13546" lon="7.09472">
        <ele>263.5</ele>
        <time>2021-11-14T09:06:31Z</time>
      </trkpt>
      <trkpt lat="49.13555" lon="7.09469">
        <ele>263.4</ele>
        <time>2021-11-14T09:06:40Z</time>
      </trkpt>
      <trkpt lat="49.13564" lon="7.0947">
        <ele>263.3</ele>
        <time>2021-11-14T09:06:48Z</time>
      </trkpt>
      <trkpt lat="49.13574" lon="7.09464">
        <ele>263.2</ele>
        <time>2021-11-14T09:06:56Z</time>
      </trkpt>
      <trkpt lat="49.13583" lon="7.09462">
        <ele>264.9</ele>
        <time>2021-11-14T09:07:07Z</time>
      </trkpt>
      <trkpt lat="49.1359" lon="7.09471">
        <ele>265.3</ele>
        <time>2021-11-14T09:07:16Z</time>
      </trkpt>
      <trkpt lat="49.13597" lon="7.0948">
        <ele>265.8</ele>
        <time>2021-11-14T09:07:26Z</time>
      </trkpt>
      <trkpt lat="49.13603" lon="7.09491">
        <ele>266.3</ele>
        <time>2021-11-14T09:07:36Z</time>
      </trkpt>
      <trkpt lat="49.13606" lon="7.09505">
        <ele>267</ele>
        <time>2021-11-14T09:07:47Z</time>
      </trkpt>
      <trkpt lat="49.13614" lon="7.09514">
        <ele>267.5</ele>
        <time>2021-11-14T09:07:56Z</time>
      </trkpt>
      <trkpt lat="49.13622" lon="7.09522">
        <ele>268.1</ele>
        <time>2021-11-14T09:08:03Z</time>
      </trkpt>
      <trkpt lat="49.13631" lon="7.09531">
        <ele>268.7</ele>
        <time>2021-11-14T09:08:13Z</time>
      </trkpt>
      <trkpt lat="49.13637" lon="7.09542">
        <ele>269.3</ele>
        <time>2021-11-14T09:08:22Z</time>
      </trkpt>
      <trkpt lat="49.13645" lon="7.09549">
        <ele>269.9</ele>
        <time>2021-11-14T09:08:31Z</time>
      </trkpt>
      <trkpt lat="49.13651" lon="7.0956">
        <ele>270.5</ele>
        <time>2021-11-14T09:08:40Z</time>
      </trkpt>
      <trkpt lat="49.1366" lon="7.09563">
        <ele>271.6</ele>
        <time>2021-11-14T09:08:53Z</time>
      </trkpt>
      <trkpt lat="49.13669" lon="7.0956">
        <ele>271.5</ele>
        <time>2021-11-14T09:09:01Z</time>
      </trkpt>
      <trkpt lat="49.13677" lon="7.09553">
        <ele>271.4</ele>
        <time>2021-11-14T09:09:08Z</time>
      </trkpt>
      <trkpt lat="49.13687" lon="7.09551">
        <ele>271.3</ele>
        <time>2021-11-14T09:09:21Z</time>
      </trkpt>
      <trkpt lat="49.13697" lon="7.09548">
        <ele>271.2</ele>
        <time>2021-11-14T09:09:32Z</time>
      </trkpt>
      <trkpt lat="49.13707" lon="7.09546">
        <ele>271.1</ele>
        <time>2021-11-14T09:09:40Z</time>
      </trkpt>
      <trkpt lat="49.13715" lon="7.09539">
        <ele>271</ele>
        <time>2021-11-14T09:09:48Z</time>
      </trkpt>
      <trkpt lat="49.13723" lon="7.09532">
        <ele>270.8</ele>
        <time>2021-11-14T09:09:58Z</time>
      </trkpt>
      <trkpt lat="49.13732" lon="7.09526">
        <ele>270.7</ele>
        <time>2021-11-14T09:10:06Z</time>
      </trkpt>
      <trkpt lat="49.13741" lon="7.09519">
        <ele>270.6</ele>
        <time>2021-11-14T09:10:16Z</time>
      </trkpt>
      <trkpt lat="49.13751" lon="7.09515">
        <ele>270.6</ele>
        <time>2021-11-14T09:10:24Z</time>
      </trkpt>
      <trkpt lat="49.1376" lon="7.0951">
        <ele>270.5</ele>
        <time>2021-11-14T09:10:33Z</time>
      </trkpt>
      <trkpt lat="49.13769" lon="7.09507">
        <ele>270.4</ele>
        <time>2021-11-14T09:10:40Z</time>
      </trkpt>
      <trkpt lat="49.13779" lon="7.09506">
        <ele>270.2</ele>
        <time>2021-11-14T09:10:47Z</time>
      </trkpt>
      <trkpt lat="49.13786" lon="7.09497">
        <ele>269.8</ele>
        <time>2021-11-14T09:10:57Z</time>
      </trkpt>
      <trkpt lat="49.13786" lon="7.09483">
        <ele>269.4</ele>
        <time>2021-11-14T09:11:05Z</time>
      </trkpt>
      <trkpt lat="49.13787" lon="7.09469">
        <ele>269</ele>
        <time>2021-11-14T09:11:12Z</time>
      </trkpt>
      <trkpt lat="49.13793" lon="7.09459">
        <ele>268.6</ele>
        <time>2021-11-14T09:11:24Z</time>
      </trkpt>
      <trkpt lat="49.13801" lon="7.09453">
        <ele>268.3</ele>
        <time>2021-11-14T09:11:33Z</time>
      </trkpt>
      <trkpt lat="49.13809" lon="7.09445">
        <ele>268.1</ele>
        <time>2021-11-14T09:11:45Z</time>
      </trkpt>
      <trkpt lat="49.13817" lon="7.09436">
        <ele>267.8</ele>
        <time>2021-11-14T09:11:54Z</time>
      </trkpt>
      <trkpt lat="49.13826" lon="7.09431">
        <ele>267.4</ele>
        <time>2021-11-14T09:12:03Z</time>
      </trkpt>
      <trkpt lat="49.13834" lon="7.09425">
        <ele>267</ele>
        <time>2021-11-14T09:12:11Z</time>
      </trkpt>
      <trkpt lat="49.13843" lon="7.09417">
        <ele>266.5</ele>
        <time>2021-11-14T09:12:18Z</time>
      </trkpt>
      <trkpt lat="49.13851" lon="7.09409">
        <ele>265.8</ele>
        <time>2021-11-14T09:12:27Z</time>
      </trkpt>
      <trkpt lat="49.13859" lon="7.094">
        <ele>265.1</ele>
        <time>2021-11-14T09:12:36Z</time>
      </trkpt>
      <trkpt lat="49.13867" lon="7.09393">
        <ele>264.4</ele>
        <time>2021-11-14T09:12:46Z</time>
      </trkpt>
      <trkpt lat="49.13873" lon="7.09383">
        <ele>263.5</ele>
        <time>2021-11-14T09:12:57Z</time>
      </trkpt>
      <trkpt lat="49.13873" lon="7.09369">
        <ele>262.5</ele>
        <time>2021-11-14T09:13:07Z</time>
      </trkpt>
      <trkpt lat="49.13868" lon="7.09356">
        <ele>261.2</ele>
        <time>2021-11-14T09:13:15Z</time>
      </trkpt>
      <trkpt lat="49.13874" lon="7.09343">
        <ele>259.9</ele>
        <time>2021-11-14T09:13:24Z</time>
      </trkpt>
      <trkpt lat="49.1388" lon="7.09331">
        <ele>258.8</ele>
        <time>2021-11-14T09:13:31Z</time>
      </trkpt>
      <trkpt lat="49.13888" lon="7.09323">
        <ele>257.7</ele>
        <time>2021-11-14T09:13:40Z</time>
      </trkpt>
      <trkpt lat="49.13895" lon="7.09314">
        <ele>256.7</ele>
        <time>2021-11-14T09:13:50Z</time>
      </trkpt>
      <trkpt lat="49.13895" lon="7.093">
        <ele>255.6</ele>
        <time>2021-11-14T09:14:03Z</time>
      </trkpt>
      <trkpt lat="49.13901" lon="7.09288">
        <ele>254.4</ele>
        <time>2021-11-14T09:14:13Z</time>
      </trkpt>
      <trkpt lat="49.13908" lon="7.09277">
        <ele>253.3</ele>
        <time>2021-11-14T09:14:20Z</time>
      </trkpt>
      <trkpt lat="49.13914" lon="7.09266">
        <ele>252.2</ele>
        <time>2021-11-14T09:14:27Z</time>
      </trkpt>
      <trkpt lat="49.13918" lon="7.09253">
        <ele>250.8</ele>
        <time>2021-11-14T09:14:36Z</time>
      </trkpt>
      <trkpt lat="49.13922" lon="7.0924">
        <ele>249.5</ele>
        <time>2021-11-14T09:14:47Z</time>
      </trkpt>
      <trkpt lat="49.13929" lon="7.09229">
        <ele>248.1</ele>
        <time>2021-11-14T09:14:53Z</time>
      </trkpt>
      <trkpt lat="49.13924" lon="7.09217">
        <ele>246.9</ele>
        <time>2021-11-14T09:15:04Z</time>
      </trkpt>
      <trkpt lat="49.13923" lon="7.09203">
        <ele>245.7</ele>
        <time>2021-11-14T09:15:16Z</time>
      </trkpt>
      <trkpt lat="49.13918" lon="7.09191">
        <ele>244.6</ele>
        <time>2021-11-14T09:15:30Z</time>
      </trkpt>
      <trkpt lat="49.13917" lon="7.09177">
        <ele>243.4</ele>
        <time>2021-11-14T09:15:40Z</time>
      </trkpt>
      <trkpt lat="49.13916" lon="7.09163">
        <ele>242.2</ele>
        <time>2021-11-14T09:15:49Z</time>
      </trkpt>
      <trkpt lat="49.13913" lon="7.09148">
        <ele>240.8</ele>
        <time>2021-11-14T09:15:59Z</time>
      </trkpt>
      <trkpt lat="49.13909" lon="7.09135">
        <ele>239.6</ele>
        <time>2021-11-14T09:16:10Z</time>
      </trkpt>
      <trkpt lat="49.13905" lon="7.09122">
        <ele>238.4</ele>
        <time>2021-11-14T09:16:19Z</time>
      </trkpt>
      <trkpt lat="49.13903" lon="7.09104">
        <ele>237</ele>
        <time>2021-11-14T09:16:28Z</time>
      </trkpt>
      <trkpt lat="49.13897" lon="7.09092">
        <ele>236</ele>
        <time>2021-11-14T09:16:38Z</time>
      </trkpt>
      <trkpt lat="49.13894" lon="7.09078">
        <ele>235</ele>
        <time>2021-11-14T09:16:52Z</time>
      </trkpt>
      <trkpt lat="49.13887" lon="7.09067">
        <ele>234</ele>
        <time>2021-11-14T09:16:59Z</time>
      </trkpt>
      <trkpt lat="49.13883" lon="7.09054">
        <ele>232.9</ele>
        <time>2021-11-14T09:17:05Z</time>
      </trkpt>
      <trkpt lat="49.13883" lon="7.0904">
        <ele>231.9</ele>
        <time>2021-11-14T09:17:12Z</time>
      </trkpt>
      <trkpt lat="49.13882" lon="7.09025">
        <ele>230.9</ele>
        <time>2021-11-14T09:17:21Z</time>
      </trkpt>
      <trkpt lat="49.13884" lon="7.0901">
        <ele>229.8</ele>
        <time>2021-11-14T09:17:30Z</time>
      </trkpt>
      <trkpt lat="49.13887" lon="7.08997">
        <ele>227.8</ele>
        <time>2021-11-14T09:17:34Z</time>
      </trkpt>
      <trkpt lat="49.13893" lon="7.08985">
        <ele>227.1</ele>
        <time>2021-11-14T09:17:39Z</time>
      </trkpt>
      <trkpt lat="49.139" lon="7.08974">
        <ele>226.5</ele>
        <time>2021-11-14T09:17:45Z</time>
      </trkpt>
      <trkpt lat="49.13906" lon="7.08963">
        <ele>226.1</ele>
        <time>2021-11-14T09:17:51Z</time>
      </trkpt>
      <trkpt lat="49.13914" lon="7.08953">
        <ele>225.8</ele>
        <time>2021-11-14T09:17:58Z</time>
      </trkpt>
      <trkpt lat="49.13922" lon="7.08945">
        <ele>225.6</ele>
        <time>2021-11-14T09:18:06Z</time>
      </trkpt>
      <trkpt lat="49.13931" lon="7.08938">
        <ele>225.5</ele>
        <time>2021-11-14T09:18:12Z</time>
      </trkpt>
      <trkpt lat="49.13939" lon="7.08929">
        <ele>225.5</ele>
        <time>2021-11-14T09:18:21Z</time>
      </trkpt>
      <trkpt lat="49.13947" lon="7.0892">
        <ele>225.4</ele>
        <time>2021-11-14T09:18:29Z</time>
      </trkpt>
      <trkpt lat="49.13955" lon="7.08913">
        <ele>225.4</ele>
        <time>2021-11-14T09:18:36Z</time>
      </trkpt>
      <trkpt lat="49.13963" lon="7.08905">
        <ele>225.5</ele>
        <time>2021-11-14T09:18:43Z</time>
      </trkpt>
      <trkpt lat="49.1397" lon="7.08897">
        <ele>225.7</ele>
        <time>2021-11-14T09:18:50Z</time>
      </trkpt>
      <trkpt lat="49.13978" lon="7.08887">
        <ele>225.8</ele>
        <time>2021-11-14T09:18:57Z</time>
      </trkpt>
      <trkpt lat="49.13986" lon="7.08878">
        <ele>225.9</ele>
        <time>2021-11-14T09:19:05Z</time>
      </trkpt>
      <trkpt lat="49.13995" lon="7.08875">
        <ele>226.1</ele>
        <time>2021-11-14T09:19:13Z</time>
      </trkpt>
      <trkpt lat="49.14003" lon="7.08871">
        <ele>226.2</ele>
        <time>2021-11-14T09:19:20Z</time>
      </trkpt>
      <trkpt lat="49.14011" lon="7.08863">
        <ele>226.3</ele>
        <time>2021-11-14T09:19:27Z</time>
      </trkpt>
      <trkpt lat="49.1402" lon="7.08856">
        <ele>226.3</ele>
        <time>2021-11-14T09:19:35Z</time>
      </trkpt>
      <trkpt lat="49.14029" lon="7.0885">
        <ele>226.3</ele>
        <time>2021-11-14T09:19:43Z</time>
      </trkpt>
      <trkpt lat="49.14036" lon="7.08843">
        <ele>226.3</ele>
        <time>2021-11-14T09:19:49Z</time>
      </trkpt>
      <trkpt lat="49.14045" lon="7.08838">
        <ele>226.4</ele>
        <time>2021-11-14T09:19:57Z</time>
      </trkpt>
      <trkpt lat="49.14054" lon="7.08829">
        <ele>226.4</ele>
        <time>2021-11-14T09:20:05Z</time>
      </trkpt>
      <trkpt lat="49.14062" lon="7.08821">
        <ele>226.4</ele>
        <time>2021-11-14T09:20:12Z</time>
      </trkpt>
      <trkpt lat="49.14069" lon="7.08814">
        <ele>226.4</ele>
        <time>2021-11-14T09:20:19Z</time>
      </trkpt>
      <trkpt lat="49.14077" lon="7.08807">
        <ele>226.4</ele>
        <time>2021-11-14T09:20:26Z</time>
      </trkpt>
      <trkpt lat="49.14086" lon="7.08798">
        <ele>226.4</ele>
        <time>2021-11-14T09:20:34Z</time>
      </trkpt>
      <trkpt lat="49.14094" lon="7.0879">
        <ele>226.3</ele>
        <time>2021-11-14T09:20:42Z</time>
      </trkpt>
      <trkpt lat="49.14103" lon="7.08782">
        <ele>225.9</ele>
        <time>2021-11-14T09:20:50Z</time>
      </trkpt>
      <trkpt lat="49.14111" lon="7.08776">
        <ele>225.6</ele>
        <time>2021-11-14T09:20:57Z</time>
      </trkpt>
      <trkpt lat="49.1412" lon="7.0877">
        <ele>225.1</ele>
        <time>2021-11-14T09:21:04Z</time>
      </trkpt>
      <trkpt lat="49.14128" lon="7.08761">
        <ele>224.6</ele>
        <time>2021-11-14T09:21:12Z</time>
      </trkpt>
      <trkpt lat="49.14137" lon="7.08756">
        <ele>224.1</ele>
        <time>2021-11-14T09:21:19Z</time>
      </trkpt>
      <trkpt lat="49.14145" lon="7.08749">
        <ele>223.7</ele>
        <time>2021-11-14T09:21:26Z</time>
      </trkpt>
      <trkpt lat="49.14155" lon="7.08745">
        <ele>223.2</ele>
        <time>2021-11-14T09:21:35Z</time>
      </trkpt>
      <trkpt lat="49.14164" lon="7.08739">
        <ele>222.7</ele>
        <time>2021-11-14T09:21:42Z</time>
      </trkpt>
      <trkpt lat="49.14173" lon="7.08733">
        <ele>222.2</ele>
        <time>2021-11-14T09:21:50Z</time>
      </trkpt>
      <trkpt lat="49.14181" lon="7.08726">
        <ele>221.7</ele>
        <time>2021-11-14T09:21:59Z</time>
      </trkpt>
      <trkpt lat="49.1419" lon="7.08719">
        <ele>221.2</ele>
        <time>2021-11-14T09:22:06Z</time>
      </trkpt>
      <trkpt lat="49.14199" lon="7.08714">
        <ele>220.8</ele>
        <time>2021-11-14T09:22:14Z</time>
      </trkpt>
      <trkpt lat="49.14208" lon="7.08708">
        <ele>220.3</ele>
        <time>2021-11-14T09:22:21Z</time>
      </trkpt>
      <trkpt lat="49.14216" lon="7.08702">
        <ele>219.8</ele>
        <time>2021-11-14T09:22:29Z</time>
      </trkpt>
      <trkpt lat="49.14225" lon="7.08697">
        <ele>219.2</ele>
        <time>2021-11-14T09:22:37Z</time>
      </trkpt>
      <trkpt lat="49.14235" lon="7.08692">
        <ele>218.6</ele>
        <time>2021-11-14T09:22:44Z</time>
      </trkpt>
      <trkpt lat="49.14244" lon="7.08687">
        <ele>218</ele>
        <time>2021-11-14T09:22:51Z</time>
      </trkpt>
      <trkpt lat="49.14253" lon="7.08682">
        <ele>217.4</ele>
        <time>2021-11-14T09:22:59Z</time>
      </trkpt>
      <trkpt lat="49.14262" lon="7.08677">
        <ele>216.8</ele>
        <time>2021-11-14T09:23:06Z</time>
      </trkpt>
      <trkpt lat="49.14269" lon="7.08667">
        <ele>216.3</ele>
        <time>2021-11-14T09:23:14Z</time>
      </trkpt>
      <trkpt lat="49.14274" lon="7.08654">
        <ele>215.7</ele>
        <time>2021-11-14T09:23:22Z</time>
      </trkpt>
      <trkpt lat="49.1428" lon="7.08641">
        <ele>215</ele>
        <time>2021-11-14T09:23:30Z</time>
      </trkpt>
      <trkpt lat="49.14285" lon="7.08629">
        <ele>214.3</ele>
        <time>2021-11-14T09:23:38Z</time>
      </trkpt>
      <trkpt lat="49.1429" lon="7.08616">
        <ele>213.4</ele>
        <time>2021-11-14T09:23:45Z</time>
      </trkpt>
      <trkpt lat="49.14294" lon="7.08603">
        <ele>212.5</ele>
        <time>2021-11-14T09:23:52Z</time>
      </trkpt>
      <trkpt lat="49.14297" lon="7.08589">
        <ele>211.4</ele>
        <time>2021-11-14T09:24:00Z</time>
      </trkpt>
      <trkpt lat="49.14302" lon="7.08576">
        <ele>210.2</ele>
        <time>2021-11-14T09:24:08Z</time>
      </trkpt>
      <trkpt lat="49.14307" lon="7.08563">
        <ele>209.1</ele>
        <time>2021-11-14T09:24:15Z</time>
      </trkpt>
      <trkpt lat="49.14312" lon="7.08551">
        <ele>208</ele>
        <time>2021-11-14T09:24:22Z</time>
      </trkpt>
      <trkpt lat="49.14317" lon="7.08538">
        <ele>206.9</ele>
        <time>2021-11-14T09:24:30Z</time>
      </trkpt>
      <trkpt lat="49.14322" lon="7.08527">
        <ele>205.9</ele>
        <time>2021-11-14T09:24:37Z</time>
      </trkpt>
      <trkpt lat="49.14329" lon="7.08517">
        <ele>204.9</ele>
        <time>2021-11-14T09:24:45Z</time>
      </trkpt>
      <trkpt lat="49.14338" lon="7.0851">
        <ele>203.8</ele>
        <time>2021-11-14T09:24:53Z</time>
      </trkpt>
      <trkpt lat="49.14347" lon="7.08506">
        <ele>203.1</ele>
        <time>2021-11-14T09:25:00Z</time>
      </trkpt>
      <trkpt lat="49.14355" lon="7.08497">
        <ele>202.6</ele>
        <time>2021-11-14T09:25:07Z</time>
      </trkpt>
      <trkpt lat="49.14364" lon="7.08502">
        <ele>203.6</ele>
        <time>2021-11-14T09:25:15Z</time>
      </trkpt>
      <trkpt lat="49.14369" lon="7.08515">
        <ele>204.3</ele>
        <time>2021-11-14T09:25:22Z</time>
      </trkpt>
      <trkpt lat="49.14377" lon="7.08524">
        <ele>205.1</ele>
        <time>2021-11-14T09:25:31Z</time>
      </trkpt>
      <trkpt lat="49.14386" lon="7.08528">
        <ele>205.7</ele>
        <time>2021-11-14T09:25:39Z</time>
      </trkpt>
      <trkpt lat="49.14395" lon="7.08536">
        <ele>206.4</ele>
        <time>2021-11-14T09:25:48Z</time>
      </trkpt>
      <trkpt lat="49.14403" lon="7.08542">
        <ele>207</ele>
        <time>2021-11-14T09:25:56Z</time>
      </trkpt>
      <trkpt lat="49.14412" lon="7.08548">
        <ele>207.6</ele>
        <time>2021-11-14T09:26:04Z</time>
      </trkpt>
      <trkpt lat="49.1442" lon="7.08555">
        <ele>208.1</ele>
        <time>2021-11-14T09:26:13Z</time>
      </trkpt>
      <trkpt lat="49.14427" lon="7.08565">
        <ele>208.7</ele>
        <time>2021-11-14T09:26:21Z</time>
      </trkpt>
      <trkpt lat="49.14437" lon="7.08569">
        <ele>209.3</ele>
        <time>2021-11-14T09:26:29Z</time>
      </trkpt>
      <trkpt lat="49.14445" lon="7.08575">
        <ele>209.8</ele>
        <time>2021-11-14T09:26:37Z</time>
      </trkpt>
      <trkpt lat="49.14454" lon="7.08582">
        <ele>210.4</ele>
        <time>2021-11-14T09:26:45Z</time>
      </trkpt>
      <trkpt lat="49.14463" lon="7.08589">
        <ele>211</ele>
        <time>2021-11-14T09:26:53Z</time>
      </trkpt>
      <trkpt lat="49.14472" lon="7.08595">
        <ele>211.5</ele>
        <time>2021-11-14T09:27:02Z</time>
      </trkpt>
      <trkpt lat="49.1448" lon="7.08601">
        <ele>211.9</ele>
        <time>2021-11-14T09:27:10Z</time>
      </trkpt>
      <trkpt lat="49.14489" lon="7.08607">
        <ele>211.8</ele>
        <time>2021-11-14T09:27:20Z</time>
      </trkpt>
      <trkpt lat="49.14499" lon="7.08612">
        <ele>211.6</ele>
        <time>2021-11-14T09:27:28Z</time>
      </trkpt>
      <trkpt lat="49.14508" lon="7.08618">
        <ele>211.5</ele>
        <time>2021-11-14T09:27:38Z</time>
      </trkpt>
      <trkpt lat="49.14518" lon="7.08622">
        <ele>211.4</ele>
        <time>2021-11-14T09:27:46Z</time>
      </trkpt>
      <trkpt lat="49.14527" lon="7.08625">
        <ele>211.1</ele>
        <time>2021-11-14T09:27:54Z</time>
      </trkpt>
      <trkpt lat="49.14536" lon="7.08629">
        <ele>210.9</ele>
        <time>2021-11-14T09:28:02Z</time>
      </trkpt>
      <trkpt lat="49.14544" lon="7.08635">
        <ele>210.6</ele>
        <time>2021-11-14T09:28:09Z</time>
      </trkpt>
      <trkpt lat="49.14553" lon="7.08642">
        <ele>210.4</ele>
        <time>2021-11-14T09:28:17Z</time>
      </trkpt>
      <trkpt lat="49.14561" lon="7.08651">
        <ele>210.2</ele>
        <time>2021-11-14T09:28:25Z</time>
      </trkpt>
      <trkpt lat="49.14569" lon="7.0866">
        <ele>210.2</ele>
        <time>2021-11-14T09:28:33Z</time>
      </trkpt>
      <trkpt lat="49.14577" lon="7.08666">
        <ele>210.2</ele>
        <time>2021-11-14T09:28:42Z</time>
      </trkpt>
      <trkpt lat="49.14586" lon="7.08675">
        <ele>210.2</ele>
        <time>2021-11-14T09:28:51Z</time>
      </trkpt>
      <trkpt lat="49.14593" lon="7.08684">
        <ele>210.2</ele>
        <time>2021-11-14T09:28:58Z</time>
      </trkpt>
      <trkpt lat="49.146" lon="7.08693">
        <ele>210</ele>
        <time>2021-11-14T09:29:06Z</time>
      </trkpt>
      <trkpt lat="49.14608" lon="7.08702">
        <ele>209.8</ele>
        <time>2021-11-14T09:29:14Z</time>
      </trkpt>
      <trkpt lat="49.14616" lon="7.0871">
        <ele>209.6</ele>
        <time>2021-11-14T09:29:22Z</time>
      </trkpt>
      <trkpt lat="49.14623" lon="7.08718">
        <ele>209.3</ele>
        <time>2021-11-14T09:29:29Z</time>
      </trkpt>
      <trkpt lat="49.14631" lon="7.08727">
        <ele>208.9</ele>
        <time>2021-11-14T09:29:37Z</time>
      </trkpt>
      <trkpt lat="49.14638" lon="7.08735">
        <ele>208.4</ele>
        <time>2021-11-14T09:29:44Z</time>
      </trkpt>
      <trkpt lat="49.14644" lon="7.08746">
        <ele>208</ele>
        <time>2021-11-14T09:29:52Z</time>
      </trkpt>
      <trkpt lat="49.14653" lon="7.08755">
        <ele>207.5</ele>
        <time>2021-11-14T09:29:59Z</time>
      </trkpt>
      <trkpt lat="49.14661" lon="7.08764">
        <ele>207.1</ele>
        <time>2021-11-14T09:30:07Z</time>
      </trkpt>
      <trkpt lat="49.14669" lon="7.08773">
        <ele>206.7</ele>
        <time>2021-11-14T09:30:16Z</time>
      </trkpt>
      <trkpt lat="49.14676" lon="7.08783">
        <ele>206.4</ele>
        <time>2021-11-14T09:30:23Z</time>
      </trkpt>
      <trkpt lat="49.14684" lon="7.0879">
        <ele>206.1</ele>
        <time>2021-11-14T09:30:30Z</time>
      </trkpt>
      <trkpt lat="49.14692" lon="7.08799">
        <ele>205.8</ele>
        <time>2021-11-14T09:30:39Z</time>
      </trkpt>
      <trkpt lat="49.147" lon="7.08808">
        <ele>205.5</ele>
        <time>2021-11-14T09:30:47Z</time>
      </trkpt>
      <trkpt lat="49.14707" lon="7.08817">
        <ele>205.1</ele>
        <time>2021-11-14T09:30:55Z</time>
      </trkpt>
      <trkpt lat="49.14715" lon="7.08826">
        <ele>204.7</ele>
        <time>2021-11-14T09:31:03Z</time>
      </trkpt>
      <trkpt lat="49.14722" lon="7.08835">
        <ele>204.3</ele>
        <time>2021-11-14T09:31:10Z</time>
      </trkpt>
      <trkpt lat="49.14729" lon="7.08846">
        <ele>203.8</ele>
        <time>2021-11-14T09:31:18Z</time>
      </trkpt>
      <trkpt lat="49.14735" lon="7.08856">
        <ele>203.4</ele>
        <time>2021-11-14T09:31:26Z</time>
      </trkpt>
      <trkpt lat="49.14743" lon="7.08866">
        <ele>203.1</ele>
        <time>2021-11-14T09:31:34Z</time>
      </trkpt>
      <trkpt lat="49.1475" lon="7.08873">
        <ele>202.8</ele>
        <time>2021-11-14T09:31:41Z</time>
      </trkpt>
      <trkpt lat="49.14758" lon="7.08883">
        <ele>202.5</ele>
        <time>2021-11-14T09:31:50Z</time>
      </trkpt>
      <trkpt lat="49.14765" lon="7.08892">
        <ele>202.3</ele>
        <time>2021-11-14T09:31:58Z</time>
      </trkpt>
      <trkpt lat="49.14772" lon="7.08901">
        <ele>202.2</ele>
        <time>2021-11-14T09:32:06Z</time>
      </trkpt>
      <trkpt lat="49.1478" lon="7.08911">
        <ele>202.1</ele>
        <time>2021-11-14T09:32:15Z</time>
      </trkpt>
      <trkpt lat="49.14787" lon="7.08921">
        <ele>202</ele>
        <time>2021-11-14T09:32:23Z</time>
      </trkpt>
      <trkpt lat="49.14794" lon="7.08932">
        <ele>202.1</ele>
        <time>2021-11-14T09:32:31Z</time>
      </trkpt>
      <trkpt lat="49.148" lon="7.08942">
        <ele>202.1</ele>
        <time>2021-11-14T09:32:39Z</time>
      </trkpt>
      <trkpt lat="49.14807" lon="7.08953">
        <ele>202.2</ele>
        <time>2021-11-14T09:32:47Z</time>
      </trkpt>
      <trkpt lat="49.14814" lon="7.08962">
        <ele>202.4</ele>
        <time>2021-11-14T09:32:55Z</time>
      </trkpt>
      <trkpt lat="49.1482" lon="7.08973">
        <ele>202.5</ele>
        <time>2021-11-14T09:33:03Z</time>
      </trkpt>
      <trkpt lat="49.14826" lon="7.08984">
        <ele>202.6</ele>
        <time>2021-11-14T09:33:12Z</time>
      </trkpt>
      <trkpt lat="49.14832" lon="7.08996">
        <ele>202.6</ele>
        <time>2021-11-14T09:33:20Z</time>
      </trkpt>
      <trkpt lat="49.14838" lon="7.09006">
        <ele>202.6</ele>
        <time>2021-11-14T09:33:28Z</time>
      </trkpt>
      <trkpt lat="49.14843" lon="7.09017">
        <ele>202.6</ele>
        <time>2021-11-14T09:33:36Z</time>
      </trkpt>
      <trkpt lat="49.14849" lon="7.0903">
        <ele>202.6</ele>
        <time>2021-11-14T09:33:45Z</time>
      </trkpt>
      <trkpt lat="49.14856" lon="7.09041">
        <ele>202.6</ele>
        <time>2021-11-14T09:33:53Z</time>
      </trkpt>
      <trkpt lat="49.14862" lon="7.09051">
        <ele>202.7</ele>
        <time>2021-11-14T09:34:00Z</time>
      </trkpt>
      <trkpt lat="49.14868" lon="7.09062">
        <ele>202.8</ele>
        <time>2021-11-14T09:34:08Z</time>
      </trkpt>
      <trkpt lat="49.14873" lon="7.09074">
        <ele>202.9</ele>
        <time>2021-11-14T09:34:16Z</time>
      </trkpt>
      <trkpt lat="49.14879" lon="7.09085">
        <ele>203</ele>
        <time>2021-11-14T09:34:25Z</time>
      </trkpt>
      <trkpt lat="49.14885" lon="7.09098">
        <ele>203</ele>
        <time>2021-11-14T09:34:33Z</time>
      </trkpt>
      <trkpt lat="49.1489" lon="7.0911">
        <ele>203.1</ele>
        <time>2021-11-14T09:34:41Z</time>
      </trkpt>
      <trkpt lat="49.14895" lon="7.09122">
        <ele>203.1</ele>
        <time>2021-11-14T09:34:48Z</time>
      </trkpt>
      <trkpt lat="49.14901" lon="7.09134">
        <ele>203.1</ele>
        <time>2021-11-14T09:34:57Z</time>
      </trkpt>
      <trkpt lat="49.14906" lon="7.09146">
        <ele>203.2</ele>
        <time>2021-11-14T09:35:05Z</time>
      </trkpt>
      <trkpt lat="49.14908" lon="7.09159">
        <ele>203.2</ele>
        <time>2021-11-14T09:35:13Z</time>
      </trkpt>
      <trkpt lat="49.14914" lon="7.0917">
        <ele>203.2</ele>
        <time>2021-11-14T09:35:22Z</time>
      </trkpt>
      <trkpt lat="49.14921" lon="7.09181">
        <ele>203.2</ele>
        <time>2021-11-14T09:35:29Z</time>
      </trkpt>
      <trkpt lat="49.14927" lon="7.09193">
        <ele>203.2</ele>
        <time>2021-11-14T09:35:38Z</time>
      </trkpt>
      <trkpt lat="49.14933" lon="7.09206">
        <ele>203.2</ele>
        <time>2021-11-14T09:35:46Z</time>
      </trkpt>
      <trkpt lat="49.1494" lon="7.09215">
        <ele>203.3</ele>
        <time>2021-11-14T09:35:55Z</time>
      </trkpt>
      <trkpt lat="49.14945" lon="7.09227">
        <ele>203.3</ele>
        <time>2021-11-14T09:36:04Z</time>
      </trkpt>
      <trkpt lat="49.1495" lon="7.09238">
        <ele>203.4</ele>
        <time>2021-11-14T09:36:10Z</time>
      </trkpt>
      <trkpt lat="49.14955" lon="7.0925">
        <ele>203.3</ele>
        <time>2021-11-14T09:36:18Z</time>
      </trkpt>
      <trkpt lat="49.1496" lon="7.09262">
        <ele>203.2</ele>
        <time>2021-11-14T09:36:25Z</time>
      </trkpt>
      <trkpt lat="49.14964" lon="7.09276">
        <ele>203.1</ele>
        <time>2021-11-14T09:36:35Z</time>
      </trkpt>
      <trkpt lat="49.14966" lon="7.09291">
        <ele>203</ele>
        <time>2021-11-14T09:36:42Z</time>
      </trkpt>
      <trkpt lat="49.14971" lon="7.09302">
        <ele>202.9</ele>
        <time>2021-11-14T09:36:48Z</time>
      </trkpt>
      <trkpt lat="49.14978" lon="7.09312">
        <ele>202.9</ele>
        <time>2021-11-14T09:36:57Z</time>
      </trkpt>
      <trkpt lat="49.14985" lon="7.09322">
        <ele>203</ele>
        <time>2021-11-14T09:37:04Z</time>
      </trkpt>
      <trkpt lat="49.14992" lon="7.09334">
        <ele>203.1</ele>
        <time>2021-11-14T09:37:13Z</time>
      </trkpt>
      <trkpt lat="49.14997" lon="7.09347">
        <ele>203.2</ele>
        <time>2021-11-14T09:37:20Z</time>
      </trkpt>
      <trkpt lat="49.15002" lon="7.0936">
        <ele>203.3</ele>
        <time>2021-11-14T09:37:28Z</time>
      </trkpt>
      <trkpt lat="49.15007" lon="7.09373">
        <ele>203.4</ele>
        <time>2021-11-14T09:37:35Z</time>
      </trkpt>
      <trkpt lat="49.15012" lon="7.09386">
        <ele>203.4</ele>
        <time>2021-11-14T09:37:42Z</time>
      </trkpt>
      <trkpt lat="49.15016" lon="7.09399">
        <ele>203.4</ele>
        <time>2021-11-14T09:37:49Z</time>
      </trkpt>
      <trkpt lat="49.15021" lon="7.09412">
        <ele>203.4</ele>
        <time>2021-11-14T09:37:57Z</time>
      </trkpt>
      <trkpt lat="49.15026" lon="7.09425">
        <ele>203.4</ele>
        <time>2021-11-14T09:38:04Z</time>
      </trkpt>
      <trkpt lat="49.15032" lon="7.09436">
        <ele>203.4</ele>
        <time>2021-11-14T09:38:14Z</time>
      </trkpt>
      <trkpt lat="49.15037" lon="7.09448">
        <ele>203.4</ele>
        <time>2021-11-14T09:38:22Z</time>
      </trkpt>
      <trkpt lat="49.15043" lon="7.09459">
        <ele>203.4</ele>
        <time>2021-11-14T09:38:30Z</time>
      </trkpt>
      <trkpt lat="49.15047" lon="7.09473">
        <ele>203.4</ele>
        <time>2021-11-14T09:38:38Z</time>
      </trkpt>
      <trkpt lat="49.15051" lon="7.09486">
        <ele>203.5</ele>
        <time>2021-11-14T09:38:46Z</time>
      </trkpt>
      <trkpt lat="49.15056" lon="7.09499">
        <ele>203.5</ele>
        <time>2021-11-14T09:38:54Z</time>
      </trkpt>
      <trkpt lat="49.15061" lon="7.09511">
        <ele>203.6</ele>
        <time>2021-11-14T09:39:02Z</time>
      </trkpt>
      <trkpt lat="49.15065" lon="7.09525">
        <ele>203.6</ele>
        <time>2021-11-14T09:39:10Z</time>
      </trkpt>
      <trkpt lat="49.15069" lon="7.09539">
        <ele>203.6</ele>
        <time>2021-11-14T09:39:18Z</time>
      </trkpt>
      <trkpt lat="49.15074" lon="7.0955">
        <ele>203.6</ele>
        <time>2021-11-14T09:39:25Z</time>
      </trkpt>
      <trkpt lat="49.15079" lon="7.09564">
        <ele>203.6</ele>
        <time>2021-11-14T09:39:33Z</time>
      </trkpt>
      <trkpt lat="49.15084" lon="7.09577">
        <ele>203.6</ele>
        <time>2021-11-14T09:39:40Z</time>
      </trkpt>
      <trkpt lat="49.15089" lon="7.09589">
        <ele>203.6</ele>
        <time>2021-11-14T09:39:47Z</time>
      </trkpt>
      <trkpt lat="49.15093" lon="7.09602">
        <ele>203.7</ele>
        <time>2021-11-14T09:39:55Z</time>
      </trkpt>
      <trkpt lat="49.15098" lon="7.09616">
        <ele>203.7</ele>
        <time>2021-11-14T09:40:04Z</time>
      </trkpt>
      <trkpt lat="49.15104" lon="7.09627">
        <ele>203.8</ele>
        <time>2021-11-14T09:40:11Z</time>
      </trkpt>
      <trkpt lat="49.1511" lon="7.09639">
        <ele>203.8</ele>
        <time>2021-11-14T09:40:19Z</time>
      </trkpt>
      <trkpt lat="49.15114" lon="7.09652">
        <ele>203.8</ele>
        <time>2021-11-14T09:40:26Z</time>
      </trkpt>
      <trkpt lat="49.15119" lon="7.09665">
        <ele>203.7</ele>
        <time>2021-11-14T09:40:34Z</time>
      </trkpt>
      <trkpt lat="49.15123" lon="7.09678">
        <ele>203.6</ele>
        <time>2021-11-14T09:40:42Z</time>
      </trkpt>
      <trkpt lat="49.15128" lon="7.09691">
        <ele>203.5</ele>
        <time>2021-11-14T09:40:50Z</time>
      </trkpt>
      <trkpt lat="49.15133" lon="7.09703">
        <ele>203.5</ele>
        <time>2021-11-14T09:40:58Z</time>
      </trkpt>
      <trkpt lat="49.15139" lon="7.09714">
        <ele>203.4</ele>
        <time>2021-11-14T09:41:05Z</time>
      </trkpt>
      <trkpt lat="49.15143" lon="7.09727">
        <ele>203.4</ele>
        <time>2021-11-14T09:41:12Z</time>
      </trkpt>
      <trkpt lat="49.15148" lon="7.09739">
        <ele>203.4</ele>
        <time>2021-11-14T09:41:20Z</time>
      </trkpt>
      <trkpt lat="49.15153" lon="7.09752">
        <ele>203.4</ele>
        <time>2021-11-14T09:41:28Z</time>
      </trkpt>
      <trkpt lat="49.15158" lon="7.09765">
        <ele>203.4</ele>
        <time>2021-11-14T09:41:36Z</time>
      </trkpt>
      <trkpt lat="49.15163" lon="7.09778">
        <ele>203.5</ele>
        <time>2021-11-14T09:41:43Z</time>
      </trkpt>
      <trkpt lat="49.15168" lon="7.0979">
        <ele>203.5</ele>
        <time>2021-11-14T09:41:50Z</time>
      </trkpt>
      <trkpt lat="49.15173" lon="7.09801">
        <ele>203.7</ele>
        <time>2021-11-14T09:41:57Z</time>
      </trkpt>
      <trkpt lat="49.15178" lon="7.09814">
        <ele>203.8</ele>
        <time>2021-11-14T09:42:05Z</time>
      </trkpt>
      <trkpt lat="49.15183" lon="7.09828">
        <ele>204</ele>
        <time>2021-11-14T09:42:13Z</time>
      </trkpt>
      <trkpt lat="49.15186" lon="7.09842">
        <ele>204.2</ele>
        <time>2021-11-14T09:42:21Z</time>
      </trkpt>
      <trkpt lat="49.1519" lon="7.09849">
        <ele>204.3</ele>
        <time>2021-11-14T09:42:29Z</time>
      </trkpt>
      <trkpt lat="49.1519" lon="7.09849">
        <ele>204.3</ele>
        <time>2021-11-14T09:42:30Z</time>
      </trkpt>
      <trkpt lat="49.15191" lon="7.09849">
        <ele>204.3</ele>
        <time>2021-11-14T09:42:32Z</time>
      </trkpt>
      <trkpt lat="49.15191" lon="7.0985">
        <ele>204.3</ele>
        <time>2021-11-14T09:42:34Z</time>
      </trkpt>
      <trkpt lat="49.1519" lon="7.0985">
        <ele>204.3</ele>
        <time>2021-11-14T09:42:37Z</time>
      </trkpt>
      <trkpt lat="49.1519" lon="7.0985">
        <ele>204.3</ele>
        <time>2021-11-14T09:42:38Z</time>
      </trkpt>
      <trkpt lat="49.15191" lon="7.09848">
        <ele>204.3</ele>
        <time>2021-11-14T09:42:43Z</time>
      </trkpt>
      <trkpt lat="49.15191" lon="7.09848">
        <ele>204.3</ele>
        <time>2021-11-14T09:42:44Z</time>
      </trkpt>
      <trkpt lat="49.15191" lon="7.09849">
        <ele>204.3</ele>
        <time>2021-11-14T09:42:46Z</time>
      </trkpt>
      <trkpt lat="49.15191" lon="7.09848">
        <ele>204.2</ele>
        <time>2021-11-14T09:42:47Z</time>
      </trkpt>
      <trkpt lat="49.15201" lon="7.09845">
        <ele>204.1</ele>
        <time>2021-11-14T09:42:56Z</time>
      </trkpt>
      <trkpt lat="49.1521" lon="7.09839">
        <ele>204</ele>
        <time>2021-11-14T09:43:03Z</time>
      </trkpt>
      <trkpt lat="49.15219" lon="7.09833">
        <ele>203.9</ele>
        <time>2021-11-14T09:43:12Z</time>
      </trkpt>
      <trkpt lat="49.15228" lon="7.09827">
        <ele>203.8</ele>
        <time>2021-11-14T09:43:19Z</time>
      </trkpt>
      <trkpt lat="49.15237" lon="7.09823">
        <ele>203.8</ele>
        <time>2021-11-14T09:43:26Z</time>
      </trkpt>
      <trkpt lat="49.15247" lon="7.0982">
        <ele>203.7</ele>
        <time>2021-11-14T09:43:32Z</time>
      </trkpt>
      <trkpt lat="49.15257" lon="7.09819">
        <ele>203.7</ele>
        <time>2021-11-14T09:43:37Z</time>
      </trkpt>
      <trkpt lat="49.15266" lon="7.09813">
        <ele>203.7</ele>
        <time>2021-11-14T09:43:45Z</time>
      </trkpt>
      <trkpt lat="49.15275" lon="7.09808">
        <ele>203.7</ele>
        <time>2021-11-14T09:43:53Z</time>
      </trkpt>
      <trkpt lat="49.15284" lon="7.09804">
        <ele>203.7</ele>
        <time>2021-11-14T09:44:01Z</time>
      </trkpt>
      <trkpt lat="49.15294" lon="7.09799">
        <ele>203.7</ele>
        <time>2021-11-14T09:44:08Z</time>
      </trkpt>
      <trkpt lat="49.15303" lon="7.09796">
        <ele>203.7</ele>
        <time>2021-11-14T09:44:15Z</time>
      </trkpt>
      <trkpt lat="49.15312" lon="7.09793">
        <ele>203.7</ele>
        <time>2021-11-14T09:44:24Z</time>
      </trkpt>
      <trkpt lat="49.15314" lon="7.09798">
        <ele>203.8</ele>
        <time>2021-11-14T09:44:31Z</time>
      </trkpt>
      <trkpt lat="49.15314" lon="7.09799">
        <ele>203.8</ele>
        <time>2021-11-14T09:44:43Z</time>
      </trkpt>
      <trkpt lat="49.15314" lon="7.09799">
        <ele>203.8</ele>
        <time>2021-11-14T09:44:44Z</time>
      </trkpt>
      <trkpt lat="49.15314" lon="7.09799">
        <ele>203.8</ele>
        <time>2021-11-14T09:44:48Z</time>
      </trkpt>
      <trkpt lat="49.15314" lon="7.09799">
        <ele>203.8</ele>
        <time>2021-11-14T09:44:49Z</time>
      </trkpt>
      <trkpt lat="49.15313" lon="7.09799">
        <ele>203.8</ele>
        <time>2021-11-14T09:45:24Z</time>
      </trkpt>
      <trkpt lat="49.15313" lon="7.09799">
        <ele>203.8</ele>
        <time>2021-11-14T09:45:25Z</time>
      </trkpt>
      <trkpt lat="49.15313" lon="7.098">
        <ele>203.8</ele>
        <time>2021-11-14T09:45:26Z</time>
      </trkpt>
      <trkpt lat="49.15313" lon="7.098">
        <ele>203.8</ele>
        <time>2021-11-14T09:45:30Z</time>
      </trkpt>
      <trkpt lat="49.15313" lon="7.098">
        <ele>203.8</ele>
        <time>2021-11-14T09:45:33Z</time>
      </trkpt>
      <trkpt lat="49.15313" lon="7.098">
        <ele>203.8</ele>
        <time>2021-11-14T09:45:34Z</time>
      </trkpt>
      <trkpt lat="49.15313" lon="7.098">
        <ele>203.8</ele>
        <time>2021-11-14T09:45:44Z</time>
      </trkpt>
      <trkpt lat="49.15313" lon="7.098">
        <ele>203.8</ele>
        <time>2021-11-14T09:45:46Z</time>
      </trkpt>
      <trkpt lat="49.15312" lon="7.098">
        <ele>203.8</ele>
        <time>2021-11-14T09:45:47Z</time>
      </trkpt>
      <trkpt lat="49.15303" lon="7.09796">
        <ele>203.8</ele>
        <time>2021-11-14T09:45:58Z</time>
      </trkpt>
      <trkpt lat="49.15294" lon="7.09797">
        <ele>203.8</ele>
        <time>2021-11-14T09:46:04Z</time>
      </trkpt>
      <trkpt lat="49.15284" lon="7.098">
        <ele>203.7</ele>
        <time>2021-11-14T09:46:11Z</time>
      </trkpt>
      <trkpt lat="49.15273" lon="7.09802">
        <ele>203.7</ele>
        <time>2021-11-14T09:46:17Z</time>
      </trkpt>
      <trkpt lat="49.15265" lon="7.09806">
        <ele>203.7</ele>
        <time>2021-11-14T09:46:25Z</time>
      </trkpt>
      <trkpt lat="49.15256" lon="7.09812">
        <ele>203.7</ele>
        <time>2021-11-14T09:46:33Z</time>
      </trkpt>
      <trkpt lat="49.15247" lon="7.09816">
        <ele>203.7</ele>
        <time>2021-11-14T09:46:40Z</time>
      </trkpt>
      <trkpt lat="49.15238" lon="7.0982">
        <ele>203.7</ele>
        <time>2021-11-14T09:46:47Z</time>
      </trkpt>
      <trkpt lat="49.15229" lon="7.09826">
        <ele>203.8</ele>
        <time>2021-11-14T09:46:56Z</time>
      </trkpt>
      <trkpt lat="49.1522" lon="7.09831">
        <ele>203.9</ele>
        <time>2021-11-14T09:47:03Z</time>
      </trkpt>
      <trkpt lat="49.15211" lon="7.09837">
        <ele>204</ele>
        <time>2021-11-14T09:47:11Z</time>
      </trkpt>
      <trkpt lat="49.15202" lon="7.09842">
        <ele>204.1</ele>
        <time>2021-11-14T09:47:18Z</time>
      </trkpt>
      <trkpt lat="49.15192" lon="7.09847">
        <ele>204.3</ele>
        <time>2021-11-14T09:47:26Z</time>
      </trkpt>
      <trkpt lat="49.15183" lon="7.09851">
        <ele>204.4</ele>
        <time>2021-11-14T09:47:34Z</time>
      </trkpt>
      <trkpt lat="49.15174" lon="7.09854">
        <ele>204.6</ele>
        <time>2021-11-14T09:47:41Z</time>
      </trkpt>
      <trkpt lat="49.15164" lon="7.09856">
        <ele>204.9</ele>
        <time>2021-11-14T09:47:49Z</time>
      </trkpt>
      <trkpt lat="49.15155" lon="7.09858">
        <ele>205.1</ele>
        <time>2021-11-14T09:47:56Z</time>
      </trkpt>
      <trkpt lat="49.15146" lon="7.0986">
        <ele>205.4</ele>
        <time>2021-11-14T09:48:04Z</time>
      </trkpt>
      <trkpt lat="49.15136" lon="7.09863">
        <ele>205.7</ele>
        <time>2021-11-14T09:48:12Z</time>
      </trkpt>
      <trkpt lat="49.15126" lon="7.09864">
        <ele>206.1</ele>
        <time>2021-11-14T09:48:20Z</time>
      </trkpt>
      <trkpt lat="49.15116" lon="7.09867">
        <ele>206.5</ele>
        <time>2021-11-14T09:48:28Z</time>
      </trkpt>
      <trkpt lat="49.15106" lon="7.0987">
        <ele>206.9</ele>
        <time>2021-11-14T09:48:37Z</time>
      </trkpt>
      <trkpt lat="49.15096" lon="7.09871">
        <ele>207.4</ele>
        <time>2021-11-14T09:48:44Z</time>
      </trkpt>
      <trkpt lat="49.15087" lon="7.09872">
        <ele>207.8</ele>
        <time>2021-11-14T09:48:52Z</time>
      </trkpt>
      <trkpt lat="49.15078" lon="7.09875">
        <ele>208.2</ele>
        <time>2021-11-14T09:49:00Z</time>
      </trkpt>
      <trkpt lat="49.15068" lon="7.09879">
        <ele>208.8</ele>
        <time>2021-11-14T09:49:08Z</time>
      </trkpt>
      <trkpt lat="49.15059" lon="7.09881">
        <ele>209.3</ele>
        <time>2021-11-14T09:49:16Z</time>
      </trkpt>
      <trkpt lat="49.1505" lon="7.09882">
        <ele>209.9</ele>
        <time>2021-11-14T09:49:23Z</time>
      </trkpt>
      <trkpt lat="49.1504" lon="7.09887">
        <ele>210.8</ele>
        <time>2021-11-14T09:49:31Z</time>
      </trkpt>
      <trkpt lat="49.1503" lon="7.0989">
        <ele>211.7</ele>
        <time>2021-11-14T09:49:39Z</time>
      </trkpt>
      <trkpt lat="49.15021" lon="7.09893">
        <ele>212.5</ele>
        <time>2021-11-14T09:49:47Z</time>
      </trkpt>
      <trkpt lat="49.15012" lon="7.09897">
        <ele>213.4</ele>
        <time>2021-11-14T09:49:55Z</time>
      </trkpt>
      <trkpt lat="49.15003" lon="7.09901">
        <ele>214.2</ele>
        <time>2021-11-14T09:50:04Z</time>
      </trkpt>
      <trkpt lat="49.14994" lon="7.09903">
        <ele>214.9</ele>
        <time>2021-11-14T09:50:14Z</time>
      </trkpt>
      <trkpt lat="49.14984" lon="7.09903">
        <ele>215.7</ele>
        <time>2021-11-14T09:50:23Z</time>
      </trkpt>
      <trkpt lat="49.14974" lon="7.09906">
        <ele>216.5</ele>
        <time>2021-11-14T09:50:32Z</time>
      </trkpt>
      <trkpt lat="49.14965" lon="7.09907">
        <ele>217.2</ele>
        <time>2021-11-14T09:50:41Z</time>
      </trkpt>
      <trkpt lat="49.14956" lon="7.09908">
        <ele>218.1</ele>
        <time>2021-11-14T09:50:50Z</time>
      </trkpt>
      <trkpt lat="49.14946" lon="7.0991">
        <ele>218.9</ele>
        <time>2021-11-14T09:50:59Z</time>
      </trkpt>
      <trkpt lat="49.14937" lon="7.09912">
        <ele>219.9</ele>
        <time>2021-11-14T09:51:10Z</time>
      </trkpt>
      <trkpt lat="49.14927" lon="7.09914">
        <ele>220.8</ele>
        <time>2021-11-14T09:51:21Z</time>
      </trkpt>
      <trkpt lat="49.14918" lon="7.09912">
        <ele>221.4</ele>
        <time>2021-11-14T09:51:31Z</time>
      </trkpt>
      <trkpt lat="49.1491" lon="7.09905">
        <ele>222</ele>
        <time>2021-11-14T09:51:41Z</time>
      </trkpt>
      <trkpt lat="49.149" lon="7.09901">
        <ele>222.6</ele>
        <time>2021-11-14T09:51:51Z</time>
      </trkpt>
      <trkpt lat="49.14891" lon="7.09895">
        <ele>223.1</ele>
        <time>2021-11-14T09:52:03Z</time>
      </trkpt>
      <trkpt lat="49.14883" lon="7.09889">
        <ele>223.7</ele>
        <time>2021-11-14T09:52:15Z</time>
      </trkpt>
      <trkpt lat="49.14875" lon="7.09883">
        <ele>224.4</ele>
        <time>2021-11-14T09:52:25Z</time>
      </trkpt>
      <trkpt lat="49.14868" lon="7.09874">
        <ele>224.9</ele>
        <time>2021-11-14T09:52:37Z</time>
      </trkpt>
      <trkpt lat="49.14859" lon="7.09868">
        <ele>225.7</ele>
        <time>2021-11-14T09:52:49Z</time>
      </trkpt>
      <trkpt lat="49.14853" lon="7.09856">
        <ele>226.4</ele>
        <time>2021-11-14T09:53:00Z</time>
      </trkpt>
      <trkpt lat="49.14849" lon="7.09843">
        <ele>227.2</ele>
        <time>2021-11-14T09:53:11Z</time>
      </trkpt>
      <trkpt lat="49.14845" lon="7.09831">
        <ele>228.1</ele>
        <time>2021-11-14T09:53:19Z</time>
      </trkpt>
      <trkpt lat="49.14839" lon="7.09819">
        <ele>229.1</ele>
        <time>2021-11-14T09:53:28Z</time>
      </trkpt>
      <trkpt lat="49.14832" lon="7.0981">
        <ele>230.2</ele>
        <time>2021-11-14T09:53:36Z</time>
      </trkpt>
      <trkpt lat="49.14824" lon="7.098">
        <ele>231.3</ele>
        <time>2021-11-14T09:53:44Z</time>
      </trkpt>
      <trkpt lat="49.14815" lon="7.09793">
        <ele>232.4</ele>
        <time>2021-11-14T09:53:55Z</time>
      </trkpt>
      <trkpt lat="49.14807" lon="7.09786">
        <ele>233.4</ele>
        <time>2021-11-14T09:54:05Z</time>
      </trkpt>
      <trkpt lat="49.14799" lon="7.09777">
        <ele>234.6</ele>
        <time>2021-11-14T09:54:15Z</time>
      </trkpt>
      <trkpt lat="49.14791" lon="7.0977">
        <ele>235.7</ele>
        <time>2021-11-14T09:54:25Z</time>
      </trkpt>
      <trkpt lat="49.14783" lon="7.09762">
        <ele>236.9</ele>
        <time>2021-11-14T09:54:36Z</time>
      </trkpt>
      <trkpt lat="49.14775" lon="7.09755">
        <ele>238.1</ele>
        <time>2021-11-14T09:54:49Z</time>
      </trkpt>
      <trkpt lat="49.14769" lon="7.09743">
        <ele>239.3</ele>
        <time>2021-11-14T09:54:59Z</time>
      </trkpt>
      <trkpt lat="49.14763" lon="7.09731">
        <ele>240.3</ele>
        <time>2021-11-14T09:55:09Z</time>
      </trkpt>
      <trkpt lat="49.14756" lon="7.09719">
        <ele>241.2</ele>
        <time>2021-11-14T09:55:18Z</time>
      </trkpt>
      <trkpt lat="49.14749" lon="7.09708">
        <ele>242</ele>
        <time>2021-11-14T09:55:25Z</time>
      </trkpt>
      <trkpt lat="49.14745" lon="7.09696">
        <ele>243</ele>
        <time>2021-11-14T09:55:32Z</time>
      </trkpt>
      <trkpt lat="49.1474" lon="7.09685">
        <ele>244</ele>
        <time>2021-11-14T09:55:40Z</time>
      </trkpt>
      <trkpt lat="49.14734" lon="7.09672">
        <ele>244.9</ele>
        <time>2021-11-14T09:55:48Z</time>
      </trkpt>
      <trkpt lat="49.14728" lon="7.09661">
        <ele>245.6</ele>
        <time>2021-11-14T09:55:56Z</time>
      </trkpt>
      <trkpt lat="49.14722" lon="7.09649">
        <ele>246.4</ele>
        <time>2021-11-14T09:56:06Z</time>
      </trkpt>
      <trkpt lat="49.14718" lon="7.09636">
        <ele>247.1</ele>
        <time>2021-11-14T09:56:16Z</time>
      </trkpt>
      <trkpt lat="49.14713" lon="7.09624">
        <ele>247.6</ele>
        <time>2021-11-14T09:56:24Z</time>
      </trkpt>
      <trkpt lat="49.1471" lon="7.0961">
        <ele>248</ele>
        <time>2021-11-14T09:56:33Z</time>
      </trkpt>
      <trkpt lat="49.14704" lon="7.09597">
        <ele>248.4</ele>
        <time>2021-11-14T09:56:42Z</time>
      </trkpt>
      <trkpt lat="49.14698" lon="7.09586">
        <ele>248.9</ele>
        <time>2021-11-14T09:56:51Z</time>
      </trkpt>
      <trkpt lat="49.14691" lon="7.09577">
        <ele>249.4</ele>
        <time>2021-11-14T09:57:00Z</time>
      </trkpt>
      <trkpt lat="49.14685" lon="7.09566">
        <ele>249.9</ele>
        <time>2021-11-14T09:57:10Z</time>
      </trkpt>
      <trkpt lat="49.14682" lon="7.09552">
        <ele>250.4</ele>
        <time>2021-11-14T09:57:19Z</time>
      </trkpt>
      <trkpt lat="49.14678" lon="7.09538">
        <ele>251</ele>
        <time>2021-11-14T09:57:30Z</time>
      </trkpt>
      <trkpt lat="49.14675" lon="7.09524">
        <ele>251.5</ele>
        <time>2021-11-14T09:57:40Z</time>
      </trkpt>
      <trkpt lat="49.1467" lon="7.09511">
        <ele>251.9</ele>
        <time>2021-11-14T09:57:48Z</time>
      </trkpt>
      <trkpt lat="49.14668" lon="7.09497">
        <ele>252.2</ele>
        <time>2021-11-14T09:57:58Z</time>
      </trkpt>
      <trkpt lat="49.14665" lon="7.09484">
        <ele>252.6</ele>
        <time>2021-11-14T09:58:09Z</time>
      </trkpt>
      <trkpt lat="49.14661" lon="7.0947">
        <ele>253.1</ele>
        <time>2021-11-14T09:58:20Z</time>
      </trkpt>
      <trkpt lat="49.1466" lon="7.09456">
        <ele>253.5</ele>
        <time>2021-11-14T09:58:29Z</time>
      </trkpt>
      <trkpt lat="49.14658" lon="7.09442">
        <ele>254</ele>
        <time>2021-11-14T09:58:39Z</time>
      </trkpt>
      <trkpt lat="49.14654" lon="7.0943">
        <ele>254.6</ele>
        <time>2021-11-14T09:58:48Z</time>
      </trkpt>
      <trkpt lat="49.14647" lon="7.0942">
        <ele>255.2</ele>
        <time>2021-11-14T09:58:59Z</time>
      </trkpt>
      <trkpt lat="49.14641" lon="7.09407">
        <ele>255.9</ele>
        <time>2021-11-14T09:59:08Z</time>
      </trkpt>
      <trkpt lat="49.1464" lon="7.09392">
        <ele>256.7</ele>
        <time>2021-11-14T09:59:16Z</time>
      </trkpt>
      <trkpt lat="49.14639" lon="7.09377">
        <ele>257.5</ele>
        <time>2021-11-14T09:59:23Z</time>
      </trkpt>
      <trkpt lat="49.14636" lon="7.09364">
        <ele>258.2</ele>
        <time>2021-11-14T09:59:32Z</time>
      </trkpt>
      <trkpt lat="49.14632" lon="7.0935">
        <ele>258.9</ele>
        <time>2021-11-14T09:59:41Z</time>
      </trkpt>
      <trkpt lat="49.14625" lon="7.09339">
        <ele>259.5</ele>
        <time>2021-11-14T09:59:48Z</time>
      </trkpt>
      <trkpt lat="49.14619" lon="7.09327">
        <ele>260.2</ele>
        <time>2021-11-14T09:59:58Z</time>
      </trkpt>
      <trkpt lat="49.14613" lon="7.09316">
        <ele>260.8</ele>
        <time>2021-11-14T10:00:07Z</time>
      </trkpt>
      <trkpt lat="49.14612" lon="7.09301">
        <ele>261.5</ele>
        <time>2021-11-14T10:00:17Z</time>
      </trkpt>
      <trkpt lat="49.1461" lon="7.09287">
        <ele>262.1</ele>
        <time>2021-11-14T10:00:28Z</time>
      </trkpt>
      <trkpt lat="49.14604" lon="7.09275">
        <ele>262.8</ele>
        <time>2021-11-14T10:00:34Z</time>
      </trkpt>
      <trkpt lat="49.146" lon="7.09262">
        <ele>263.5</ele>
        <time>2021-11-14T10:00:43Z</time>
      </trkpt>
      <trkpt lat="49.14602" lon="7.09247">
        <ele>264.4</ele>
        <time>2021-11-14T10:00:53Z</time>
      </trkpt>
      <trkpt lat="49.14597" lon="7.09233">
        <ele>265.2</ele>
        <time>2021-11-14T10:01:02Z</time>
      </trkpt>
      <trkpt lat="49.14591" lon="7.09222">
        <ele>265.9</ele>
        <time>2021-11-14T10:01:11Z</time>
      </trkpt>
      <trkpt lat="49.14586" lon="7.0921">
        <ele>266.5</ele>
        <time>2021-11-14T10:01:22Z</time>
      </trkpt>
      <trkpt lat="49.14581" lon="7.09198">
        <ele>267.2</ele>
        <time>2021-11-14T10:01:31Z</time>
      </trkpt>
      <trkpt lat="49.14575" lon="7.09187">
        <ele>267.6</ele>
        <time>2021-11-14T10:01:40Z</time>
      </trkpt>
      <trkpt lat="49.14575" lon="7.09173">
        <ele>268.1</ele>
        <time>2021-11-14T10:01:50Z</time>
      </trkpt>
      <trkpt lat="49.14572" lon="7.09159">
        <ele>268.5</ele>
        <time>2021-11-14T10:02:01Z</time>
      </trkpt>
      <trkpt lat="49.14566" lon="7.09148">
        <ele>268.9</ele>
        <time>2021-11-14T10:02:10Z</time>
      </trkpt>
      <trkpt lat="49.14565" lon="7.09133">
        <ele>269.3</ele>
        <time>2021-11-14T10:02:21Z</time>
      </trkpt>
      <trkpt lat="49.14564" lon="7.0912">
        <ele>269.6</ele>
        <time>2021-11-14T10:02:29Z</time>
      </trkpt>
      <trkpt lat="49.14559" lon="7.09107">
        <ele>269.7</ele>
        <time>2021-11-14T10:02:39Z</time>
      </trkpt>
      <trkpt lat="49.14555" lon="7.09094">
        <ele>269.2</ele>
        <time>2021-11-14T10:02:48Z</time>
      </trkpt>
      <trkpt lat="49.14551" lon="7.09081">
        <ele>268.8</ele>
        <time>2021-11-14T10:02:57Z</time>
      </trkpt>
      <trkpt lat="49.14547" lon="7.09067">
        <ele>268.3</ele>
        <time>2021-11-14T10:03:07Z</time>
      </trkpt>
      <trkpt lat="49.1454" lon="7.09058">
        <ele>268</ele>
        <time>2021-11-14T10:03:15Z</time>
      </trkpt>
      <trkpt lat="49.14534" lon="7.09047">
        <ele>267.5</ele>
        <time>2021-11-14T10:03:23Z</time>
      </trkpt>
      <trkpt lat="49.14528" lon="7.09035">
        <ele>267.1</ele>
        <time>2021-11-14T10:03:31Z</time>
      </trkpt>
      <trkpt lat="49.14522" lon="7.09025">
        <ele>266.6</ele>
        <time>2021-11-14T10:03:39Z</time>
      </trkpt>
      <trkpt lat="49.14517" lon="7.09013">
        <ele>265.9</ele>
        <time>2021-11-14T10:03:47Z</time>
      </trkpt>
      <trkpt lat="49.14509" lon="7.09004">
        <ele>265.2</ele>
        <time>2021-11-14T10:03:58Z</time>
      </trkpt>
      <trkpt lat="49.14501" lon="7.08995">
        <ele>264.6</ele>
        <time>2021-11-14T10:04:06Z</time>
      </trkpt>
      <trkpt lat="49.14493" lon="7.08989">
        <ele>263.9</ele>
        <time>2021-11-14T10:04:13Z</time>
      </trkpt>
      <trkpt lat="49.14483" lon="7.08985">
        <ele>263.3</ele>
        <time>2021-11-14T10:04:23Z</time>
      </trkpt>
      <trkpt lat="49.14474" lon="7.08982">
        <ele>262.7</ele>
        <time>2021-11-14T10:04:33Z</time>
      </trkpt>
      <trkpt lat="49.14464" lon="7.08977">
        <ele>262.1</ele>
        <time>2021-11-14T10:04:41Z</time>
      </trkpt>
      <trkpt lat="49.14458" lon="7.08969">
        <ele>261.7</ele>
        <time>2021-11-14T10:04:56Z</time>
      </trkpt>
      <trkpt lat="49.14457" lon="7.08969">
        <ele>261.6</ele>
        <time>2021-11-14T10:04:57Z</time>
      </trkpt>
      <trkpt lat="49.14454" lon="7.08969">
        <ele>261.5</ele>
        <time>2021-11-14T10:05:05Z</time>
      </trkpt>
      <trkpt lat="49.14454" lon="7.08969">
        <ele>261.5</ele>
        <time>2021-11-14T10:05:06Z</time>
      </trkpt>
      <trkpt lat="49.14445" lon="7.08971">
        <ele>260.9</ele>
        <time>2021-11-14T10:05:15Z</time>
      </trkpt>
      <trkpt lat="49.14435" lon="7.08972">
        <ele>260.4</ele>
        <time>2021-11-14T10:05:25Z</time>
      </trkpt>
      <trkpt lat="49.14426" lon="7.08968">
        <ele>259.8</ele>
        <time>2021-11-14T10:05:33Z</time>
      </trkpt>
      <trkpt lat="49.14417" lon="7.0897">
        <ele>259.3</ele>
        <time>2021-11-14T10:05:42Z</time>
      </trkpt>
      <trkpt lat="49.14408" lon="7.08972">
        <ele>258.9</ele>
        <time>2021-11-14T10:05:50Z</time>
      </trkpt>
      <trkpt lat="49.14398" lon="7.08975">
        <ele>258.5</ele>
        <time>2021-11-14T10:05:59Z</time>
      </trkpt>
      <trkpt lat="49.14389" lon="7.08979">
        <ele>258</ele>
        <time>2021-11-14T10:06:08Z</time>
      </trkpt>
      <trkpt lat="49.1438" lon="7.08982">
        <ele>257.6</ele>
        <time>2021-11-14T10:06:16Z</time>
      </trkpt>
      <trkpt lat="49.14371" lon="7.08984">
        <ele>257.2</ele>
        <time>2021-11-14T10:06:22Z</time>
      </trkpt>
      <trkpt lat="49.14361" lon="7.08987">
        <ele>256.7</ele>
        <time>2021-11-14T10:06:30Z</time>
      </trkpt>
      <trkpt lat="49.14352" lon="7.08992">
        <ele>256.3</ele>
        <time>2021-11-14T10:06:39Z</time>
      </trkpt>
      <trkpt lat="49.14343" lon="7.08997">
        <ele>255.8</ele>
        <time>2021-11-14T10:06:46Z</time>
      </trkpt>
      <trkpt lat="49.14335" lon="7.09004">
        <ele>255.5</ele>
        <time>2021-11-14T10:06:55Z</time>
      </trkpt>
      <trkpt lat="49.14326" lon="7.09009">
        <ele>255</ele>
        <time>2021-11-14T10:07:03Z</time>
      </trkpt>
      <trkpt lat="49.14316" lon="7.09011">
        <ele>254.5</ele>
        <time>2021-11-14T10:07:13Z</time>
      </trkpt>
      <trkpt lat="49.14307" lon="7.09007">
        <ele>254.1</ele>
        <time>2021-11-14T10:07:20Z</time>
      </trkpt>
      <trkpt lat="49.14299" lon="7.09001">
        <ele>253.7</ele>
        <time>2021-11-14T10:07:27Z</time>
      </trkpt>
      <trkpt lat="49.14291" lon="7.08994">
        <ele>253.1</ele>
        <time>2021-11-14T10:07:33Z</time>
      </trkpt>
      <trkpt lat="49.14283" lon="7.08987">
        <ele>252.4</ele>
        <time>2021-11-14T10:07:41Z</time>
      </trkpt>
      <trkpt lat="49.14274" lon="7.08981">
        <ele>251.7</ele>
        <time>2021-11-14T10:07:49Z</time>
      </trkpt>
      <trkpt lat="49.14266" lon="7.08974">
        <ele>251</ele>
        <time>2021-11-14T10:07:57Z</time>
      </trkpt>
      <trkpt lat="49.14257" lon="7.08969">
        <ele>250.4</ele>
        <time>2021-11-14T10:08:05Z</time>
      </trkpt>
      <trkpt lat="49.14248" lon="7.08966">
        <ele>249.6</ele>
        <time>2021-11-14T10:08:13Z</time>
      </trkpt>
      <trkpt lat="49.14238" lon="7.08966">
        <ele>248.8</ele>
        <time>2021-11-14T10:08:21Z</time>
      </trkpt>
      <trkpt lat="49.14229" lon="7.0897">
        <ele>248</ele>
        <time>2021-11-14T10:08:28Z</time>
      </trkpt>
      <trkpt lat="49.1422" lon="7.08976">
        <ele>247.1</ele>
        <time>2021-11-14T10:08:36Z</time>
      </trkpt>
      <trkpt lat="49.14211" lon="7.08982">
        <ele>246.2</ele>
        <time>2021-11-14T10:08:44Z</time>
      </trkpt>
      <trkpt lat="49.14201" lon="7.08987">
        <ele>245.5</ele>
        <time>2021-11-14T10:08:52Z</time>
      </trkpt>
      <trkpt lat="49.14193" lon="7.08991">
        <ele>244.9</ele>
        <time>2021-11-14T10:08:59Z</time>
      </trkpt>
      <trkpt lat="49.14184" lon="7.08996">
        <ele>244.2</ele>
        <time>2021-11-14T10:09:07Z</time>
      </trkpt>
      <trkpt lat="49.14175" lon="7.09002">
        <ele>243.5</ele>
        <time>2021-11-14T10:09:14Z</time>
      </trkpt>
      <trkpt lat="49.14166" lon="7.09006">
        <ele>242.7</ele>
        <time>2021-11-14T10:09:22Z</time>
      </trkpt>
      <trkpt lat="49.14156" lon="7.0901">
        <ele>241.9</ele>
        <time>2021-11-14T10:09:31Z</time>
      </trkpt>
      <trkpt lat="49.14146" lon="7.09013">
        <ele>241.2</ele>
        <time>2021-11-14T10:09:40Z</time>
      </trkpt>
      <trkpt lat="49.14137" lon="7.09014">
        <ele>240.6</ele>
        <time>2021-11-14T10:09:48Z</time>
      </trkpt>
      <trkpt lat="49.14128" lon="7.09016">
        <ele>239.8</ele>
        <time>2021-11-14T10:09:55Z</time>
      </trkpt>
      <trkpt lat="49.14119" lon="7.09019">
        <ele>238.9</ele>
        <time>2021-11-14T10:10:02Z</time>
      </trkpt>
      <trkpt lat="49.1411" lon="7.09016">
        <ele>238.1</ele>
        <time>2021-11-14T10:10:10Z</time>
      </trkpt>
      <trkpt lat="49.14102" lon="7.09009">
        <ele>237.4</ele>
        <time>2021-11-14T10:10:17Z</time>
      </trkpt>
      <trkpt lat="49.14094" lon="7.09001">
        <ele>236.7</ele>
        <time>2021-11-14T10:10:24Z</time>
      </trkpt>
      <trkpt lat="49.14085" lon="7.08996">
        <ele>236.1</ele>
        <time>2021-11-14T10:10:32Z</time>
      </trkpt>
      <trkpt lat="49.14079" lon="7.08985">
        <ele>235.4</ele>
        <time>2021-11-14T10:10:39Z</time>
      </trkpt>
      <trkpt lat="49.14071" lon="7.08974">
        <ele>234.6</ele>
        <time>2021-11-14T10:10:47Z</time>
      </trkpt>
      <trkpt lat="49.14065" lon="7.08963">
        <ele>233.8</ele>
        <time>2021-11-14T10:10:55Z</time>
      </trkpt>
      <trkpt lat="49.14063" lon="7.0895">
        <ele>233.2</ele>
        <time>2021-11-14T10:11:02Z</time>
      </trkpt>
      <trkpt lat="49.14062" lon="7.08936">
        <ele>232.6</ele>
        <time>2021-11-14T10:11:09Z</time>
      </trkpt>
      <trkpt lat="49.14066" lon="7.08921">
        <ele>231.9</ele>
        <time>2021-11-14T10:11:18Z</time>
      </trkpt>
      <trkpt lat="49.14068" lon="7.08907">
        <ele>231.3</ele>
        <time>2021-11-14T10:11:25Z</time>
      </trkpt>
      <trkpt lat="49.1407" lon="7.08893">
        <ele>230.7</ele>
        <time>2021-11-14T10:11:32Z</time>
      </trkpt>
      <trkpt lat="49.14075" lon="7.08879">
        <ele>230.1</ele>
        <time>2021-11-14T10:11:40Z</time>
      </trkpt>
      <trkpt lat="49.14077" lon="7.08865">
        <ele>229.5</ele>
        <time>2021-11-14T10:11:47Z</time>
      </trkpt>
      <trkpt lat="49.14079" lon="7.0885">
        <ele>229</ele>
        <time>2021-11-14T10:11:55Z</time>
      </trkpt>
      <trkpt lat="49.14083" lon="7.08838">
        <ele>228.4</ele>
        <time>2021-11-14T10:12:03Z</time>
      </trkpt>
      <trkpt lat="49.14088" lon="7.08825">
        <ele>227.8</ele>
        <time>2021-11-14T10:12:15Z</time>
      </trkpt>
      <trkpt lat="49.14092" lon="7.08812">
        <ele>227.2</ele>
        <time>2021-11-14T10:12:23Z</time>
      </trkpt>
      <trkpt lat="49.14091" lon="7.08798">
        <ele>226.3</ele>
        <time>2021-11-14T10:12:30Z</time>
      </trkpt>
      <trkpt lat="49.14081" lon="7.08801">
        <ele>226.4</ele>
        <time>2021-11-14T10:12:38Z</time>
      </trkpt>
      <trkpt lat="49.14073" lon="7.08808">
        <ele>226.4</ele>
        <time>2021-11-14T10:12:44Z</time>
      </trkpt>
      <trkpt lat="49.14065" lon="7.08815">
        <ele>226.4</ele>
        <time>2021-11-14T10:12:52Z</time>
      </trkpt>
      <trkpt lat="49.14056" lon="7.08823">
        <ele>226.4</ele>
        <time>2021-11-14T10:13:00Z</time>
      </trkpt>
      <trkpt lat="49.14048" lon="7.0883">
        <ele>226.4</ele>
        <time>2021-11-14T10:13:07Z</time>
      </trkpt>
      <trkpt lat="49.1404" lon="7.08837">
        <ele>226.4</ele>
        <time>2021-11-14T10:13:14Z</time>
      </trkpt>
      <trkpt lat="49.14031" lon="7.08843">
        <ele>226.3</ele>
        <time>2021-11-14T10:13:22Z</time>
      </trkpt>
      <trkpt lat="49.14022" lon="7.08849">
        <ele>226.3</ele>
        <time>2021-11-14T10:13:29Z</time>
      </trkpt>
      <trkpt lat="49.14014" lon="7.08855">
        <ele>226.3</ele>
        <time>2021-11-14T10:13:37Z</time>
      </trkpt>
      <trkpt lat="49.14005" lon="7.08862">
        <ele>226.2</ele>
        <time>2021-11-14T10:13:45Z</time>
      </trkpt>
      <trkpt lat="49.13997" lon="7.08868">
        <ele>226.1</ele>
        <time>2021-11-14T10:13:52Z</time>
      </trkpt>
      <trkpt lat="49.13987" lon="7.08874">
        <ele>226</ele>
        <time>2021-11-14T10:14:01Z</time>
      </trkpt>
      <trkpt lat="49.13979" lon="7.08881">
        <ele>225.9</ele>
        <time>2021-11-14T10:14:08Z</time>
      </trkpt>
      <trkpt lat="49.13973" lon="7.08891">
        <ele>225.7</ele>
        <time>2021-11-14T10:14:15Z</time>
      </trkpt>
      <trkpt lat="49.13965" lon="7.08898">
        <ele>225.6</ele>
        <time>2021-11-14T10:14:22Z</time>
      </trkpt>
      <trkpt lat="49.13957" lon="7.08906">
        <ele>225.4</ele>
        <time>2021-11-14T10:14:29Z</time>
      </trkpt>
      <trkpt lat="49.13949" lon="7.08913">
        <ele>225.4</ele>
        <time>2021-11-14T10:14:36Z</time>
      </trkpt>
      <trkpt lat="49.13941" lon="7.08921">
        <ele>225.4</ele>
        <time>2021-11-14T10:14:43Z</time>
      </trkpt>
      <trkpt lat="49.13933" lon="7.08929">
        <ele>225.5</ele>
        <time>2021-11-14T10:14:52Z</time>
      </trkpt>
      <trkpt lat="49.13925" lon="7.08938">
        <ele>225.6</ele>
        <time>2021-11-14T10:15:01Z</time>
      </trkpt>
      <trkpt lat="49.13917" lon="7.08945">
        <ele>225.6</ele>
        <time>2021-11-14T10:15:08Z</time>
      </trkpt>
      <trkpt lat="49.13908" lon="7.08952">
        <ele>225.9</ele>
        <time>2021-11-14T10:15:16Z</time>
      </trkpt>
      <trkpt lat="49.13899" lon="7.08959">
        <ele>226.3</ele>
        <time>2021-11-14T10:15:24Z</time>
      </trkpt>
      <trkpt lat="49.13891" lon="7.08967">
        <ele>226.7</ele>
        <time>2021-11-14T10:15:32Z</time>
      </trkpt>
      <trkpt lat="49.13884" lon="7.08975">
        <ele>228.1</ele>
        <time>2021-11-14T10:15:42Z</time>
      </trkpt>
      <trkpt lat="49.13876" lon="7.08967">
        <ele>227.5</ele>
        <time>2021-11-14T10:15:51Z</time>
      </trkpt>
      <trkpt lat="49.13867" lon="7.08965">
        <ele>227.1</ele>
        <time>2021-11-14T10:16:02Z</time>
      </trkpt>
      <trkpt lat="49.13858" lon="7.08964">
        <ele>226.9</ele>
        <time>2021-11-14T10:16:12Z</time>
      </trkpt>
      <trkpt lat="49.13848" lon="7.08961">
        <ele>226.9</ele>
        <time>2021-11-14T10:16:22Z</time>
      </trkpt>
      <trkpt lat="49.13839" lon="7.0896">
        <ele>226.8</ele>
        <time>2021-11-14T10:16:30Z</time>
      </trkpt>
      <trkpt lat="49.13834" lon="7.08974">
        <ele>226.8</ele>
        <time>2021-11-14T10:16:39Z</time>
      </trkpt>
      <trkpt lat="49.13829" lon="7.08986">
        <ele>226.7</ele>
        <time>2021-11-14T10:16:48Z</time>
      </trkpt>
      <trkpt lat="49.13821" lon="7.08978">
        <ele>226.6</ele>
        <time>2021-11-14T10:17:00Z</time>
      </trkpt>
      <trkpt lat="49.13811" lon="7.08974">
        <ele>226.3</ele>
        <time>2021-11-14T10:17:09Z</time>
      </trkpt>
      <trkpt lat="49.13803" lon="7.0897">
        <ele>225.9</ele>
        <time>2021-11-14T10:17:16Z</time>
      </trkpt>
      <trkpt lat="49.13794" lon="7.08964">
        <ele>225.2</ele>
        <time>2021-11-14T10:17:24Z</time>
      </trkpt>
      <trkpt lat="49.13786" lon="7.08959">
        <ele>224.5</ele>
        <time>2021-11-14T10:17:31Z</time>
      </trkpt>
      <trkpt lat="49.13777" lon="7.08956">
        <ele>223.7</ele>
        <time>2021-11-14T10:17:43Z</time>
      </trkpt>
      <trkpt lat="49.13766" lon="7.08955">
        <ele>222.9</ele>
        <time>2021-11-14T10:17:55Z</time>
      </trkpt>
      <trkpt lat="49.13757" lon="7.08953">
        <ele>222.2</ele>
        <time>2021-11-14T10:18:02Z</time>
      </trkpt>
      <trkpt lat="49.13748" lon="7.08953">
        <ele>221.5</ele>
        <time>2021-11-14T10:18:09Z</time>
      </trkpt>
      <trkpt lat="49.13738" lon="7.08956">
        <ele>220.8</ele>
        <time>2021-11-14T10:18:20Z</time>
      </trkpt>
      <trkpt lat="49.13729" lon="7.08957">
        <ele>220</ele>
        <time>2021-11-14T10:18:29Z</time>
      </trkpt>
      <trkpt lat="49.1372" lon="7.08955">
        <ele>219</ele>
        <time>2021-11-14T10:18:38Z</time>
      </trkpt>
      <trkpt lat="49.1371" lon="7.08952">
        <ele>218</ele>
        <time>2021-11-14T10:18:45Z</time>
      </trkpt>
      <trkpt lat="49.13701" lon="7.08952">
        <ele>216.9</ele>
        <time>2021-11-14T10:18:56Z</time>
      </trkpt>
      <trkpt lat="49.13692" lon="7.08957">
        <ele>215.8</ele>
        <time>2021-11-14T10:19:07Z</time>
      </trkpt>
      <trkpt lat="49.13681" lon="7.08954">
        <ele>214.5</ele>
        <time>2021-11-14T10:19:19Z</time>
      </trkpt>
      <trkpt lat="49.13672" lon="7.08949">
        <ele>213.4</ele>
        <time>2021-11-14T10:19:26Z</time>
      </trkpt>
      <trkpt lat="49.13662" lon="7.0895">
        <ele>212.4</ele>
        <time>2021-11-14T10:19:35Z</time>
      </trkpt>
      <trkpt lat="49.13653" lon="7.08949">
        <ele>211.5</ele>
        <time>2021-11-14T10:19:43Z</time>
      </trkpt>
      <trkpt lat="49.13644" lon="7.08954">
        <ele>210.7</ele>
        <time>2021-11-14T10:19:49Z</time>
      </trkpt>
      <trkpt lat="49.13634" lon="7.08955">
        <ele>210.1</ele>
        <time>2021-11-14T10:19:59Z</time>
      </trkpt>
      <trkpt lat="49.13625" lon="7.0896">
        <ele>209.6</ele>
        <time>2021-11-14T10:20:08Z</time>
      </trkpt>
      <trkpt lat="49.13616" lon="7.08965">
        <ele>209.1</ele>
        <time>2021-11-14T10:20:15Z</time>
      </trkpt>
      <trkpt lat="49.13606" lon="7.08965">
        <ele>208.2</ele>
        <time>2021-11-14T10:20:26Z</time>
      </trkpt>
      <trkpt lat="49.13597" lon="7.0897">
        <ele>207</ele>
        <time>2021-11-14T10:20:30Z</time>
      </trkpt>
      <trkpt lat="49.13589" lon="7.08964">
        <ele>205.5</ele>
        <time>2021-11-14T10:20:39Z</time>
      </trkpt>
      <trkpt lat="49.13583" lon="7.08952">
        <ele>203.8</ele>
        <time>2021-11-14T10:20:48Z</time>
      </trkpt>
      <trkpt lat="49.13582" lon="7.08938">
        <ele>202.5</ele>
        <time>2021-11-14T10:20:55Z</time>
      </trkpt>
      <trkpt lat="49.13576" lon="7.08927">
        <ele>201.6</ele>
        <time>2021-11-14T10:21:02Z</time>
      </trkpt>
      <trkpt lat="49.13576" lon="7.08927">
        <ele>201.6</ele>
        <time>2021-11-14T10:21:04Z</time>
      </trkpt>
      <trkpt lat="49.13576" lon="7.08928">
        <ele>201.5</ele>
        <time>2021-11-14T10:21:05Z</time>
      </trkpt>
      <trkpt lat="49.13579" lon="7.08927">
        <ele>201.3</ele>
        <time>2021-11-14T10:21:09Z</time>
      </trkpt>
      <trkpt lat="49.13578" lon="7.08927">
        <ele>201.3</ele>
        <time>2021-11-14T10:21:10Z</time>
      </trkpt>
      <trkpt lat="49.13572" lon="7.08915">
        <ele>200.5</ele>
        <time>2021-11-14T10:21:17Z</time>
      </trkpt>
      <trkpt lat="49.13567" lon="7.08902">
        <ele>199.7</ele>
        <time>2021-11-14T10:21:24Z</time>
      </trkpt>
      <trkpt lat="49.13562" lon="7.0889">
        <ele>199.1</ele>
        <time>2021-11-14T10:21:31Z</time>
      </trkpt>
      <trkpt lat="49.13557" lon="7.08878">
        <ele>198.6</ele>
        <time>2021-11-14T10:21:38Z</time>
      </trkpt>
      <trkpt lat="49.13552" lon="7.08865">
        <ele>198.1</ele>
        <time>2021-11-14T10:21:47Z</time>
      </trkpt>
      <trkpt lat="49.13546" lon="7.08853">
        <ele>197.8</ele>
        <time>2021-11-14T10:21:55Z</time>
      </trkpt>
      <trkpt lat="49.13541" lon="7.08841">
        <ele>197.4</ele>
        <time>2021-11-14T10:22:02Z</time>
      </trkpt>
      <trkpt lat="49.13532" lon="7.08844">
        <ele>197.6</ele>
        <time>2021-11-14T10:22:12Z</time>
      </trkpt>
      <trkpt lat="49.1353" lon="7.08848">
        <ele>197.6</ele>
        <time>2021-11-14T10:22:17Z</time>
      </trkpt>
      <trkpt lat="49.13529" lon="7.08849">
        <ele>197.6</ele>
        <time>2021-11-14T10:22:18Z</time>
      </trkpt>
      <trkpt lat="49.13522" lon="7.08857">
        <ele>197.6</ele>
        <time>2021-11-14T10:22:24Z</time>
      </trkpt>
      <trkpt lat="49.13514" lon="7.08866">
        <ele>197.6</ele>
        <time>2021-11-14T10:22:31Z</time>
      </trkpt>
      <trkpt lat="49.13508" lon="7.08877">
        <ele>197.6</ele>
        <time>2021-11-14T10:22:39Z</time>
      </trkpt>
      <trkpt lat="49.13499" lon="7.08884">
        <ele>197.6</ele>
        <time>2021-11-14T10:22:46Z</time>
      </trkpt>
      <trkpt lat="49.13491" lon="7.08891">
        <ele>197.5</ele>
        <time>2021-11-14T10:22:52Z</time>
      </trkpt>
      <trkpt lat="49.13482" lon="7.08897">
        <ele>197.5</ele>
        <time>2021-11-14T10:22:58Z</time>
      </trkpt>
      <trkpt lat="49.13473" lon="7.08903">
        <ele>197.5</ele>
        <time>2021-11-14T10:23:05Z</time>
      </trkpt>
      <trkpt lat="49.13465" lon="7.08912">
        <ele>197.4</ele>
        <time>2021-11-14T10:23:12Z</time>
      </trkpt>
      <trkpt lat="49.13457" lon="7.0892">
        <ele>197.4</ele>
        <time>2021-11-14T10:23:19Z</time>
      </trkpt>
      <trkpt lat="49.1345" lon="7.08928">
        <ele>197.4</ele>
        <time>2021-11-14T10:23:27Z</time>
      </trkpt>
      <trkpt lat="49.13442" lon="7.08933">
        <ele>197.3</ele>
        <time>2021-11-14T10:23:34Z</time>
      </trkpt>
      <trkpt lat="49.13433" lon="7.0894">
        <ele>197.3</ele>
        <time>2021-11-14T10:23:41Z</time>
      </trkpt>
      <trkpt lat="49.13425" lon="7.08947">
        <ele>197.3</ele>
        <time>2021-11-14T10:23:48Z</time>
      </trkpt>
      <trkpt lat="49.13417" lon="7.08955">
        <ele>197.3</ele>
        <time>2021-11-14T10:23:55Z</time>
      </trkpt>
      <trkpt lat="49.13408" lon="7.08962">
        <ele>197.3</ele>
        <time>2021-11-14T10:24:02Z</time>
      </trkpt>
      <trkpt lat="49.134" lon="7.0897">
        <ele>197.3</ele>
        <time>2021-11-14T10:24:10Z</time>
      </trkpt>
      <trkpt lat="49.13392" lon="7.08977">
        <ele>197.3</ele>
        <time>2021-11-14T10:24:16Z</time>
      </trkpt>
      <trkpt lat="49.13384" lon="7.08986">
        <ele>197.3</ele>
        <time>2021-11-14T10:24:23Z</time>
      </trkpt>
      <trkpt lat="49.13374" lon="7.08992">
        <ele>197.3</ele>
        <time>2021-11-14T10:24:30Z</time>
      </trkpt>
      <trkpt lat="49.13366" lon="7.08999">
        <ele>197.3</ele>
        <time>2021-11-14T10:24:38Z</time>
      </trkpt>
      <trkpt lat="49.13358" lon="7.09005">
        <ele>197.3</ele>
        <time>2021-11-14T10:24:45Z</time>
      </trkpt>
      <trkpt lat="49.1335" lon="7.09011">
        <ele>197.3</ele>
        <time>2021-11-14T10:24:52Z</time>
      </trkpt>
      <trkpt lat="49.13341" lon="7.09016">
        <ele>197.4</ele>
        <time>2021-11-14T10:24:59Z</time>
      </trkpt>
      <trkpt lat="49.13333" lon="7.09025">
        <ele>197.4</ele>
        <time>2021-11-14T10:25:06Z</time>
      </trkpt>
      <trkpt lat="49.13324" lon="7.09031">
        <ele>197.5</ele>
        <time>2021-11-14T10:25:13Z</time>
      </trkpt>
      <trkpt lat="49.13316" lon="7.09036">
        <ele>197.6</ele>
        <time>2021-11-14T10:25:20Z</time>
      </trkpt>
      <trkpt lat="49.13308" lon="7.09044">
        <ele>197.7</ele>
        <time>2021-11-14T10:25:27Z</time>
      </trkpt>
      <trkpt lat="49.133" lon="7.09053">
        <ele>198</ele>
        <time>2021-11-14T10:25:35Z</time>
      </trkpt>
      <trkpt lat="49.13292" lon="7.09061">
        <ele>198.3</ele>
        <time>2021-11-14T10:25:42Z</time>
      </trkpt>
      <trkpt lat="49.13283" lon="7.09068">
        <ele>198.7</ele>
        <time>2021-11-14T10:25:50Z</time>
      </trkpt>
      <trkpt lat="49.13275" lon="7.09076">
        <ele>199.2</ele>
        <time>2021-11-14T10:25:58Z</time>
      </trkpt>
      <trkpt lat="49.13267" lon="7.09083">
        <ele>199.7</ele>
        <time>2021-11-14T10:26:06Z</time>
      </trkpt>
      <trkpt lat="49.13259" lon="7.09092">
        <ele>200.3</ele>
        <time>2021-11-14T10:26:15Z</time>
      </trkpt>
      <trkpt lat="49.13251" lon="7.09098">
        <ele>200.9</ele>
        <time>2021-11-14T10:26:23Z</time>
      </trkpt>
      <trkpt lat="49.13242" lon="7.09106">
        <ele>201.6</ele>
        <time>2021-11-14T10:26:30Z</time>
      </trkpt>
      <trkpt lat="49.13233" lon="7.09112">
        <ele>202.1</ele>
        <time>2021-11-14T10:26:37Z</time>
      </trkpt>
      <trkpt lat="49.13223" lon="7.09115">
        <ele>202.6</ele>
        <time>2021-11-14T10:26:46Z</time>
      </trkpt>
      <trkpt lat="49.1322" lon="7.09119">
        <ele>205.9</ele>
        <time>2021-11-14T10:26:54Z</time>
      </trkpt>
      <trkpt lat="49.1322" lon="7.0912">
        <ele>206.1</ele>
        <time>2021-11-14T10:26:58Z</time>
      </trkpt>
      <trkpt lat="49.13219" lon="7.09135">
        <ele>209.5</ele>
        <time>2021-11-14T10:27:17Z</time>
      </trkpt>
      <trkpt lat="49.13217" lon="7.09138">
        <ele>210.3</ele>
        <time>2021-11-14T10:27:21Z</time>
      </trkpt>
      <trkpt lat="49.13217" lon="7.09139">
        <ele>210.6</ele>
        <time>2021-11-14T10:27:22Z</time>
      </trkpt>
      <trkpt lat="49.13217" lon="7.09153">
        <ele>213.5</ele>
        <time>2021-11-14T10:27:34Z</time>
      </trkpt>
      <trkpt lat="49.13215" lon="7.09168">
        <ele>216.5</ele>
        <time>2021-11-14T10:27:49Z</time>
      </trkpt>
      <trkpt lat="49.1321" lon="7.0918">
        <ele>219.3</ele>
        <time>2021-11-14T10:28:09Z</time>
      </trkpt>
      <trkpt lat="49.13204" lon="7.0919">
        <ele>221.8</ele>
        <time>2021-11-14T10:28:26Z</time>
      </trkpt>
      <trkpt lat="49.132" lon="7.09204">
        <ele>224.3</ele>
        <time>2021-11-14T10:28:38Z</time>
      </trkpt>
      <trkpt lat="49.132" lon="7.09205">
        <ele>224.5</ele>
        <time>2021-11-14T10:28:41Z</time>
      </trkpt>
      <trkpt lat="49.13201" lon="7.09206">
        <ele>224.7</ele>
        <time>2021-11-14T10:28:42Z</time>
      </trkpt>
      <trkpt lat="49.13201" lon="7.09206">
        <ele>224.8</ele>
        <time>2021-11-14T10:28:44Z</time>
      </trkpt>
      <trkpt lat="49.13201" lon="7.09206">
        <ele>224.9</ele>
        <time>2021-11-14T10:28:46Z</time>
      </trkpt>
      <trkpt lat="49.13201" lon="7.09207">
        <ele>224.9</ele>
        <time>2021-11-14T10:28:47Z</time>
      </trkpt>
      <trkpt lat="49.13201" lon="7.09207">
        <ele>225.1</ele>
        <time>2021-11-14T10:28:48Z</time>
      </trkpt>
      <trkpt lat="49.13201" lon="7.09221">
        <ele>226.5</ele>
        <time>2021-11-14T10:29:00Z</time>
      </trkpt>
      <trkpt lat="49.13199" lon="7.09236">
        <ele>227.7</ele>
        <time>2021-11-14T10:29:11Z</time>
      </trkpt>
      <trkpt lat="49.13193" lon="7.09247">
        <ele>229</ele>
        <time>2021-11-14T10:29:19Z</time>
      </trkpt>
      <trkpt lat="49.13187" lon="7.09259">
        <ele>230.1</ele>
        <time>2021-11-14T10:29:30Z</time>
      </trkpt>
      <trkpt lat="49.13189" lon="7.09273">
        <ele>231</ele>
        <time>2021-11-14T10:29:44Z</time>
      </trkpt>
      <trkpt lat="49.13189" lon="7.09288">
        <ele>231.7</ele>
        <time>2021-11-14T10:29:53Z</time>
      </trkpt>
      <trkpt lat="49.13187" lon="7.09302">
        <ele>232.4</ele>
        <time>2021-11-14T10:30:02Z</time>
      </trkpt>
      <trkpt lat="49.13186" lon="7.09316">
        <ele>233.2</ele>
        <time>2021-11-14T10:30:11Z</time>
      </trkpt>
      <trkpt lat="49.1318" lon="7.09329">
        <ele>233.8</ele>
        <time>2021-11-14T10:30:22Z</time>
      </trkpt>
      <trkpt lat="49.13175" lon="7.09341">
        <ele>234.4</ele>
        <time>2021-11-14T10:30:32Z</time>
      </trkpt>
      <trkpt lat="49.1317" lon="7.09356">
        <ele>235.1</ele>
        <time>2021-11-14T10:30:41Z</time>
      </trkpt>
      <trkpt lat="49.13164" lon="7.09368">
        <ele>235.7</ele>
        <time>2021-11-14T10:30:50Z</time>
      </trkpt>
      <trkpt lat="49.13158" lon="7.09377">
        <ele>236.2</ele>
        <time>2021-11-14T10:30:56Z</time>
      </trkpt>
      <trkpt lat="49.13151" lon="7.09389">
        <ele>237.1</ele>
        <time>2021-11-14T10:31:03Z</time>
      </trkpt>
      <trkpt lat="49.13143" lon="7.09398">
        <ele>238.3</ele>
        <time>2021-11-14T10:31:12Z</time>
      </trkpt>
      <trkpt lat="49.13138" lon="7.09409">
        <ele>239.3</ele>
        <time>2021-11-14T10:31:20Z</time>
      </trkpt>
      <trkpt lat="49.13131" lon="7.09419">
        <ele>240.3</ele>
        <time>2021-11-14T10:31:29Z</time>
      </trkpt>
      <trkpt lat="49.13123" lon="7.09428">
        <ele>241.2</ele>
        <time>2021-11-14T10:31:38Z</time>
      </trkpt>
      <trkpt lat="49.13116" lon="7.09438">
        <ele>241.8</ele>
        <time>2021-11-14T10:31:45Z</time>
      </trkpt>
      <trkpt lat="49.1311" lon="7.09449">
        <ele>242.5</ele>
        <time>2021-11-14T10:31:52Z</time>
      </trkpt>
      <trkpt lat="49.13103" lon="7.0946">
        <ele>243.1</ele>
        <time>2021-11-14T10:31:59Z</time>
      </trkpt>
      <trkpt lat="49.13096" lon="7.0947">
        <ele>243.8</ele>
        <time>2021-11-14T10:32:06Z</time>
      </trkpt>
      <trkpt lat="49.13088" lon="7.0948">
        <ele>244.5</ele>
        <time>2021-11-14T10:32:14Z</time>
      </trkpt>
      <trkpt lat="49.13081" lon="7.09491">
        <ele>245.3</ele>
        <time>2021-11-14T10:32:22Z</time>
      </trkpt>
      <trkpt lat="49.13074" lon="7.09501">
        <ele>246.1</ele>
        <time>2021-11-14T10:32:30Z</time>
      </trkpt>
      <trkpt lat="49.13067" lon="7.09511">
        <ele>246.9</ele>
        <time>2021-11-14T10:32:38Z</time>
      </trkpt>
      <trkpt lat="49.13059" lon="7.09522">
        <ele>247.6</ele>
        <time>2021-11-14T10:32:45Z</time>
      </trkpt>
      <trkpt lat="49.13051" lon="7.0953">
        <ele>248.4</ele>
        <time>2021-11-14T10:32:53Z</time>
      </trkpt>
      <trkpt lat="49.13043" lon="7.09522">
        <ele>248.5</ele>
        <time>2021-11-14T10:33:00Z</time>
      </trkpt>
      <trkpt lat="49.13038" lon="7.09509">
        <ele>248.5</ele>
        <time>2021-11-14T10:33:07Z</time>
      </trkpt>
      <trkpt lat="49.13033" lon="7.09497">
        <ele>248.6</ele>
        <time>2021-11-14T10:33:15Z</time>
      </trkpt>
      <trkpt lat="49.13028" lon="7.09486">
        <ele>248.7</ele>
        <time>2021-11-14T10:33:20Z</time>
      </trkpt>
      <trkpt lat="49.13022" lon="7.09474">
        <ele>248.9</ele>
        <time>2021-11-14T10:33:28Z</time>
      </trkpt>
      <trkpt lat="49.13017" lon="7.09461">
        <ele>249.1</ele>
        <time>2021-11-14T10:33:37Z</time>
      </trkpt>
      <trkpt lat="49.13012" lon="7.09449">
        <ele>249.2</ele>
        <time>2021-11-14T10:33:45Z</time>
      </trkpt>
      <trkpt lat="49.13005" lon="7.09437">
        <ele>249.4</ele>
        <time>2021-11-14T10:33:53Z</time>
      </trkpt>
      <trkpt lat="49.13" lon="7.09426">
        <ele>249.5</ele>
        <time>2021-11-14T10:34:00Z</time>
      </trkpt>
      <trkpt lat="49.12997" lon="7.09412">
        <ele>249.7</ele>
        <time>2021-11-14T10:34:07Z</time>
      </trkpt>
      <trkpt lat="49.12992" lon="7.09399">
        <ele>249.9</ele>
        <time>2021-11-14T10:34:16Z</time>
      </trkpt>
      <trkpt lat="49.12987" lon="7.09388">
        <ele>250</ele>
        <time>2021-11-14T10:34:23Z</time>
      </trkpt>
      <trkpt lat="49.1298" lon="7.09376">
        <ele>250.1</ele>
        <time>2021-11-14T10:34:31Z</time>
      </trkpt>
      <trkpt lat="49.12976" lon="7.09364">
        <ele>250.2</ele>
        <time>2021-11-14T10:34:38Z</time>
      </trkpt>
      <trkpt lat="49.12969" lon="7.09353">
        <ele>250.3</ele>
        <time>2021-11-14T10:34:45Z</time>
      </trkpt>
      <trkpt lat="49.12964" lon="7.09341">
        <ele>250.3</ele>
        <time>2021-11-14T10:34:52Z</time>
      </trkpt>
      <trkpt lat="49.12957" lon="7.09332">
        <ele>250.2</ele>
        <time>2021-11-14T10:35:00Z</time>
      </trkpt>
      <trkpt lat="49.12951" lon="7.0932">
        <ele>250.1</ele>
        <time>2021-11-14T10:35:08Z</time>
      </trkpt>
      <trkpt lat="49.12944" lon="7.09311">
        <ele>250</ele>
        <time>2021-11-14T10:35:15Z</time>
      </trkpt>
      <trkpt lat="49.12938" lon="7.09299">
        <ele>249.9</ele>
        <time>2021-11-14T10:35:22Z</time>
      </trkpt>
      <trkpt lat="49.12932" lon="7.09288">
        <ele>249.7</ele>
        <time>2021-11-14T10:35:30Z</time>
      </trkpt>
      <trkpt lat="49.12925" lon="7.09277">
        <ele>249.5</ele>
        <time>2021-11-14T10:35:38Z</time>
      </trkpt>
      <trkpt lat="49.12919" lon="7.09266">
        <ele>249.3</ele>
        <time>2021-11-14T10:35:46Z</time>
      </trkpt>
      <trkpt lat="49.12912" lon="7.09255">
        <ele>249.1</ele>
        <time>2021-11-14T10:35:53Z</time>
      </trkpt>
      <trkpt lat="49.12905" lon="7.09244">
        <ele>248.9</ele>
        <time>2021-11-14T10:36:01Z</time>
      </trkpt>
      <trkpt lat="49.12899" lon="7.09233">
        <ele>248.7</ele>
        <time>2021-11-14T10:36:08Z</time>
      </trkpt>
      <trkpt lat="49.12893" lon="7.09223">
        <ele>248.5</ele>
        <time>2021-11-14T10:36:15Z</time>
      </trkpt>
      <trkpt lat="49.12885" lon="7.09215">
        <ele>248.3</ele>
        <time>2021-11-14T10:36:22Z</time>
      </trkpt>
      <trkpt lat="49.12878" lon="7.09205">
        <ele>248.2</ele>
        <time>2021-11-14T10:36:29Z</time>
      </trkpt>
      <trkpt lat="49.12872" lon="7.09194">
        <ele>248</ele>
        <time>2021-11-14T10:36:36Z</time>
      </trkpt>
      <trkpt lat="49.12864" lon="7.09184">
        <ele>247.7</ele>
        <time>2021-11-14T10:36:45Z</time>
      </trkpt>
      <trkpt lat="49.12857" lon="7.09173">
        <ele>247.4</ele>
        <time>2021-11-14T10:36:54Z</time>
      </trkpt>
      <trkpt lat="49.1285" lon="7.09164">
        <ele>247.2</ele>
        <time>2021-11-14T10:37:01Z</time>
      </trkpt>
      <trkpt lat="49.12842" lon="7.09156">
        <ele>247</ele>
        <time>2021-11-14T10:37:08Z</time>
      </trkpt>
      <trkpt lat="49.12835" lon="7.09146">
        <ele>246.8</ele>
        <time>2021-11-14T10:37:16Z</time>
      </trkpt>
      <trkpt lat="49.12829" lon="7.09134">
        <ele>246.5</ele>
        <time>2021-11-14T10:37:23Z</time>
      </trkpt>
      <trkpt lat="49.12824" lon="7.09122">
        <ele>246.2</ele>
        <time>2021-11-14T10:37:31Z</time>
      </trkpt>
      <trkpt lat="49.12818" lon="7.09112">
        <ele>246</ele>
        <time>2021-11-14T10:37:38Z</time>
      </trkpt>
      <trkpt lat="49.1281" lon="7.09102">
        <ele>245.8</ele>
        <time>2021-11-14T10:37:47Z</time>
      </trkpt>
      <trkpt lat="49.12802" lon="7.09093">
        <ele>245.6</ele>
        <time>2021-11-14T10:37:53Z</time>
      </trkpt>
      <trkpt lat="49.12796" lon="7.09082">
        <ele>245.4</ele>
        <time>2021-11-14T10:38:00Z</time>
      </trkpt>
      <trkpt lat="49.12791" lon="7.0907">
        <ele>245.2</ele>
        <time>2021-11-14T10:38:07Z</time>
      </trkpt>
      <trkpt lat="49.12784" lon="7.09058">
        <ele>245</ele>
        <time>2021-11-14T10:38:15Z</time>
      </trkpt>
      <trkpt lat="49.12777" lon="7.09048">
        <ele>244.8</ele>
        <time>2021-11-14T10:38:23Z</time>
      </trkpt>
      <trkpt lat="49.12772" lon="7.09036">
        <ele>244.6</ele>
        <time>2021-11-14T10:38:29Z</time>
      </trkpt>
      <trkpt lat="49.12765" lon="7.09025">
        <ele>244.5</ele>
        <time>2021-11-14T10:38:36Z</time>
      </trkpt>
      <trkpt lat="49.12762" lon="7.09011">
        <ele>244.3</ele>
        <time>2021-11-14T10:38:42Z</time>
      </trkpt>
      <trkpt lat="49.12756" lon="7.09">
        <ele>244.2</ele>
        <time>2021-11-14T10:38:49Z</time>
      </trkpt>
      <trkpt lat="49.12747" lon="7.08997">
        <ele>244.1</ele>
        <time>2021-11-14T10:38:55Z</time>
      </trkpt>
      <trkpt lat="49.12739" lon="7.08989">
        <ele>244</ele>
        <time>2021-11-14T10:39:03Z</time>
      </trkpt>
      <trkpt lat="49.12732" lon="7.0898">
        <ele>243.8</ele>
        <time>2021-11-14T10:39:10Z</time>
      </trkpt>
      <trkpt lat="49.12725" lon="7.08969">
        <ele>243.5</ele>
        <time>2021-11-14T10:39:18Z</time>
      </trkpt>
      <trkpt lat="49.12717" lon="7.08959">
        <ele>243.3</ele>
        <time>2021-11-14T10:39:25Z</time>
      </trkpt>
      <trkpt lat="49.12711" lon="7.08948">
        <ele>243.1</ele>
        <time>2021-11-14T10:39:31Z</time>
      </trkpt>
      <trkpt lat="49.12703" lon="7.0894">
        <ele>242.9</ele>
        <time>2021-11-14T10:39:37Z</time>
      </trkpt>
      <trkpt lat="49.12695" lon="7.0893">
        <ele>242.6</ele>
        <time>2021-11-14T10:39:45Z</time>
      </trkpt>
      <trkpt lat="49.12687" lon="7.08923">
        <ele>242.3</ele>
        <time>2021-11-14T10:39:53Z</time>
      </trkpt>
      <trkpt lat="49.12679" lon="7.08913">
        <ele>242</ele>
        <time>2021-11-14T10:40:01Z</time>
      </trkpt>
      <trkpt lat="49.12673" lon="7.08903">
        <ele>241.8</ele>
        <time>2021-11-14T10:40:08Z</time>
      </trkpt>
      <trkpt lat="49.12665" lon="7.08894">
        <ele>241.5</ele>
        <time>2021-11-14T10:40:14Z</time>
      </trkpt>
      <trkpt lat="49.12657" lon="7.08885">
        <ele>241.3</ele>
        <time>2021-11-14T10:40:20Z</time>
      </trkpt>
      <trkpt lat="49.12649" lon="7.08879">
        <ele>241</ele>
        <time>2021-11-14T10:40:26Z</time>
      </trkpt>
      <trkpt lat="49.12642" lon="7.0887">
        <ele>240.8</ele>
        <time>2021-11-14T10:40:33Z</time>
      </trkpt>
      <trkpt lat="49.12634" lon="7.08862">
        <ele>240.5</ele>
        <time>2021-11-14T10:40:41Z</time>
      </trkpt>
      <trkpt lat="49.12625" lon="7.08855">
        <ele>240.2</ele>
        <time>2021-11-14T10:40:48Z</time>
      </trkpt>
      <trkpt lat="49.12617" lon="7.08848">
        <ele>240</ele>
        <time>2021-11-14T10:40:56Z</time>
      </trkpt>
      <trkpt lat="49.12609" lon="7.08838">
        <ele>239.8</ele>
        <time>2021-11-14T10:41:05Z</time>
      </trkpt>
      <trkpt lat="49.12601" lon="7.08829">
        <ele>239.5</ele>
        <time>2021-11-14T10:41:13Z</time>
      </trkpt>
      <trkpt lat="49.12593" lon="7.08824">
        <ele>239.3</ele>
        <time>2021-11-14T10:41:19Z</time>
      </trkpt>
      <trkpt lat="49.12584" lon="7.08816">
        <ele>239.1</ele>
        <time>2021-11-14T10:41:26Z</time>
      </trkpt>
      <trkpt lat="49.12576" lon="7.08811">
        <ele>238.9</ele>
        <time>2021-11-14T10:41:33Z</time>
      </trkpt>
      <trkpt lat="49.12568" lon="7.08802">
        <ele>238.7</ele>
        <time>2021-11-14T10:41:40Z</time>
      </trkpt>
      <trkpt lat="49.12561" lon="7.08793">
        <ele>238.5</ele>
        <time>2021-11-14T10:41:47Z</time>
      </trkpt>
      <trkpt lat="49.12551" lon="7.08788">
        <ele>238.2</ele>
        <time>2021-11-14T10:41:54Z</time>
      </trkpt>
      <trkpt lat="49.12543" lon="7.08781">
        <ele>238</ele>
        <time>2021-11-14T10:42:01Z</time>
      </trkpt>
      <trkpt lat="49.12535" lon="7.08774">
        <ele>237.8</ele>
        <time>2021-11-14T10:42:09Z</time>
      </trkpt>
      <trkpt lat="49.12526" lon="7.08768">
        <ele>237.5</ele>
        <time>2021-11-14T10:42:17Z</time>
      </trkpt>
      <trkpt lat="49.12518" lon="7.08758">
        <ele>237.3</ele>
        <time>2021-11-14T10:42:24Z</time>
      </trkpt>
      <trkpt lat="49.12509" lon="7.08751">
        <ele>237.1</ele>
        <time>2021-11-14T10:42:31Z</time>
      </trkpt>
      <trkpt lat="49.125" lon="7.08747">
        <ele>236.9</ele>
        <time>2021-11-14T10:42:38Z</time>
      </trkpt>
      <trkpt lat="49.12492" lon="7.08739">
        <ele>236.7</ele>
        <time>2021-11-14T10:42:44Z</time>
      </trkpt>
      <trkpt lat="49.12486" lon="7.08729">
        <ele>236.5</ele>
        <time>2021-11-14T10:42:51Z</time>
      </trkpt>
      <trkpt lat="49.12478" lon="7.0872">
        <ele>236.3</ele>
        <time>2021-11-14T10:42:59Z</time>
      </trkpt>
      <trkpt lat="49.1247" lon="7.0871">
        <ele>236.1</ele>
        <time>2021-11-14T10:43:06Z</time>
      </trkpt>
      <trkpt lat="49.12464" lon="7.08699">
        <ele>235.8</ele>
        <time>2021-11-14T10:43:12Z</time>
      </trkpt>
      <trkpt lat="49.12458" lon="7.08688">
        <ele>235.6</ele>
        <time>2021-11-14T10:43:18Z</time>
      </trkpt>
      <trkpt lat="49.12451" lon="7.08678">
        <ele>235.4</ele>
        <time>2021-11-14T10:43:25Z</time>
      </trkpt>
      <trkpt lat="49.12442" lon="7.08669">
        <ele>235.1</ele>
        <time>2021-11-14T10:43:32Z</time>
      </trkpt>
      <trkpt lat="49.12437" lon="7.08655">
        <ele>234.9</ele>
        <time>2021-11-14T10:43:40Z</time>
      </trkpt>
      <trkpt lat="49.1243" lon="7.08647">
        <ele>234.8</ele>
        <time>2021-11-14T10:43:47Z</time>
      </trkpt>
      <trkpt lat="49.12424" lon="7.08636">
        <ele>234.6</ele>
        <time>2021-11-14T10:43:53Z</time>
      </trkpt>
      <trkpt lat="49.12417" lon="7.08626">
        <ele>234.4</ele>
        <time>2021-11-14T10:43:59Z</time>
      </trkpt>
      <trkpt lat="49.1241" lon="7.08614">
        <ele>234.2</ele>
        <time>2021-11-14T10:44:06Z</time>
      </trkpt>
      <trkpt lat="49.12405" lon="7.08602">
        <ele>233.9</ele>
        <time>2021-11-14T10:44:14Z</time>
      </trkpt>
      <trkpt lat="49.12397" lon="7.08591">
        <ele>233.8</ele>
        <time>2021-11-14T10:44:21Z</time>
      </trkpt>
      <trkpt lat="49.12391" lon="7.08581">
        <ele>233.6</ele>
        <time>2021-11-14T10:44:28Z</time>
      </trkpt>
      <trkpt lat="49.12384" lon="7.08569">
        <ele>233.4</ele>
        <time>2021-11-14T10:44:36Z</time>
      </trkpt>
      <trkpt lat="49.12379" lon="7.08557">
        <ele>233.2</ele>
        <time>2021-11-14T10:44:43Z</time>
      </trkpt>
      <trkpt lat="49.12372" lon="7.08546">
        <ele>233</ele>
        <time>2021-11-14T10:44:50Z</time>
      </trkpt>
      <trkpt lat="49.12367" lon="7.08535">
        <ele>232.8</ele>
        <time>2021-11-14T10:44:56Z</time>
      </trkpt>
      <trkpt lat="49.1236" lon="7.08524">
        <ele>232.6</ele>
        <time>2021-11-14T10:45:04Z</time>
      </trkpt>
      <trkpt lat="49.12354" lon="7.08514">
        <ele>232.4</ele>
        <time>2021-11-14T10:45:11Z</time>
      </trkpt>
      <trkpt lat="49.12347" lon="7.08504">
        <ele>232.2</ele>
        <time>2021-11-14T10:45:18Z</time>
      </trkpt>
      <trkpt lat="49.12341" lon="7.08494">
        <ele>232</ele>
        <time>2021-11-14T10:45:25Z</time>
      </trkpt>
      <trkpt lat="49.12334" lon="7.08484">
        <ele>231.7</ele>
        <time>2021-11-14T10:45:34Z</time>
      </trkpt>
      <trkpt lat="49.12325" lon="7.08477">
        <ele>231.5</ele>
        <time>2021-11-14T10:45:41Z</time>
      </trkpt>
      <trkpt lat="49.12316" lon="7.08472">
        <ele>231.3</ele>
        <time>2021-11-14T10:45:48Z</time>
      </trkpt>
      <trkpt lat="49.12309" lon="7.08462">
        <ele>231.1</ele>
        <time>2021-11-14T10:45:57Z</time>
      </trkpt>
      <trkpt lat="49.12302" lon="7.08453">
        <ele>231</ele>
        <time>2021-11-14T10:46:03Z</time>
      </trkpt>
      <trkpt lat="49.12297" lon="7.08441">
        <ele>230.9</ele>
        <time>2021-11-14T10:46:12Z</time>
      </trkpt>
      <trkpt lat="49.1229" lon="7.0843">
        <ele>230.8</ele>
        <time>2021-11-14T10:46:19Z</time>
      </trkpt>
      <trkpt lat="49.12281" lon="7.08422">
        <ele>230.8</ele>
        <time>2021-11-14T10:46:26Z</time>
      </trkpt>
      <trkpt lat="49.12273" lon="7.08429">
        <ele>230.5</ele>
        <time>2021-11-14T10:46:33Z</time>
      </trkpt>
      <trkpt lat="49.12266" lon="7.0844">
        <ele>230.3</ele>
        <time>2021-11-14T10:46:40Z</time>
      </trkpt>
      <trkpt lat="49.12258" lon="7.08448">
        <ele>230</ele>
        <time>2021-11-14T10:46:47Z</time>
      </trkpt>
      <trkpt lat="49.12251" lon="7.08461">
        <ele>229.7</ele>
        <time>2021-11-14T10:46:55Z</time>
      </trkpt>
      <trkpt lat="49.12245" lon="7.08473">
        <ele>229.5</ele>
        <time>2021-11-14T10:47:02Z</time>
      </trkpt>
      <trkpt lat="49.12238" lon="7.08482">
        <ele>229.2</ele>
        <time>2021-11-14T10:47:10Z</time>
      </trkpt>
      <trkpt lat="49.12231" lon="7.08492">
        <ele>228.9</ele>
        <time>2021-11-14T10:47:15Z</time>
      </trkpt>
      <trkpt lat="49.12224" lon="7.08502">
        <ele>228.6</ele>
        <time>2021-11-14T10:47:22Z</time>
      </trkpt>
      <trkpt lat="49.12215" lon="7.08511">
        <ele>228.3</ele>
        <time>2021-11-14T10:47:29Z</time>
      </trkpt>
      <trkpt lat="49.12208" lon="7.08521">
        <ele>228</ele>
        <time>2021-11-14T10:47:37Z</time>
      </trkpt>
      <trkpt lat="49.12201" lon="7.0853">
        <ele>227.7</ele>
        <time>2021-11-14T10:47:43Z</time>
      </trkpt>
      <trkpt lat="49.12194" lon="7.0854">
        <ele>227.5</ele>
        <time>2021-11-14T10:47:49Z</time>
      </trkpt>
      <trkpt lat="49.12188" lon="7.0855">
        <ele>227.2</ele>
        <time>2021-11-14T10:47:58Z</time>
      </trkpt>
      <trkpt lat="49.12181" lon="7.08561">
        <ele>227</ele>
        <time>2021-11-14T10:48:06Z</time>
      </trkpt>
      <trkpt lat="49.12174" lon="7.0857">
        <ele>226.8</ele>
        <time>2021-11-14T10:48:13Z</time>
      </trkpt>
      <trkpt lat="49.12167" lon="7.08581">
        <ele>226.6</ele>
        <time>2021-11-14T10:48:19Z</time>
      </trkpt>
      <trkpt lat="49.12161" lon="7.08592">
        <ele>226.4</ele>
        <time>2021-11-14T10:48:26Z</time>
      </trkpt>
      <trkpt lat="49.12154" lon="7.08604">
        <ele>226.2</ele>
        <time>2021-11-14T10:48:33Z</time>
      </trkpt>
      <trkpt lat="49.12147" lon="7.08612">
        <ele>226.1</ele>
        <time>2021-11-14T10:48:40Z</time>
      </trkpt>
      <trkpt lat="49.12142" lon="7.08625">
        <ele>226</ele>
        <time>2021-11-14T10:48:48Z</time>
      </trkpt>
      <trkpt lat="49.12134" lon="7.08633">
        <ele>225.8</ele>
        <time>2021-11-14T10:49:00Z</time>
      </trkpt>
      <trkpt lat="49.12128" lon="7.08645">
        <ele>225.7</ele>
        <time>2021-11-14T10:49:09Z</time>
      </trkpt>
      <trkpt lat="49.12121" lon="7.08657">
        <ele>225.6</ele>
        <time>2021-11-14T10:49:17Z</time>
      </trkpt>
      <trkpt lat="49.12116" lon="7.08669">
        <ele>225.5</ele>
        <time>2021-11-14T10:49:23Z</time>
      </trkpt>
      <trkpt lat="49.12112" lon="7.08681">
        <ele>225.4</ele>
        <time>2021-11-14T10:49:30Z</time>
      </trkpt>
      <trkpt lat="49.12115" lon="7.08695">
        <ele>225.6</ele>
        <time>2021-11-14T10:49:37Z</time>
      </trkpt>
      <trkpt lat="49.12123" lon="7.08706">
        <ele>225.8</ele>
        <time>2021-11-14T10:49:44Z</time>
      </trkpt>
      <trkpt lat="49.1213" lon="7.08716">
        <ele>226</ele>
        <time>2021-11-14T10:49:53Z</time>
      </trkpt>
      <trkpt lat="49.12134" lon="7.0873">
        <ele>226.1</ele>
        <time>2021-11-14T10:50:04Z</time>
      </trkpt>
      <trkpt lat="49.1214" lon="7.08743">
        <ele>226.3</ele>
        <time>2021-11-14T10:50:10Z</time>
      </trkpt>
      <trkpt lat="49.12143" lon="7.08758">
        <ele>226.5</ele>
        <time>2021-11-14T10:50:17Z</time>
      </trkpt>
      <trkpt lat="49.12149" lon="7.08771">
        <ele>226.7</ele>
        <time>2021-11-14T10:50:23Z</time>
      </trkpt>
      <trkpt lat="49.12155" lon="7.08784">
        <ele>226.8</ele>
        <time>2021-11-14T10:50:30Z</time>
      </trkpt>
      <trkpt lat="49.12161" lon="7.08794">
        <ele>227</ele>
        <time>2021-11-14T10:50:36Z</time>
      </trkpt>
      <trkpt lat="49.12164" lon="7.08807">
        <ele>227.1</ele>
        <time>2021-11-14T10:50:44Z</time>
      </trkpt>
      <trkpt lat="49.12164" lon="7.08807">
        <ele>227.1</ele>
        <time>2021-11-14T10:50:52Z</time>
      </trkpt>
      <trkpt lat="49.12164" lon="7.08807">
        <ele>227.1</ele>
        <time>2021-11-14T10:51:03Z</time>
      </trkpt>
      <trkpt lat="49.12164" lon="7.08807">
        <ele>227.1</ele>
        <time>2021-11-14T10:51:09Z</time>
      </trkpt>
      <trkpt lat="49.12164" lon="7.08807">
        <ele>227.1</ele>
        <time>2021-11-14T10:51:18Z</time>
      </trkpt>
      <trkpt lat="49.12164" lon="7.08808">
        <ele>227.1</ele>
        <time>2021-11-14T10:51:21Z</time>
      </trkpt>
      <trkpt lat="49.12164" lon="7.08808">
        <ele>227.1</ele>
        <time>2021-11-14T10:51:32Z</time>
      </trkpt>
      <trkpt lat="49.12164" lon="7.08808">
        <ele>227.1</ele>
        <time>2021-11-14T10:51:33Z</time>
      </trkpt>
      <trkpt lat="49.12164" lon="7.08808">
        <ele>227.1</ele>
        <time>2021-11-14T10:51:49Z</time>
      </trkpt>
      <trkpt lat="49.12164" lon="7.08808">
        <ele>227.1</ele>
        <time>2021-11-14T10:51:50Z</time>
      </trkpt>
      <trkpt lat="49.12164" lon="7.08808">
        <ele>227.1</ele>
        <time>2021-11-14T10:52:10Z</time>
      </trkpt>
      <trkpt lat="49.12164" lon="7.08808">
        <ele>227.1</ele>
        <time>2021-11-14T10:52:11Z</time>
      </trkpt>
      <trkpt lat="49.12164" lon="7.08808">
        <ele>227.1</ele>
        <time>2021-11-14T10:52:13Z</time>
      </trkpt>
      <trkpt lat="49.12164" lon="7.08808">
        <ele>227.1</ele>
        <time>2021-11-14T10:52:14Z</time>
      </trkpt>
      <trkpt lat="49.12164" lon="7.08808">
        <ele>227.1</ele>
        <time>2021-11-14T10:52:30Z</time>
      </trkpt>
      <trkpt lat="49.12164" lon="7.08808">
        <ele>227.1</ele>
        <time>2021-11-14T10:52:31Z</time>
      </trkpt>
      <trkpt lat="49.12164" lon="7.08808">
        <ele>227.1</ele>
        <time>2021-11-14T10:52:32Z</time>
      </trkpt>
      <trkpt lat="49.12164" lon="7.08809">
        <ele>227.1</ele>
        <time>2021-11-14T10:52:33Z</time>
      </trkpt>
      <trkpt lat="49.12164" lon="7.08809">
        <ele>227.1</ele>
        <time>2021-11-14T10:53:12Z</time>
      </trkpt>
      <trkpt lat="49.12164" lon="7.08809">
        <ele>227.1</ele>
        <time>2021-11-14T10:53:16Z</time>
      </trkpt>
      <trkpt lat="49.12164" lon="7.08809">
        <ele>227.1</ele>
        <time>2021-11-14T10:53:17Z</time>
      </trkpt>
      <trkpt lat="49.12164" lon="7.08809">
        <ele>227.1</ele>
        <time>2021-11-14T10:53:21Z</time>
      </trkpt>
      <trkpt lat="49.12164" lon="7.08809">
        <ele>227.1</ele>
        <time>2021-11-14T10:53:22Z</time>
      </trkpt>
      <trkpt lat="49.12164" lon="7.08809">
        <ele>227.1</ele>
        <time>2021-11-14T10:53:27Z</time>
      </trkpt>
      <trkpt lat="49.12164" lon="7.08809">
        <ele>227.1</ele>
        <time>2021-11-14T10:53:33Z</time>
      </trkpt>
      <trkpt lat="49.12164" lon="7.08809">
        <ele>227.1</ele>
        <time>2021-11-14T10:53:35Z</time>
      </trkpt>
      <trkpt lat="49.12164" lon="7.08809">
        <ele>227.1</ele>
        <time>2021-11-14T10:53:36Z</time>
      </trkpt>
      <trkpt lat="49.12164" lon="7.08809">
        <ele>227.1</ele>
        <time>2021-11-14T10:53:39Z</time>
      </trkpt>
      <trkpt lat="49.12164" lon="7.08809">
        <ele>227.1</ele>
        <time>2021-11-14T10:53:40Z</time>
      </trkpt>
      <trkpt lat="49.12164" lon="7.0881">
        <ele>227.1</ele>
        <time>2021-11-14T10:53:45Z</time>
      </trkpt>
      <trkpt lat="49.12164" lon="7.0881">
        <ele>227.1</ele>
        <time>2021-11-14T10:54:04Z</time>
      </trkpt>
      <trkpt lat="49.12164" lon="7.0881">
        <ele>227.1</ele>
        <time>2021-11-14T10:54:07Z</time>
      </trkpt>
      <trkpt lat="49.12164" lon="7.0881">
        <ele>227.1</ele>
        <time>2021-11-14T10:54:13Z</time>
      </trkpt>
      <trkpt lat="49.12164" lon="7.0881">
        <ele>227.1</ele>
        <time>2021-11-14T10:54:14Z</time>
      </trkpt>
      <trkpt lat="49.12164" lon="7.0881">
        <ele>227.1</ele>
        <time>2021-11-14T10:54:15Z</time>
      </trkpt>
      <trkpt lat="49.12164" lon="7.0881">
        <ele>227.1</ele>
        <time>2021-11-14T10:54:18Z</time>
      </trkpt>
      <trkpt lat="49.12164" lon="7.0881">
        <ele>227.1</ele>
        <time>2021-11-14T10:54:19Z</time>
      </trkpt>
      <trkpt lat="49.12164" lon="7.0881">
        <ele>227.1</ele>
        <time>2021-11-14T10:54:23Z</time>
      </trkpt>
      <trkpt lat="49.12164" lon="7.0881">
        <ele>227.1</ele>
        <time>2021-11-14T10:54:28Z</time>
      </trkpt>
      <trkpt lat="49.12164" lon="7.0881">
        <ele>227.1</ele>
        <time>2021-11-14T10:54:29Z</time>
      </trkpt>
      <trkpt lat="49.12164" lon="7.0881">
        <ele>227.1</ele>
        <time>2021-11-14T10:54:30Z</time>
      </trkpt>
      <trkpt lat="49.12164" lon="7.08811">
        <ele>227.1</ele>
        <time>2021-11-14T10:54:32Z</time>
      </trkpt>
      <trkpt lat="49.12164" lon="7.08811">
        <ele>227.1</ele>
        <time>2021-11-14T10:54:42Z</time>
      </trkpt>
      <trkpt lat="49.12164" lon="7.08811">
        <ele>227.1</ele>
        <time>2021-11-14T10:54:43Z</time>
      </trkpt>
      <trkpt lat="49.12164" lon="7.08811">
        <ele>227.1</ele>
        <time>2021-11-14T10:54:48Z</time>
      </trkpt>
      <trkpt lat="49.12164" lon="7.08811">
        <ele>227.1</ele>
        <time>2021-11-14T10:54:50Z</time>
      </trkpt>
      <trkpt lat="49.12164" lon="7.08811">
        <ele>227.1</ele>
        <time>2021-11-14T10:54:54Z</time>
      </trkpt>
      <trkpt lat="49.12164" lon="7.08811">
        <ele>227.1</ele>
        <time>2021-11-14T10:54:55Z</time>
      </trkpt>
      <trkpt lat="49.12164" lon="7.08811">
        <ele>227.1</ele>
        <time>2021-11-14T10:54:57Z</time>
      </trkpt>
      <trkpt lat="49.12164" lon="7.08811">
        <ele>227.1</ele>
        <time>2021-11-14T10:55:03Z</time>
      </trkpt>
      <trkpt lat="49.12164" lon="7.08811">
        <ele>227.1</ele>
        <time>2021-11-14T10:55:04Z</time>
      </trkpt>
      <trkpt lat="49.12164" lon="7.08811">
        <ele>227.1</ele>
        <time>2021-11-14T10:55:05Z</time>
      </trkpt>
      <trkpt lat="49.12164" lon="7.08811">
        <ele>227.1</ele>
        <time>2021-11-14T10:55:13Z</time>
      </trkpt>
      <trkpt lat="49.12164" lon="7.08812">
        <ele>227.1</ele>
        <time>2021-11-14T10:55:15Z</time>
      </trkpt>
      <trkpt lat="49.12164" lon="7.08812">
        <ele>227.1</ele>
        <time>2021-11-14T10:55:16Z</time>
      </trkpt>
      <trkpt lat="49.12164" lon="7.08812">
        <ele>227.1</ele>
        <time>2021-11-14T10:55:20Z</time>
      </trkpt>
      <trkpt lat="49.12164" lon="7.08812">
        <ele>227.1</ele>
        <time>2021-11-14T10:55:22Z</time>
      </trkpt>
      <trkpt lat="49.12164" lon="7.08812">
        <ele>227.1</ele>
        <time>2021-11-14T10:55:23Z</time>
      </trkpt>
      <trkpt lat="49.12164" lon="7.08812">
        <ele>227.1</ele>
        <time>2021-11-14T10:55:24Z</time>
      </trkpt>
      <trkpt lat="49.12164" lon="7.08812">
        <ele>227.1</ele>
        <time>2021-11-14T10:55:47Z</time>
      </trkpt>
      <trkpt lat="49.12164" lon="7.08812">
        <ele>227.1</ele>
        <time>2021-11-14T10:56:00Z</time>
      </trkpt>
      <trkpt lat="49.12164" lon="7.08812">
        <ele>227.1</ele>
        <time>2021-11-14T10:56:02Z</time>
      </trkpt>
      <trkpt lat="49.12164" lon="7.08812">
        <ele>227.1</ele>
        <time>2021-11-14T10:56:04Z</time>
      </trkpt>
      <trkpt lat="49.12164" lon="7.08812">
        <ele>227.1</ele>
        <time>2021-11-14T10:56:08Z</time>
      </trkpt>
      <trkpt lat="49.12164" lon="7.08812">
        <ele>227.1</ele>
        <time>2021-11-14T10:56:11Z</time>
      </trkpt>
      <trkpt lat="49.12164" lon="7.08813">
        <ele>227.1</ele>
        <time>2021-11-14T10:56:13Z</time>
      </trkpt>
      <trkpt lat="49.12164" lon="7.08813">
        <ele>227.1</ele>
        <time>2021-11-14T10:56:14Z</time>
      </trkpt>
      <trkpt lat="49.12164" lon="7.08813">
        <ele>227.1</ele>
        <time>2021-11-14T10:56:25Z</time>
      </trkpt>
      <trkpt lat="49.12164" lon="7.08813">
        <ele>227.1</ele>
        <time>2021-11-14T10:56:26Z</time>
      </trkpt>
      <trkpt lat="49.12164" lon="7.08813">
        <ele>227.1</ele>
        <time>2021-11-14T10:56:35Z</time>
      </trkpt>
      <trkpt lat="49.12164" lon="7.08813">
        <ele>227.1</ele>
        <time>2021-11-14T10:56:39Z</time>
      </trkpt>
      <trkpt lat="49.12164" lon="7.08813">
        <ele>227.1</ele>
        <time>2021-11-14T10:56:41Z</time>
      </trkpt>
      <trkpt lat="49.12164" lon="7.08813">
        <ele>227.1</ele>
        <time>2021-11-14T10:56:43Z</time>
      </trkpt>
      <trkpt lat="49.12164" lon="7.08813">
        <ele>227.1</ele>
        <time>2021-11-14T10:56:46Z</time>
      </trkpt>
      <trkpt lat="49.12164" lon="7.08813">
        <ele>227.1</ele>
        <time>2021-11-14T10:56:55Z</time>
      </trkpt>
      <trkpt lat="49.12163" lon="7.08813">
        <ele>227.1</ele>
        <time>2021-11-14T10:57:01Z</time>
      </trkpt>
      <trkpt lat="49.12163" lon="7.08813">
        <ele>227.1</ele>
        <time>2021-11-14T10:57:02Z</time>
      </trkpt>
      <trkpt lat="49.12163" lon="7.08814">
        <ele>227.1</ele>
        <time>2021-11-14T10:57:03Z</time>
      </trkpt>
      <trkpt lat="49.12163" lon="7.08814">
        <ele>227.1</ele>
        <time>2021-11-14T10:57:05Z</time>
      </trkpt>
      <trkpt lat="49.12163" lon="7.08814">
        <ele>227.1</ele>
        <time>2021-11-14T10:57:11Z</time>
      </trkpt>
      <trkpt lat="49.12163" lon="7.08814">
        <ele>227.1</ele>
        <time>2021-11-14T10:57:13Z</time>
      </trkpt>
      <trkpt lat="49.12163" lon="7.08814">
        <ele>227.1</ele>
        <time>2021-11-14T10:57:15Z</time>
      </trkpt>
      <trkpt lat="49.12163" lon="7.08814">
        <ele>227.1</ele>
        <time>2021-11-14T10:57:18Z</time>
      </trkpt>
      <trkpt lat="49.12163" lon="7.08814">
        <ele>227.1</ele>
        <time>2021-11-14T10:57:23Z</time>
      </trkpt>
      <trkpt lat="49.12163" lon="7.08814">
        <ele>227.1</ele>
        <time>2021-11-14T10:57:50Z</time>
      </trkpt>
      <trkpt lat="49.12163" lon="7.08814">
        <ele>227.1</ele>
        <time>2021-11-14T10:57:52Z</time>
      </trkpt>
      <trkpt lat="49.12163" lon="7.08814">
        <ele>227.1</ele>
        <time>2021-11-14T10:57:56Z</time>
      </trkpt>
      <trkpt lat="49.12163" lon="7.08814">
        <ele>227.1</ele>
        <time>2021-11-14T10:57:57Z</time>
      </trkpt>
      <trkpt lat="49.12163" lon="7.08814">
        <ele>227.1</ele>
        <time>2021-11-14T10:57:58Z</time>
      </trkpt>
      <trkpt lat="49.12163" lon="7.08815">
        <ele>227.1</ele>
        <time>2021-11-14T10:57:59Z</time>
      </trkpt>
      <trkpt lat="49.12163" lon="7.08815">
        <ele>227.1</ele>
        <time>2021-11-14T10:58:01Z</time>
      </trkpt>
      <trkpt lat="49.12163" lon="7.08815">
        <ele>227.1</ele>
        <time>2021-11-14T10:58:07Z</time>
      </trkpt>
      <trkpt lat="49.12163" lon="7.08815">
        <ele>227.1</ele>
        <time>2021-11-14T10:58:09Z</time>
      </trkpt>
      <trkpt lat="49.12163" lon="7.08815">
        <ele>227.1</ele>
        <time>2021-11-14T10:58:11Z</time>
      </trkpt>
      <trkpt lat="49.12163" lon="7.08815">
        <ele>227.1</ele>
        <time>2021-11-14T10:58:12Z</time>
      </trkpt>
      <trkpt lat="49.12163" lon="7.08815">
        <ele>227.1</ele>
        <time>2021-11-14T10:58:13Z</time>
      </trkpt>
      <trkpt lat="49.12163" lon="7.08815">
        <ele>227.1</ele>
        <time>2021-11-14T10:58:21Z</time>
      </trkpt>
      <trkpt lat="49.12163" lon="7.08815">
        <ele>227.1</ele>
        <time>2021-11-14T10:58:22Z</time>
      </trkpt>
      <trkpt lat="49.12163" lon="7.08815">
        <ele>227.1</ele>
        <time>2021-11-14T10:58:26Z</time>
      </trkpt>
      <trkpt lat="49.12163" lon="7.08815">
        <ele>227.1</ele>
        <time>2021-11-14T10:58:29Z</time>
      </trkpt>
      <trkpt lat="49.12163" lon="7.08815">
        <ele>227.1</ele>
        <time>2021-11-14T10:58:30Z</time>
      </trkpt>
      <trkpt lat="49.12163" lon="7.08815">
        <ele>227.1</ele>
        <time>2021-11-14T10:58:34Z</time>
      </trkpt>
      <trkpt lat="49.12163" lon="7.08816">
        <ele>227.1</ele>
        <time>2021-11-14T10:58:37Z</time>
      </trkpt>
      <trkpt lat="49.12163" lon="7.08816">
        <ele>227.1</ele>
        <time>2021-11-14T10:58:38Z</time>
      </trkpt>
      <trkpt lat="49.12163" lon="7.08816">
        <ele>227.1</ele>
        <time>2021-11-14T10:58:44Z</time>
      </trkpt>
      <trkpt lat="49.12163" lon="7.08816">
        <ele>227.1</ele>
        <time>2021-11-14T10:58:45Z</time>
      </trkpt>
      <trkpt lat="49.12163" lon="7.08816">
        <ele>227.1</ele>
        <time>2021-11-14T10:58:48Z</time>
      </trkpt>
      <trkpt lat="49.12163" lon="7.08816">
        <ele>227.1</ele>
        <time>2021-11-14T10:58:56Z</time>
      </trkpt>
      <trkpt lat="49.12163" lon="7.08816">
        <ele>227.1</ele>
        <time>2021-11-14T10:59:14Z</time>
      </trkpt>
      <trkpt lat="49.12163" lon="7.08816">
        <ele>227.1</ele>
        <time>2021-11-14T10:59:22Z</time>
      </trkpt>
      <trkpt lat="49.12163" lon="7.08816">
        <ele>227.1</ele>
        <time>2021-11-14T10:59:42Z</time>
      </trkpt>
      <trkpt lat="49.12163" lon="7.08816">
        <ele>227.1</ele>
        <time>2021-11-14T10:59:43Z</time>
      </trkpt>
      <trkpt lat="49.12163" lon="7.08816">
        <ele>227.1</ele>
        <time>2021-11-14T10:59:46Z</time>
      </trkpt>
      <trkpt lat="49.12163" lon="7.08816">
        <ele>227.1</ele>
        <time>2021-11-14T10:59:52Z</time>
      </trkpt>
      <trkpt lat="49.12163" lon="7.08817">
        <ele>227.1</ele>
        <time>2021-11-14T10:59:54Z</time>
      </trkpt>
      <trkpt lat="49.12163" lon="7.08817">
        <ele>227.1</ele>
        <time>2021-11-14T10:59:56Z</time>
      </trkpt>
      <trkpt lat="49.12163" lon="7.08817">
        <ele>227.1</ele>
        <time>2021-11-14T10:59:59Z</time>
      </trkpt>
      <trkpt lat="49.12163" lon="7.08817">
        <ele>227.1</ele>
        <time>2021-11-14T11:00:01Z</time>
      </trkpt>
      <trkpt lat="49.12163" lon="7.08817">
        <ele>227.1</ele>
        <time>2021-11-14T11:00:02Z</time>
      </trkpt>
      <trkpt lat="49.12163" lon="7.08817">
        <ele>227.1</ele>
        <time>2021-11-14T11:00:03Z</time>
      </trkpt>
      <trkpt lat="49.12163" lon="7.08817">
        <ele>227.1</ele>
        <time>2021-11-14T11:00:05Z</time>
      </trkpt>
      <trkpt lat="49.12163" lon="7.08817">
        <ele>227.1</ele>
        <time>2021-11-14T11:00:08Z</time>
      </trkpt>
      <trkpt lat="49.12163" lon="7.08817">
        <ele>227.1</ele>
        <time>2021-11-14T11:00:10Z</time>
      </trkpt>
      <trkpt lat="49.12163" lon="7.08817">
        <ele>227.1</ele>
        <time>2021-11-14T11:00:16Z</time>
      </trkpt>
      <trkpt lat="49.12163" lon="7.08817">
        <ele>227.1</ele>
        <time>2021-11-14T11:00:19Z</time>
      </trkpt>
      <trkpt lat="49.12163" lon="7.08817">
        <ele>227.1</ele>
        <time>2021-11-14T11:00:20Z</time>
      </trkpt>
      <trkpt lat="49.12163" lon="7.08818">
        <ele>227.1</ele>
        <time>2021-11-14T11:00:21Z</time>
      </trkpt>
      <trkpt lat="49.12163" lon="7.08818">
        <ele>227.1</ele>
        <time>2021-11-14T11:00:44Z</time>
      </trkpt>
      <trkpt lat="49.12163" lon="7.08818">
        <ele>227.2</ele>
        <time>2021-11-14T11:00:46Z</time>
      </trkpt>
      <trkpt lat="49.12163" lon="7.08818">
        <ele>227.2</ele>
        <time>2021-11-14T11:00:48Z</time>
      </trkpt>
      <trkpt lat="49.12163" lon="7.08818">
        <ele>227.2</ele>
        <time>2021-11-14T11:00:49Z</time>
      </trkpt>
      <trkpt lat="49.12163" lon="7.08818">
        <ele>227.2</ele>
        <time>2021-11-14T11:00:54Z</time>
      </trkpt>
      <trkpt lat="49.12163" lon="7.08818">
        <ele>227.2</ele>
        <time>2021-11-14T11:00:55Z</time>
      </trkpt>
      <trkpt lat="49.12163" lon="7.08818">
        <ele>227.2</ele>
        <time>2021-11-14T11:00:56Z</time>
      </trkpt>
      <trkpt lat="49.12163" lon="7.08818">
        <ele>227.2</ele>
        <time>2021-11-14T11:00:57Z</time>
      </trkpt>
      <trkpt lat="49.12163" lon="7.08818">
        <ele>227.2</ele>
        <time>2021-11-14T11:00:59Z</time>
      </trkpt>
      <trkpt lat="49.12163" lon="7.08818">
        <ele>227.2</ele>
        <time>2021-11-14T11:01:00Z</time>
      </trkpt>
      <trkpt lat="49.12163" lon="7.08818">
        <ele>227.2</ele>
        <time>2021-11-14T11:01:10Z</time>
      </trkpt>
      <trkpt lat="49.12163" lon="7.08819">
        <ele>227.2</ele>
        <time>2021-11-14T11:01:11Z</time>
      </trkpt>
      <trkpt lat="49.12163" lon="7.08819">
        <ele>227.2</ele>
        <time>2021-11-14T11:01:15Z</time>
      </trkpt>
      <trkpt lat="49.12163" lon="7.08819">
        <ele>227.2</ele>
        <time>2021-11-14T11:01:20Z</time>
      </trkpt>
      <trkpt lat="49.12163" lon="7.08819">
        <ele>227.2</ele>
        <time>2021-11-14T11:01:21Z</time>
      </trkpt>
      <trkpt lat="49.12163" lon="7.08819">
        <ele>227.2</ele>
        <time>2021-11-14T11:01:22Z</time>
      </trkpt>
      <trkpt lat="49.12163" lon="7.08819">
        <ele>227.2</ele>
        <time>2021-11-14T11:01:23Z</time>
      </trkpt>
      <trkpt lat="49.12163" lon="7.08819">
        <ele>227.2</ele>
        <time>2021-11-14T11:01:24Z</time>
      </trkpt>
      <trkpt lat="49.12163" lon="7.08819">
        <ele>227.2</ele>
        <time>2021-11-14T11:01:25Z</time>
      </trkpt>
      <trkpt lat="49.12163" lon="7.08819">
        <ele>227.2</ele>
        <time>2021-11-14T11:01:32Z</time>
      </trkpt>
      <trkpt lat="49.12163" lon="7.08819">
        <ele>227.2</ele>
        <time>2021-11-14T11:01:39Z</time>
      </trkpt>
      <trkpt lat="49.12163" lon="7.08819">
        <ele>227.2</ele>
        <time>2021-11-14T11:01:48Z</time>
      </trkpt>
      <trkpt lat="49.12163" lon="7.08819">
        <ele>227.2</ele>
        <time>2021-11-14T11:01:51Z</time>
      </trkpt>
      <trkpt lat="49.12163" lon="7.0882">
        <ele>227.2</ele>
        <time>2021-11-14T11:01:52Z</time>
      </trkpt>
      <trkpt lat="49.12163" lon="7.0882">
        <ele>227.2</ele>
        <time>2021-11-14T11:01:57Z</time>
      </trkpt>
      <trkpt lat="49.12163" lon="7.0882">
        <ele>227.2</ele>
        <time>2021-11-14T11:01:59Z</time>
      </trkpt>
      <trkpt lat="49.12163" lon="7.0882">
        <ele>227.2</ele>
        <time>2021-11-14T11:02:02Z</time>
      </trkpt>
      <trkpt lat="49.12163" lon="7.0882">
        <ele>227.2</ele>
        <time>2021-11-14T11:02:04Z</time>
      </trkpt>
      <trkpt lat="49.12163" lon="7.0882">
        <ele>227.2</ele>
        <time>2021-11-14T11:02:05Z</time>
      </trkpt>
      <trkpt lat="49.12163" lon="7.0882">
        <ele>227.2</ele>
        <time>2021-11-14T11:02:06Z</time>
      </trkpt>
      <trkpt lat="49.12163" lon="7.0882">
        <ele>227.2</ele>
        <time>2021-11-14T11:02:08Z</time>
      </trkpt>
      <trkpt lat="49.12163" lon="7.0882">
        <ele>227.2</ele>
        <time>2021-11-14T11:02:09Z</time>
      </trkpt>
      <trkpt lat="49.12163" lon="7.0882">
        <ele>227.2</ele>
        <time>2021-11-14T11:02:13Z</time>
      </trkpt>
      <trkpt lat="49.12163" lon="7.0882">
        <ele>227.2</ele>
        <time>2021-11-14T11:02:14Z</time>
      </trkpt>
      <trkpt lat="49.12163" lon="7.0882">
        <ele>227.2</ele>
        <time>2021-11-14T11:02:20Z</time>
      </trkpt>
      <trkpt lat="49.12163" lon="7.08821">
        <ele>227.2</ele>
        <time>2021-11-14T11:02:21Z</time>
      </trkpt>
      <trkpt lat="49.12163" lon="7.08821">
        <ele>227.2</ele>
        <time>2021-11-14T11:02:27Z</time>
      </trkpt>
      <trkpt lat="49.12163" lon="7.08821">
        <ele>227.2</ele>
        <time>2021-11-14T11:02:29Z</time>
      </trkpt>
      <trkpt lat="49.12162" lon="7.08821">
        <ele>227.2</ele>
        <time>2021-11-14T11:02:31Z</time>
      </trkpt>
      <trkpt lat="49.12162" lon="7.08821">
        <ele>227.2</ele>
        <time>2021-11-14T11:02:32Z</time>
      </trkpt>
      <trkpt lat="49.12162" lon="7.08821">
        <ele>227.2</ele>
        <time>2021-11-14T11:02:44Z</time>
      </trkpt>
      <trkpt lat="49.12162" lon="7.08821">
        <ele>227.2</ele>
        <time>2021-11-14T11:02:45Z</time>
      </trkpt>
      <trkpt lat="49.12162" lon="7.08821">
        <ele>227.2</ele>
        <time>2021-11-14T11:02:46Z</time>
      </trkpt>
      <trkpt lat="49.12162" lon="7.08821">
        <ele>227.2</ele>
        <time>2021-11-14T11:03:16Z</time>
      </trkpt>
      <trkpt lat="49.12162" lon="7.08821">
        <ele>227.2</ele>
        <time>2021-11-14T11:03:17Z</time>
      </trkpt>
      <trkpt lat="49.12162" lon="7.08821">
        <ele>227.2</ele>
        <time>2021-11-14T11:03:49Z</time>
      </trkpt>
      <trkpt lat="49.12162" lon="7.08821">
        <ele>227.2</ele>
        <time>2021-11-14T11:03:51Z</time>
      </trkpt>
      <trkpt lat="49.12162" lon="7.08822">
        <ele>227.2</ele>
        <time>2021-11-14T11:04:00Z</time>
      </trkpt>
      <trkpt lat="49.12162" lon="7.08822">
        <ele>227.2</ele>
        <time>2021-11-14T11:04:01Z</time>
      </trkpt>
      <trkpt lat="49.12162" lon="7.08822">
        <ele>227.2</ele>
        <time>2021-11-14T11:04:42Z</time>
      </trkpt>
      <trkpt lat="49.12162" lon="7.08822">
        <ele>227.2</ele>
        <time>2021-11-14T11:04:47Z</time>
      </trkpt>
      <trkpt lat="49.12162" lon="7.08822">
        <ele>227.2</ele>
        <time>2021-11-14T11:04:48Z</time>
      </trkpt>
      <trkpt lat="49.12162" lon="7.08822">
        <ele>227.2</ele>
        <time>2021-11-14T11:04:49Z</time>
      </trkpt>
      <trkpt lat="49.12162" lon="7.08822">
        <ele>227.2</ele>
        <time>2021-11-14T11:04:51Z</time>
      </trkpt>
      <trkpt lat="49.12162" lon="7.08822">
        <ele>227.2</ele>
        <time>2021-11-14T11:04:55Z</time>
      </trkpt>
      <trkpt lat="49.12162" lon="7.08822">
        <ele>227.2</ele>
        <time>2021-11-14T11:04:56Z</time>
      </trkpt>
      <trkpt lat="49.12162" lon="7.08822">
        <ele>227.2</ele>
        <time>2021-11-14T11:04:57Z</time>
      </trkpt>
      <trkpt lat="49.12162" lon="7.08822">
        <ele>227.2</ele>
        <time>2021-11-14T11:04:58Z</time>
      </trkpt>
      <trkpt lat="49.12162" lon="7.08822">
        <ele>227.2</ele>
        <time>2021-11-14T11:05:01Z</time>
      </trkpt>
      <trkpt lat="49.12162" lon="7.08823">
        <ele>227.2</ele>
        <time>2021-11-14T11:05:05Z</time>
      </trkpt>
      <trkpt lat="49.12162" lon="7.08823">
        <ele>227.2</ele>
        <time>2021-11-14T11:05:06Z</time>
      </trkpt>
      <trkpt lat="49.12162" lon="7.08823">
        <ele>227.2</ele>
        <time>2021-11-14T11:05:11Z</time>
      </trkpt>
      <trkpt lat="49.12162" lon="7.08823">
        <ele>227.2</ele>
        <time>2021-11-14T11:05:15Z</time>
      </trkpt>
      <trkpt lat="49.12162" lon="7.08823">
        <ele>227.2</ele>
        <time>2021-11-14T11:05:18Z</time>
      </trkpt>
      <trkpt lat="49.12162" lon="7.08823">
        <ele>227.2</ele>
        <time>2021-11-14T11:05:22Z</time>
      </trkpt>
      <trkpt lat="49.12162" lon="7.08823">
        <ele>227.2</ele>
        <time>2021-11-14T11:05:25Z</time>
      </trkpt>
      <trkpt lat="49.12162" lon="7.08823">
        <ele>227.2</ele>
        <time>2021-11-14T11:05:28Z</time>
      </trkpt>
      <trkpt lat="49.12162" lon="7.08823">
        <ele>227.2</ele>
        <time>2021-11-14T11:05:29Z</time>
      </trkpt>
      <trkpt lat="49.12162" lon="7.08823">
        <ele>227.2</ele>
        <time>2021-11-14T11:05:31Z</time>
      </trkpt>
      <trkpt lat="49.12162" lon="7.08823">
        <ele>227.2</ele>
        <time>2021-11-14T11:05:32Z</time>
      </trkpt>
      <trkpt lat="49.12162" lon="7.08823">
        <ele>227.2</ele>
        <time>2021-11-14T11:05:36Z</time>
      </trkpt>
      <trkpt lat="49.12162" lon="7.08824">
        <ele>227.2</ele>
        <time>2021-11-14T11:05:38Z</time>
      </trkpt>
      <trkpt lat="49.12162" lon="7.08824">
        <ele>227.2</ele>
        <time>2021-11-14T11:05:48Z</time>
      </trkpt>
      <trkpt lat="49.12162" lon="7.08824">
        <ele>227.2</ele>
        <time>2021-11-14T11:05:50Z</time>
      </trkpt>
      <trkpt lat="49.12162" lon="7.08824">
        <ele>227.2</ele>
        <time>2021-11-14T11:05:51Z</time>
      </trkpt>
      <trkpt lat="49.12162" lon="7.08824">
        <ele>227.2</ele>
        <time>2021-11-14T11:05:52Z</time>
      </trkpt>
      <trkpt lat="49.12162" lon="7.08824">
        <ele>227.2</ele>
        <time>2021-11-14T11:05:53Z</time>
      </trkpt>
      <trkpt lat="49.12162" lon="7.08824">
        <ele>227.2</ele>
        <time>2021-11-14T11:05:54Z</time>
      </trkpt>
      <trkpt lat="49.12162" lon="7.08824">
        <ele>227.2</ele>
        <time>2021-11-14T11:06:01Z</time>
      </trkpt>
      <trkpt lat="49.12162" lon="7.08824">
        <ele>227.2</ele>
        <time>2021-11-14T11:06:17Z</time>
      </trkpt>
      <trkpt lat="49.12162" lon="7.08824">
        <ele>227.2</ele>
        <time>2021-11-14T11:06:18Z</time>
      </trkpt>
      <trkpt lat="49.12162" lon="7.08824">
        <ele>227.2</ele>
        <time>2021-11-14T11:06:27Z</time>
      </trkpt>
      <trkpt lat="49.12162" lon="7.08824">
        <ele>227.2</ele>
        <time>2021-11-14T11:06:28Z</time>
      </trkpt>
      <trkpt lat="49.12162" lon="7.08825">
        <ele>227.2</ele>
        <time>2021-11-14T11:06:29Z</time>
      </trkpt>
      <trkpt lat="49.12162" lon="7.08825">
        <ele>227.2</ele>
        <time>2021-11-14T11:06:30Z</time>
      </trkpt>
      <trkpt lat="49.12162" lon="7.08825">
        <ele>227.2</ele>
        <time>2021-11-14T11:07:04Z</time>
      </trkpt>
      <trkpt lat="49.12162" lon="7.08825">
        <ele>227.2</ele>
        <time>2021-11-14T11:07:08Z</time>
      </trkpt>
      <trkpt lat="49.12162" lon="7.08825">
        <ele>227.2</ele>
        <time>2021-11-14T11:07:51Z</time>
      </trkpt>
      <trkpt lat="49.12162" lon="7.08825">
        <ele>227.2</ele>
        <time>2021-11-14T11:07:55Z</time>
      </trkpt>
      <trkpt lat="49.12162" lon="7.08825">
        <ele>227.2</ele>
        <time>2021-11-14T11:08:16Z</time>
      </trkpt>
      <trkpt lat="49.12162" lon="7.08825">
        <ele>227.2</ele>
        <time>2021-11-14T11:08:34Z</time>
      </trkpt>
      <trkpt lat="49.12162" lon="7.08825">
        <ele>227.2</ele>
        <time>2021-11-14T11:09:33Z</time>
      </trkpt>
      <trkpt lat="49.12162" lon="7.08825">
        <ele>227.2</ele>
        <time>2021-11-14T11:09:34Z</time>
      </trkpt>
      <trkpt lat="49.12162" lon="7.08825">
        <ele>227.2</ele>
        <time>2021-11-14T11:11:21Z</time>
      </trkpt>
      <trkpt lat="49.12162" lon="7.08825">
        <ele>227.2</ele>
        <time>2021-11-14T11:11:22Z</time>
      </trkpt>
      <trkpt lat="49.12162" lon="7.08826">
        <ele>227.2</ele>
        <time>2021-11-14T11:11:41Z</time>
      </trkpt>
      <trkpt lat="49.12162" lon="7.08826">
        <ele>227.2</ele>
        <time>2021-11-14T11:11:46Z</time>
      </trkpt>
      <trkpt lat="49.12162" lon="7.08826">
        <ele>227.2</ele>
        <time>2021-11-14T11:12:53Z</time>
      </trkpt>
      <trkpt lat="49.12162" lon="7.08826">
        <ele>227.2</ele>
        <time>2021-11-14T11:12:58Z</time>
      </trkpt>
      <trkpt lat="49.12162" lon="7.08826">
        <ele>227.2</ele>
        <time>2021-11-14T11:12:59Z</time>
      </trkpt>
      <trkpt lat="49.12162" lon="7.08826">
        <ele>227.2</ele>
        <time>2021-11-14T11:13:02Z</time>
      </trkpt>
      <trkpt lat="49.12162" lon="7.08826">
        <ele>227.2</ele>
        <time>2021-11-14T11:13:06Z</time>
      </trkpt>
      <trkpt lat="49.12162" lon="7.08826">
        <ele>227.2</ele>
        <time>2021-11-14T11:13:07Z</time>
      </trkpt>
      <trkpt lat="49.12162" lon="7.08826">
        <ele>227.2</ele>
        <time>2021-11-14T11:13:18Z</time>
      </trkpt>
      <trkpt lat="49.12162" lon="7.08826">
        <ele>227.2</ele>
        <time>2021-11-14T11:13:25Z</time>
      </trkpt>
      <trkpt lat="49.12162" lon="7.08826">
        <ele>227.2</ele>
        <time>2021-11-14T11:13:27Z</time>
      </trkpt>
      <trkpt lat="49.12162" lon="7.08826">
        <ele>227.2</ele>
        <time>2021-11-14T11:13:28Z</time>
      </trkpt>
      <trkpt lat="49.12162" lon="7.08827">
        <ele>227.2</ele>
        <time>2021-11-14T11:13:57Z</time>
      </trkpt>
      <trkpt lat="49.12162" lon="7.08827">
        <ele>227.2</ele>
        <time>2021-11-14T11:13:58Z</time>
      </trkpt>
      <trkpt lat="49.12162" lon="7.08827">
        <ele>227.2</ele>
        <time>2021-11-14T11:14:07Z</time>
      </trkpt>
      <trkpt lat="49.12162" lon="7.08827">
        <ele>227.2</ele>
        <time>2021-11-14T11:14:09Z</time>
      </trkpt>
      <trkpt lat="49.12162" lon="7.08827">
        <ele>227.2</ele>
        <time>2021-11-14T11:14:10Z</time>
      </trkpt>
      <trkpt lat="49.12162" lon="7.08827">
        <ele>227.2</ele>
        <time>2021-11-14T11:14:15Z</time>
      </trkpt>
      <trkpt lat="49.12162" lon="7.08827">
        <ele>227.2</ele>
        <time>2021-11-14T11:14:22Z</time>
      </trkpt>
      <trkpt lat="49.12162" lon="7.08827">
        <ele>227.2</ele>
        <time>2021-11-14T11:14:30Z</time>
      </trkpt>
      <trkpt lat="49.12162" lon="7.08827">
        <ele>227.2</ele>
        <time>2021-11-14T11:14:31Z</time>
      </trkpt>
      <trkpt lat="49.12162" lon="7.08827">
        <ele>227.2</ele>
        <time>2021-11-14T11:14:36Z</time>
      </trkpt>
      <trkpt lat="49.12162" lon="7.08827">
        <ele>227.2</ele>
        <time>2021-11-14T11:14:37Z</time>
      </trkpt>
      <trkpt lat="49.12162" lon="7.08827">
        <ele>227.2</ele>
        <time>2021-11-14T11:14:41Z</time>
      </trkpt>
      <trkpt lat="49.12162" lon="7.08828">
        <ele>227.2</ele>
        <time>2021-11-14T11:14:43Z</time>
      </trkpt>
      <trkpt lat="49.12162" lon="7.08828">
        <ele>227.2</ele>
        <time>2021-11-14T11:14:44Z</time>
      </trkpt>
      <trkpt lat="49.12162" lon="7.08828">
        <ele>227.2</ele>
        <time>2021-11-14T11:14:45Z</time>
      </trkpt>
      <trkpt lat="49.12162" lon="7.08828">
        <ele>227.2</ele>
        <time>2021-11-14T11:14:49Z</time>
      </trkpt>
      <trkpt lat="49.12162" lon="7.08828">
        <ele>227.2</ele>
        <time>2021-11-14T11:14:50Z</time>
      </trkpt>
      <trkpt lat="49.12162" lon="7.08828">
        <ele>227.2</ele>
        <time>2021-11-14T11:14:57Z</time>
      </trkpt>
      <trkpt lat="49.12162" lon="7.08828">
        <ele>227.2</ele>
        <time>2021-11-14T11:15:12Z</time>
      </trkpt>
      <trkpt lat="49.12162" lon="7.08828">
        <ele>227.2</ele>
        <time>2021-11-14T11:15:15Z</time>
      </trkpt>
      <trkpt lat="49.12161" lon="7.08828">
        <ele>227.2</ele>
        <time>2021-11-14T11:15:18Z</time>
      </trkpt>
      <trkpt lat="49.12161" lon="7.08828">
        <ele>227.2</ele>
        <time>2021-11-14T11:15:19Z</time>
      </trkpt>
      <trkpt lat="49.12161" lon="7.08828">
        <ele>227.2</ele>
        <time>2021-11-14T11:15:21Z</time>
      </trkpt>
      <trkpt lat="49.12161" lon="7.08828">
        <ele>227.2</ele>
        <time>2021-11-14T11:15:25Z</time>
      </trkpt>
      <trkpt lat="49.12161" lon="7.08829">
        <ele>227.2</ele>
        <time>2021-11-14T11:15:26Z</time>
      </trkpt>
      <trkpt lat="49.12161" lon="7.08829">
        <ele>227.2</ele>
        <time>2021-11-14T11:15:31Z</time>
      </trkpt>
      <trkpt lat="49.12161" lon="7.08829">
        <ele>227.2</ele>
        <time>2021-11-14T11:15:32Z</time>
      </trkpt>
      <trkpt lat="49.12161" lon="7.08829">
        <ele>227.2</ele>
        <time>2021-11-14T11:15:34Z</time>
      </trkpt>
      <trkpt lat="49.12161" lon="7.08829">
        <ele>227.2</ele>
        <time>2021-11-14T11:15:44Z</time>
      </trkpt>
      <trkpt lat="49.12161" lon="7.08829">
        <ele>227.2</ele>
        <time>2021-11-14T11:15:45Z</time>
      </trkpt>
      <trkpt lat="49.12161" lon="7.08829">
        <ele>227.2</ele>
        <time>2021-11-14T11:15:51Z</time>
      </trkpt>
      <trkpt lat="49.12161" lon="7.08829">
        <ele>227.2</ele>
        <time>2021-11-14T11:15:52Z</time>
      </trkpt>
      <trkpt lat="49.12161" lon="7.08829">
        <ele>227.2</ele>
        <time>2021-11-14T11:15:55Z</time>
      </trkpt>
      <trkpt lat="49.12161" lon="7.08829">
        <ele>227.2</ele>
        <time>2021-11-14T11:15:56Z</time>
      </trkpt>
      <trkpt lat="49.12161" lon="7.08829">
        <ele>227.2</ele>
        <time>2021-11-14T11:15:58Z</time>
      </trkpt>
      <trkpt lat="49.12161" lon="7.08829">
        <ele>227.2</ele>
        <time>2021-11-14T11:16:01Z</time>
      </trkpt>
      <trkpt lat="49.12161" lon="7.08829">
        <ele>227.2</ele>
        <time>2021-11-14T11:16:02Z</time>
      </trkpt>
      <trkpt lat="49.12161" lon="7.0883">
        <ele>227.2</ele>
        <time>2021-11-14T11:16:05Z</time>
      </trkpt>
      <trkpt lat="49.12161" lon="7.0883">
        <ele>227.2</ele>
        <time>2021-11-14T11:16:18Z</time>
      </trkpt>
      <trkpt lat="49.12161" lon="7.0883">
        <ele>227.2</ele>
        <time>2021-11-14T11:16:19Z</time>
      </trkpt>
      <trkpt lat="49.12161" lon="7.0883">
        <ele>227.2</ele>
        <time>2021-11-14T11:16:27Z</time>
      </trkpt>
      <trkpt lat="49.12161" lon="7.0883">
        <ele>227.2</ele>
        <time>2021-11-14T11:16:29Z</time>
      </trkpt>
      <trkpt lat="49.12161" lon="7.0883">
        <ele>227.2</ele>
        <time>2021-11-14T11:16:33Z</time>
      </trkpt>
      <trkpt lat="49.12161" lon="7.0883">
        <ele>227.2</ele>
        <time>2021-11-14T11:16:34Z</time>
      </trkpt>
      <trkpt lat="49.12161" lon="7.0883">
        <ele>227.2</ele>
        <time>2021-11-14T11:16:40Z</time>
      </trkpt>
      <trkpt lat="49.12161" lon="7.0883">
        <ele>227.2</ele>
        <time>2021-11-14T11:16:41Z</time>
      </trkpt>
      <trkpt lat="49.12161" lon="7.0883">
        <ele>227.2</ele>
        <time>2021-11-14T11:16:45Z</time>
      </trkpt>
      <trkpt lat="49.12161" lon="7.0883">
        <ele>227.2</ele>
        <time>2021-11-14T11:16:47Z</time>
      </trkpt>
      <trkpt lat="49.12161" lon="7.0883">
        <ele>227.2</ele>
        <time>2021-11-14T11:16:49Z</time>
      </trkpt>
      <trkpt lat="49.12161" lon="7.08831">
        <ele>227.2</ele>
        <time>2021-11-14T11:17:03Z</time>
      </trkpt>
      <trkpt lat="49.12161" lon="7.08831">
        <ele>227.2</ele>
        <time>2021-11-14T11:17:05Z</time>
      </trkpt>
      <trkpt lat="49.12161" lon="7.08831">
        <ele>227.2</ele>
        <time>2021-11-14T11:17:14Z</time>
      </trkpt>
      <trkpt lat="49.12161" lon="7.08831">
        <ele>227.2</ele>
        <time>2021-11-14T11:17:15Z</time>
      </trkpt>
      <trkpt lat="49.12161" lon="7.08831">
        <ele>227.2</ele>
        <time>2021-11-14T11:17:16Z</time>
      </trkpt>
      <trkpt lat="49.12161" lon="7.08831">
        <ele>227.2</ele>
        <time>2021-11-14T11:17:17Z</time>
      </trkpt>
      <trkpt lat="49.12161" lon="7.08831">
        <ele>227.2</ele>
        <time>2021-11-14T11:17:23Z</time>
      </trkpt>
      <trkpt lat="49.12161" lon="7.08831">
        <ele>227.2</ele>
        <time>2021-11-14T11:17:24Z</time>
      </trkpt>
      <trkpt lat="49.12161" lon="7.08831">
        <ele>227.2</ele>
        <time>2021-11-14T11:17:32Z</time>
      </trkpt>
      <trkpt lat="49.12161" lon="7.08831">
        <ele>227.2</ele>
        <time>2021-11-14T11:17:33Z</time>
      </trkpt>
      <trkpt lat="49.12161" lon="7.08831">
        <ele>227.2</ele>
        <time>2021-11-14T11:17:35Z</time>
      </trkpt>
      <trkpt lat="49.12161" lon="7.08831">
        <ele>227.2</ele>
        <time>2021-11-14T11:17:36Z</time>
      </trkpt>
      <trkpt lat="49.12161" lon="7.08832">
        <ele>227.2</ele>
        <time>2021-11-14T11:17:45Z</time>
      </trkpt>
      <trkpt lat="49.12161" lon="7.08832">
        <ele>227.2</ele>
        <time>2021-11-14T11:17:46Z</time>
      </trkpt>
      <trkpt lat="49.12161" lon="7.08832">
        <ele>227.2</ele>
        <time>2021-11-14T11:17:54Z</time>
      </trkpt>
      <trkpt lat="49.12161" lon="7.08832">
        <ele>227.2</ele>
        <time>2021-11-14T11:17:55Z</time>
      </trkpt>
      <trkpt lat="49.12161" lon="7.08832">
        <ele>227.2</ele>
        <time>2021-11-14T11:18:15Z</time>
      </trkpt>
      <trkpt lat="49.12161" lon="7.08832">
        <ele>227.2</ele>
        <time>2021-11-14T11:18:16Z</time>
      </trkpt>
      <trkpt lat="49.12161" lon="7.08832">
        <ele>227.2</ele>
        <time>2021-11-14T11:18:18Z</time>
      </trkpt>
      <trkpt lat="49.12161" lon="7.08832">
        <ele>227.2</ele>
        <time>2021-11-14T11:18:19Z</time>
      </trkpt>
      <trkpt lat="49.12161" lon="7.08832">
        <ele>227.2</ele>
        <time>2021-11-14T11:18:24Z</time>
      </trkpt>
      <trkpt lat="49.12161" lon="7.08832">
        <ele>227.2</ele>
        <time>2021-11-14T11:18:32Z</time>
      </trkpt>
      <trkpt lat="49.12161" lon="7.08832">
        <ele>227.2</ele>
        <time>2021-11-14T11:18:33Z</time>
      </trkpt>
      <trkpt lat="49.12161" lon="7.08832">
        <ele>227.2</ele>
        <time>2021-11-14T11:18:52Z</time>
      </trkpt>
      <trkpt lat="49.12161" lon="7.08833">
        <ele>227.2</ele>
        <time>2021-11-14T11:18:53Z</time>
      </trkpt>
      <trkpt lat="49.12161" lon="7.08833">
        <ele>227.2</ele>
        <time>2021-11-14T11:18:54Z</time>
      </trkpt>
      <trkpt lat="49.12161" lon="7.08833">
        <ele>227.2</ele>
        <time>2021-11-14T11:19:12Z</time>
      </trkpt>
      <trkpt lat="49.12161" lon="7.08833">
        <ele>227.2</ele>
        <time>2021-11-14T11:19:13Z</time>
      </trkpt>
      <trkpt lat="49.12161" lon="7.08833">
        <ele>227.2</ele>
        <time>2021-11-14T11:19:17Z</time>
      </trkpt>
      <trkpt lat="49.12161" lon="7.08833">
        <ele>227.2</ele>
        <time>2021-11-14T11:19:18Z</time>
      </trkpt>
      <trkpt lat="49.12161" lon="7.08833">
        <ele>227.2</ele>
        <time>2021-11-14T11:19:28Z</time>
      </trkpt>
      <trkpt lat="49.12161" lon="7.08833">
        <ele>227.2</ele>
        <time>2021-11-14T11:19:29Z</time>
      </trkpt>
      <trkpt lat="49.12161" lon="7.08833">
        <ele>227.2</ele>
        <time>2021-11-14T11:19:40Z</time>
      </trkpt>
      <trkpt lat="49.12161" lon="7.08833">
        <ele>227.2</ele>
        <time>2021-11-14T11:19:41Z</time>
      </trkpt>
      <trkpt lat="49.12161" lon="7.08833">
        <ele>227.2</ele>
        <time>2021-11-14T11:19:45Z</time>
      </trkpt>
      <trkpt lat="49.12161" lon="7.08833">
        <ele>227.2</ele>
        <time>2021-11-14T11:19:46Z</time>
      </trkpt>
      <trkpt lat="49.12161" lon="7.08834">
        <ele>227.2</ele>
        <time>2021-11-14T11:19:50Z</time>
      </trkpt>
      <trkpt lat="49.12161" lon="7.08834">
        <ele>227.2</ele>
        <time>2021-11-14T11:19:51Z</time>
      </trkpt>
      <trkpt lat="49.12161" lon="7.08834">
        <ele>227.2</ele>
        <time>2021-11-14T11:19:52Z</time>
      </trkpt>
      <trkpt lat="49.12161" lon="7.08834">
        <ele>227.2</ele>
        <time>2021-11-14T11:19:53Z</time>
      </trkpt>
      <trkpt lat="49.12161" lon="7.08834">
        <ele>227.2</ele>
        <time>2021-11-14T11:20:00Z</time>
      </trkpt>
      <trkpt lat="49.12161" lon="7.08834">
        <ele>227.2</ele>
        <time>2021-11-14T11:20:02Z</time>
      </trkpt>
      <trkpt lat="49.12161" lon="7.08834">
        <ele>227.2</ele>
        <time>2021-11-14T11:20:09Z</time>
      </trkpt>
      <trkpt lat="49.12161" lon="7.08834">
        <ele>227.2</ele>
        <time>2021-11-14T11:20:10Z</time>
      </trkpt>
      <trkpt lat="49.12161" lon="7.08834">
        <ele>227.2</ele>
        <time>2021-11-14T11:20:17Z</time>
      </trkpt>
      <trkpt lat="49.12161" lon="7.08834">
        <ele>227.2</ele>
        <time>2021-11-14T11:20:18Z</time>
      </trkpt>
      <trkpt lat="49.12161" lon="7.08834">
        <ele>227.2</ele>
        <time>2021-11-14T11:20:25Z</time>
      </trkpt>
      <trkpt lat="49.12161" lon="7.08834">
        <ele>227.2</ele>
        <time>2021-11-14T11:20:26Z</time>
      </trkpt>
      <trkpt lat="49.12161" lon="7.08835">
        <ele>227.2</ele>
        <time>2021-11-14T11:20:28Z</time>
      </trkpt>
      <trkpt lat="49.12161" lon="7.08835">
        <ele>227.2</ele>
        <time>2021-11-14T11:20:29Z</time>
      </trkpt>
      <trkpt lat="49.12161" lon="7.08835">
        <ele>227.2</ele>
        <time>2021-11-14T11:20:31Z</time>
      </trkpt>
      <trkpt lat="49.12161" lon="7.08835">
        <ele>227.2</ele>
        <time>2021-11-14T11:20:32Z</time>
      </trkpt>
      <trkpt lat="49.12161" lon="7.08835">
        <ele>227.2</ele>
        <time>2021-11-14T11:20:33Z</time>
      </trkpt>
      <trkpt lat="49.12161" lon="7.08835">
        <ele>227.2</ele>
        <time>2021-11-14T11:20:42Z</time>
      </trkpt>
      <trkpt lat="49.12161" lon="7.08835">
        <ele>227.2</ele>
        <time>2021-11-14T11:20:43Z</time>
      </trkpt>
      <trkpt lat="49.12161" lon="7.08835">
        <ele>227.2</ele>
        <time>2021-11-14T11:20:45Z</time>
      </trkpt>
      <trkpt lat="49.12161" lon="7.08835">
        <ele>227.2</ele>
        <time>2021-11-14T11:20:46Z</time>
      </trkpt>
      <trkpt lat="49.12161" lon="7.08835">
        <ele>227.2</ele>
        <time>2021-11-14T11:20:47Z</time>
      </trkpt>
      <trkpt lat="49.12161" lon="7.08835">
        <ele>227.2</ele>
        <time>2021-11-14T11:20:56Z</time>
      </trkpt>
      <trkpt lat="49.12161" lon="7.08835">
        <ele>227.2</ele>
        <time>2021-11-14T11:21:07Z</time>
      </trkpt>
      <trkpt lat="49.1216" lon="7.08836">
        <ele>227.2</ele>
        <time>2021-11-14T11:21:08Z</time>
      </trkpt>
      <trkpt lat="49.1216" lon="7.08836">
        <ele>227.2</ele>
        <time>2021-11-14T11:21:10Z</time>
      </trkpt>
      <trkpt lat="49.1216" lon="7.08836">
        <ele>227.2</ele>
        <time>2021-11-14T11:21:12Z</time>
      </trkpt>
      <trkpt lat="49.1216" lon="7.08836">
        <ele>227.2</ele>
        <time>2021-11-14T11:21:16Z</time>
      </trkpt>
      <trkpt lat="49.1216" lon="7.08836">
        <ele>227.2</ele>
        <time>2021-11-14T11:21:21Z</time>
      </trkpt>
      <trkpt lat="49.1216" lon="7.08836">
        <ele>227.2</ele>
        <time>2021-11-14T11:21:22Z</time>
      </trkpt>
      <trkpt lat="49.1216" lon="7.08836">
        <ele>227.2</ele>
        <time>2021-11-14T11:21:32Z</time>
      </trkpt>
      <trkpt lat="49.1216" lon="7.08836">
        <ele>227.2</ele>
        <time>2021-11-14T11:21:33Z</time>
      </trkpt>
      <trkpt lat="49.1216" lon="7.08836">
        <ele>227.2</ele>
        <time>2021-11-14T11:21:36Z</time>
      </trkpt>
      <trkpt lat="49.1216" lon="7.08836">
        <ele>227.2</ele>
        <time>2021-11-14T11:21:37Z</time>
      </trkpt>
      <trkpt lat="49.1216" lon="7.08836">
        <ele>227.2</ele>
        <time>2021-11-14T11:21:39Z</time>
      </trkpt>
      <trkpt lat="49.1216" lon="7.08836">
        <ele>227.2</ele>
        <time>2021-11-14T11:21:40Z</time>
      </trkpt>
      <trkpt lat="49.1216" lon="7.08837">
        <ele>227.2</ele>
        <time>2021-11-14T11:21:48Z</time>
      </trkpt>
      <trkpt lat="49.1216" lon="7.08837">
        <ele>227.2</ele>
        <time>2021-11-14T11:21:49Z</time>
      </trkpt>
      <trkpt lat="49.1216" lon="7.08837">
        <ele>227.2</ele>
        <time>2021-11-14T11:21:51Z</time>
      </trkpt>
      <trkpt lat="49.1216" lon="7.08837">
        <ele>227.2</ele>
        <time>2021-11-14T11:21:52Z</time>
      </trkpt>
      <trkpt lat="49.1216" lon="7.08837">
        <ele>227.2</ele>
        <time>2021-11-14T11:21:56Z</time>
      </trkpt>
      <trkpt lat="49.1216" lon="7.08837">
        <ele>227.2</ele>
        <time>2021-11-14T11:22:01Z</time>
      </trkpt>
      <trkpt lat="49.1216" lon="7.08837">
        <ele>227.3</ele>
        <time>2021-11-14T11:22:05Z</time>
      </trkpt>
      <trkpt lat="49.1216" lon="7.08837">
        <ele>227.3</ele>
        <time>2021-11-14T11:22:06Z</time>
      </trkpt>
      <trkpt lat="49.1216" lon="7.08837">
        <ele>227.3</ele>
        <time>2021-11-14T11:22:07Z</time>
      </trkpt>
      <trkpt lat="49.1216" lon="7.08837">
        <ele>227.3</ele>
        <time>2021-11-14T11:22:08Z</time>
      </trkpt>
      <trkpt lat="49.1216" lon="7.08837">
        <ele>227.3</ele>
        <time>2021-11-14T11:22:09Z</time>
      </trkpt>
      <trkpt lat="49.1216" lon="7.08837">
        <ele>227.3</ele>
        <time>2021-11-14T11:22:11Z</time>
      </trkpt>
      <trkpt lat="49.1216" lon="7.08838">
        <ele>227.3</ele>
        <time>2021-11-14T11:22:18Z</time>
      </trkpt>
      <trkpt lat="49.1216" lon="7.08838">
        <ele>227.3</ele>
        <time>2021-11-14T11:22:19Z</time>
      </trkpt>
      <trkpt lat="49.1216" lon="7.08838">
        <ele>227.3</ele>
        <time>2021-11-14T11:22:25Z</time>
      </trkpt>
      <trkpt lat="49.1216" lon="7.08838">
        <ele>227.3</ele>
        <time>2021-11-14T11:22:32Z</time>
      </trkpt>
      <trkpt lat="49.1216" lon="7.08838">
        <ele>227.3</ele>
        <time>2021-11-14T11:22:33Z</time>
      </trkpt>
      <trkpt lat="49.1216" lon="7.08838">
        <ele>227.3</ele>
        <time>2021-11-14T11:22:37Z</time>
      </trkpt>
      <trkpt lat="49.1216" lon="7.08838">
        <ele>227.3</ele>
        <time>2021-11-14T11:22:38Z</time>
      </trkpt>
      <trkpt lat="49.1216" lon="7.08838">
        <ele>227.3</ele>
        <time>2021-11-14T11:22:40Z</time>
      </trkpt>
      <trkpt lat="49.1216" lon="7.08838">
        <ele>227.3</ele>
        <time>2021-11-14T11:22:41Z</time>
      </trkpt>
      <trkpt lat="49.1216" lon="7.08838">
        <ele>227.3</ele>
        <time>2021-11-14T11:22:57Z</time>
      </trkpt>
      <trkpt lat="49.1216" lon="7.08838">
        <ele>227.3</ele>
        <time>2021-11-14T11:23:01Z</time>
      </trkpt>
      <trkpt lat="49.1216" lon="7.08838">
        <ele>227.3</ele>
        <time>2021-11-14T11:23:05Z</time>
      </trkpt>
      <trkpt lat="49.1216" lon="7.08839">
        <ele>227.3</ele>
        <time>2021-11-14T11:23:06Z</time>
      </trkpt>
      <trkpt lat="49.1216" lon="7.08839">
        <ele>227.3</ele>
        <time>2021-11-14T11:23:12Z</time>
      </trkpt>
      <trkpt lat="49.1216" lon="7.08839">
        <ele>227.3</ele>
        <time>2021-11-14T11:23:20Z</time>
      </trkpt>
      <trkpt lat="49.1216" lon="7.08839">
        <ele>227.3</ele>
        <time>2021-11-14T11:23:21Z</time>
      </trkpt>
      <trkpt lat="49.1216" lon="7.08839">
        <ele>227.3</ele>
        <time>2021-11-14T11:23:30Z</time>
      </trkpt>
      <trkpt lat="49.1216" lon="7.08839">
        <ele>227.3</ele>
        <time>2021-11-14T11:23:31Z</time>
      </trkpt>
      <trkpt lat="49.1216" lon="7.08839">
        <ele>227.3</ele>
        <time>2021-11-14T11:23:32Z</time>
      </trkpt>
      <trkpt lat="49.1216" lon="7.08839">
        <ele>227.3</ele>
        <time>2021-11-14T11:23:40Z</time>
      </trkpt>
      <trkpt lat="49.1216" lon="7.08839">
        <ele>227.3</ele>
        <time>2021-11-14T11:23:41Z</time>
      </trkpt>
      <trkpt lat="49.1216" lon="7.08839">
        <ele>227.3</ele>
        <time>2021-11-14T11:24:02Z</time>
      </trkpt>
      <trkpt lat="49.1216" lon="7.08839">
        <ele>227.3</ele>
        <time>2021-11-14T11:24:09Z</time>
      </trkpt>
      <trkpt lat="49.1216" lon="7.08839">
        <ele>227.3</ele>
        <time>2021-11-14T11:24:11Z</time>
      </trkpt>
      <trkpt lat="49.1216" lon="7.0884">
        <ele>227.3</ele>
        <time>2021-11-14T11:24:13Z</time>
      </trkpt>
      <trkpt lat="49.1216" lon="7.0884">
        <ele>227.3</ele>
        <time>2021-11-14T11:24:14Z</time>
      </trkpt>
      <trkpt lat="49.1216" lon="7.0884">
        <ele>227.3</ele>
        <time>2021-11-14T11:24:21Z</time>
      </trkpt>
      <trkpt lat="49.1216" lon="7.0884">
        <ele>227.3</ele>
        <time>2021-11-14T11:24:24Z</time>
      </trkpt>
      <trkpt lat="49.1216" lon="7.0884">
        <ele>227.3</ele>
        <time>2021-11-14T11:24:26Z</time>
      </trkpt>
      <trkpt lat="49.1216" lon="7.0884">
        <ele>227.3</ele>
        <time>2021-11-14T11:24:27Z</time>
      </trkpt>
      <trkpt lat="49.1216" lon="7.0884">
        <ele>227.3</ele>
        <time>2021-11-14T11:24:41Z</time>
      </trkpt>
      <trkpt lat="49.1216" lon="7.0884">
        <ele>227.3</ele>
        <time>2021-11-14T11:24:42Z</time>
      </trkpt>
      <trkpt lat="49.1216" lon="7.0884">
        <ele>227.3</ele>
        <time>2021-11-14T11:24:45Z</time>
      </trkpt>
      <trkpt lat="49.1216" lon="7.0884">
        <ele>227.3</ele>
        <time>2021-11-14T11:24:58Z</time>
      </trkpt>
      <trkpt lat="49.1216" lon="7.0884">
        <ele>227.3</ele>
        <time>2021-11-14T11:24:58Z</time>
      </trkpt>
    </trkseg>
  </trk>
</gpx>